Time,TemperatureF,DewpointF,PressureIn,WindDirection,WindDirectionDegrees,WindSpeedMPH,WindSpeedGustMPH,Humidity,HourlyPrecipIn,Conditions,Clouds,dailyrainin,SolarRadiationWatts/m^2,SoftwareType,DateUTC
2013-08-04 00:00:00,59.6,46.6,30.04,NNW,333,3.4,3.7,62,0.00,,,0.00,0.00,VWS V14.01,2013-08-04 04:00:00,
2013-08-04 00:01:00,58.9,44.3,30.04,NW,326,2.0,3.4,58,0.00,,,0.00,0.12,VWS V14.01,2013-08-04 04:01:00,
2013-08-04 00:02:00,59.5,47.1,30.05,NNW,327,2.7,3.0,63,0.00,,,0.00,0.43,VWS V14.01,2013-08-04 04:02:00,
2013-08-04 00:03:00,58.8,46.6,30.04,NW,321,2.7,3.0,64,0.00,,,0.00,0.00,VWS V14.01,2013-08-04 04:03:00,
2013-08-04 00:04:00,60.0,47.4,30.03,NW,319,2.0,2.2,63,0.00,,,0.00,0.73,VWS V14.01,2013-08-04 04:04:00,
2013-08-04 00:05:00,60.3,47.3,30.03,NW,311,3.5,3.5,62,0.00,,,0.00,0.00,VWS V14.01,2013-08-04 04:05:00,
2013-08-04 00:06:00,59.5,46.5,30.03,NW,325,1.5,3.5,62,0.00,,,0.00,0.12,VWS V14.01,2013-08-04 04:06:00,
2013-08-04 00:07:00,59.9,46.8,30.03,NW,325,0.0,1.5,62,0.00,,,0.00,0.00,VWS V14.01,2013-08-04 04:07:00,
2013-08-04 00:08:00,59.2,46.5,30.04,NW,325,0.0,1.5,63,0.00,,,0.00,0.00,VWS V14.01,2013-08-04 04:08:00,
2013-08-04 00:09:00,60.0,47.5,30.04,NW,310,2.5,2.5,63,0.00,,,0.00,0.43,VWS V14.01,2013-08-04 04:09:00,
2013-08-04 00:10:00,59.4,46.7,30.04,NW,317,0.0,2.5,63,0.00,,,0.00,0.43,VWS V14.01,2013-08-04 04:10:00,
2013-08-04 00:11:00,60.1,47.2,30.04,WNW,303,1.0,1.0,62,0.00,,,0.00,0.12,VWS V14.01,2013-08-04 04:11:00,
2013-08-04 00:12:00,59.6,46.7,30.03,NW,324,0.0,1.0,62,0.00,,,0.00,0.00,VWS V14.01,2013-08-04 04:12:00,
2013-08-04 00:13:00,60.5,47.2,30.04,West,275,2.5,2.5,62,0.00,,,0.00,0.00,VWS V14.01,2013-08-04 04:13:00,
2013-08-04 00:14:00,59.1,46.1,30.04,West,276,0.0,2.5,62,0.00,,,0.00,0.00,VWS V14.01,2013-08-04 04:14:00,
2013-08-04 00:15:00,58.2,45.6,30.04,WNW,293,0.0,0.0,63,0.00,,,0.00,0.12,VWS V14.01,2013-08-04 04:15:00,
2013-08-04 00:16:00,59.7,47.4,30.04,WNW,293,0.0,0.0,64,0.00,,,0.00,0.00,VWS V14.01,2013-08-04 04:16:00,
2013-08-04 00:17:00,60.0,47.3,30.04,NW,325,0.0,2.0,63,0.00,,,0.00,0.00,VWS V14.01,2013-08-04 04:17:00,
2013-08-04 00:18:00,60.5,47.4,30.04,North,6,0.0,0.0,62,0.00,,,0.00,0.43,VWS V14.01,2013-08-04 04:18:00,
2013-08-04 00:19:00,60.5,47.4,30.04,North,6,0.0,0.0,62,0.00,,,0.00,0.43,VWS V14.01,2013-08-04 04:19:00,
2013-08-04 00:20:00,59.5,46.9,30.05,West,277,0.0,1.1,63,0.00,,,0.00,0.00,VWS V14.01,2013-08-04 04:20:00,
2013-08-04 00:21:00,59.5,46.9,30.05,West,277,0.0,1.1,63,0.00,,,0.00,0.00,VWS V14.01,2013-08-04 04:21:00,
2013-08-04 00:22:00,59.4,47.0,30.04,West,277,0.0,0.0,63,0.00,,,0.00,0.00,VWS V14.01,2013-08-04 04:22:00,
2013-08-04 00:23:00,60.3,48.0,30.04,NE,49,0.0,0.0,64,0.00,,,0.00,0.43,VWS V14.01,2013-08-04 04:23:00,
2013-08-04 00:24:00,60.5,47.9,30.05,NNE,27,1.0,1.0,63,0.00,,,0.00,0.43,VWS V14.01,2013-08-04 04:24:00,
2013-08-04 00:25:00,59.9,47.2,30.04,West,277,0.0,0.0,63,0.00,,,0.00,0.06,VWS V14.01,2013-08-04 04:25:00,
2013-08-04 00:26:00,60.4,48.1,30.05,NE,45,2.8,2.8,64,0.00,,,0.00,0.00,VWS V14.01,2013-08-04 04:26:00,
2013-08-04 00:27:00,59.8,47.4,30.04,NW,307,1.6,2.8,64,0.00,,,0.00,0.98,VWS V14.01,2013-08-04 04:27:00,
2013-08-04 00:28:00,60.1,47.6,30.04,NW,316,0.0,1.6,63,0.00,,,0.00,0.00,VWS V14.01,2013-08-04 04:28:00,
2013-08-04 00:29:00,60.0,47.3,30.05,NNW,333,0.0,0.0,63,0.00,,,0.00,0.00,VWS V14.01,2013-08-04 04:29:00,
2013-08-04 00:30:00,59.6,47.1,30.04,NNW,330,0.0,0.0,63,0.00,,,0.00,0.00,VWS V14.01,2013-08-04 04:30:00,
2013-08-04 00:31:00,59.9,47.5,30.04,SSW,212,0.0,0.0,63,0.00,,,0.00,0.00,VWS V14.01,2013-08-04 04:31:00,
2013-08-04 00:32:00,60.3,48.0,30.05,NNE,30,1.6,1.6,64,0.00,,,0.00,0.00,VWS V14.01,2013-08-04 04:32:00,
2013-08-04 00:33:00,60.3,47.9,30.04,NNW,336,1.5,1.6,64,0.00,,,0.00,0.00,VWS V14.01,2013-08-04 04:33:00,
2013-08-04 00:34:00,59.7,47.3,30.05,NNE,12,0.0,1.0,64,0.00,,,0.00,0.12,VWS V14.01,2013-08-04 04:34:00,
2013-08-04 00:35:00,60.0,47.6,30.05,NW,323,0.0,1.1,64,0.00,,,0.00,0.00,VWS V14.01,2013-08-04 04:35:00,
2013-08-04 00:36:00,59.5,44.9,30.04,NW,310,0.0,0.0,58,0.00,,,0.00,0.43,VWS V14.01,2013-08-04 04:36:00,
2013-08-04 00:37:00,59.4,47.1,30.05,NW,310,0.0,0.0,64,0.00,,,0.00,0.00,VWS V14.01,2013-08-04 04:37:00,
2013-08-04 00:38:00,58.9,47.7,30.05,WSW,242,0.0,0.0,66,0.00,,,0.00,0.00,VWS V14.01,2013-08-04 04:38:00,
2013-08-04 00:39:00,59.3,48.3,30.07,West,270,0.0,0.0,67,0.00,,,0.00,0.06,VWS V14.01,2013-08-04 04:39:00,
2013-08-04 00:40:00,59.9,48.7,30.05,North,0,0.0,0.0,66,0.00,,,0.00,0.00,VWS V14.01,2013-08-04 04:40:00,
2013-08-04 00:41:00,59.3,48.3,30.04,NNE,20,0.0,0.0,67,0.00,,,0.00,0.00,VWS V14.01,2013-08-04 04:41:00,
2013-08-04 00:42:00,59.2,48.2,30.04,WSW,240,0.0,0.0,67,0.00,,,0.00,0.00,VWS V14.01,2013-08-04 04:42:00,
2013-08-04 00:43:00,59.5,48.5,30.05,North,349,1.0,1.0,67,0.00,,,0.00,0.00,VWS V14.01,2013-08-04 04:43:00,
2013-08-04 00:44:00,59.5,48.4,30.05,East,85,0.0,1.1,67,0.00,,,0.00,0.00,VWS V14.01,2013-08-04 04:44:00,
2013-08-04 00:45:00,58.6,47.8,30.05,East,85,0.0,0.0,67,0.00,,,0.00,0.73,VWS V14.01,2013-08-04 04:45:00,
2013-08-04 00:46:00,58.4,48.0,30.05,East,85,0.0,0.0,68,0.00,,,0.00,0.00,VWS V14.01,2013-08-04 04:46:00,
2013-08-04 00:47:00,58.9,49.0,30.04,East,85,0.0,0.0,70,0.00,,,0.00,0.00,VWS V14.01,2013-08-04 04:47:00,
2013-08-04 00:48:00,58.4,48.3,30.05,East,85,0.0,0.0,69,0.00,,,0.00,0.00,VWS V14.01,2013-08-04 04:48:00,
2013-08-04 00:49:00,59.5,49.1,30.05,NE,42,1.8,3.4,68,0.00,,,0.00,0.00,VWS V14.01,2013-08-04 04:49:00,
2013-08-04 00:50:00,59.7,47.0,30.05,NNW,340,2.2,2.2,63,0.00,,,0.00,0.00,VWS V14.01,2013-08-04 04:50:00,
2013-08-04 00:51:00,59.4,48.5,30.05,NNW,337,0.0,0.0,67,0.00,,,0.00,0.00,VWS V14.01,2013-08-04 04:51:00,
2013-08-04 00:52:00,59.3,47.2,30.05,WNW,287,0.0,1.0,64,0.00,,,0.00,0.00,VWS V14.01,2013-08-04 04:52:00,
2013-08-04 00:53:00,59.3,48.3,30.05,NNW,334,0.0,0.0,67,0.00,,,0.00,0.00,VWS V14.01,2013-08-04 04:53:00,
2013-08-04 00:54:00,58.9,48.4,30.05,West,268,0.0,0.0,68,0.00,,,0.00,0.43,VWS V14.01,2013-08-04 04:54:00,
2013-08-04 00:55:00,58.3,48.0,30.05,West,268,0.0,0.0,68,0.00,,,0.00,0.00,VWS V14.01,2013-08-04 04:55:00,
2013-08-04 00:56:00,59.2,48.9,30.05,West,274,0.0,0.0,69,0.00,,,0.00,0.00,VWS V14.01,2013-08-04 04:56:00,
2013-08-04 00:57:00,59.1,49.2,30.05,East,80,0.0,0.0,70,0.00,,,0.00,0.00,VWS V14.01,2013-08-04 04:57:00,
2013-08-04 00:58:00,59.7,49.7,30.04,West,274,1.0,1.0,69,0.00,,,0.00,0.00,VWS V14.01,2013-08-04 04:58:00,
2013-08-04 00:59:00,59.0,48.9,30.05,WNW,283,0.0,1.0,69,0.00,,,0.00,0.00,VWS V14.01,2013-08-04 04:59:00,
2013-08-04 01:00:00,57.5,50.7,30.07,WNW,286,0.0,1.0,78,0.00,,,0.00,0.00,VWS V14.01,2013-08-04 05:00:00,
2013-08-04 01:01:00,58.5,48.7,30.05,ESE,117,0.0,0.0,70,0.00,,,0.00,0.00,VWS V14.01,2013-08-04 05:01:00,
2013-08-04 01:04:00,59.0,49.2,30.05,NNE,33,1.8,2.7,70,0.00,,,0.00,0.00,VWS V14.01,2013-08-04 05:04:00,
2013-08-04 01:05:00,59.0,49.1,30.05,NE,40,0.0,1.8,70,0.00,,,0.00,0.00,VWS V14.01,2013-08-04 05:05:00,
2013-08-04 01:06:00,58.5,48.8,30.04,ENE,67,0.0,0.0,70,0.00,,,0.00,0.00,VWS V14.01,2013-08-04 05:06:00,
2013-08-04 01:07:00,59.1,49.2,30.05,ENE,67,0.0,0.0,70,0.00,,,0.00,0.00,VWS V14.01,2013-08-04 05:07:00,
2013-08-04 01:10:00,59.2,49.7,30.05,ENE,67,0.0,0.0,71,0.00,,,0.00,0.00,VWS V14.01,2013-08-04 05:10:00,
2013-08-04 01:11:00,59.2,49.7,30.05,ENE,67,0.0,0.0,71,0.00,,,0.00,0.00,VWS V14.01,2013-08-04 05:11:00,
2013-08-04 01:12:00,58.3,48.7,30.06,NE,39,0.0,0.0,70,0.00,,,0.00,0.00,VWS V14.01,2013-08-04 05:12:00,
2013-08-04 01:13:00,58.3,48.7,30.06,NE,39,0.0,0.0,70,0.00,,,0.00,0.00,VWS V14.01,2013-08-04 05:13:00,
2013-08-04 01:16:00,58.3,49.0,30.06,NE,39,0.0,0.0,71,0.00,,,0.00,0.00,VWS V14.01,2013-08-04 05:16:00,
2013-08-04 01:17:00,58.2,49.3,30.05,NE,39,0.0,0.0,72,0.00,,,0.00,0.00,VWS V14.01,2013-08-04 05:17:00,
2013-08-04 01:18:00,59.1,50.2,30.06,WNW,293,1.8,1.8,72,0.00,,,0.00,0.00,VWS V14.01,2013-08-04 05:18:00,
2013-08-04 01:20:00,58.5,49.5,30.06,NNW,345,0.0,0.0,72,0.00,,,0.00,0.00,VWS V14.01,2013-08-04 05:20:00,
2013-08-04 01:22:00,58.9,50.0,30.06,NW,317,0.0,0.0,72,0.00,,,0.00,0.00,VWS V14.01,2013-08-04 05:22:00,
2013-08-04 01:23:00,58.9,49.8,30.05,NW,317,2.2,2.2,72,0.00,,,0.00,0.00,VWS V14.01,2013-08-04 05:23:00,
2013-08-04 01:25:00,58.3,49.2,30.05,NW,317,0.0,0.0,72,0.00,,,0.00,0.00,VWS V14.01,2013-08-04 05:25:00,
2013-08-04 01:27:00,58.1,49.3,30.04,NW,325,0.0,1.6,72,0.00,,,0.00,0.00,VWS V14.01,2013-08-04 05:27:00,
2013-08-04 01:28:00,57.9,49.3,30.05,NNW,336,0.0,0.0,73,0.00,,,0.00,0.00,VWS V14.01,2013-08-04 05:28:00,
2013-08-04 01:29:00,58.3,49.7,30.05,NNW,336,0.0,0.0,73,0.00,,,0.00,0.00,VWS V14.01,2013-08-04 05:29:00,
2013-08-04 01:31:00,58.5,50.1,30.06,NNW,335,1.0,1.0,73,0.00,,,0.00,0.00,VWS V14.01,2013-08-04 05:31:00,
2013-08-04 01:32:00,58.2,49.7,30.06,NNW,335,0.0,1.0,73,0.00,,,0.00,0.00,VWS V14.01,2013-08-04 05:32:00,
2013-08-04 01:34:00,58.3,50.2,30.05,NE,54,0.0,0.0,74,0.00,,,0.00,0.00,VWS V14.01,2013-08-04 05:34:00,
2013-08-04 01:35:00,58.3,50.4,30.06,NNE,15,0.0,0.0,75,0.00,,,0.00,0.00,VWS V14.01,2013-08-04 05:35:00,
2013-08-04 01:37:00,57.3,49.2,30.05,NNE,15,0.0,0.0,74,0.00,,,0.00,0.43,VWS V14.01,2013-08-04 05:37:00,
2013-08-04 01:38:00,57.3,49.2,30.05,NNE,15,0.0,0.0,74,0.00,,,0.00,0.43,VWS V14.01,2013-08-04 05:38:00,
2013-08-04 01:40:00,58.1,50.7,30.06,NNW,341,0.0,0.0,76,0.00,,,0.00,0.00,VWS V14.01,2013-08-04 05:40:00,
2013-08-04 01:42:00,58.5,51.4,30.06,NNW,340,0.0,0.0,77,0.00,,,0.00,0.00,VWS V14.01,2013-08-04 05:42:00,
2013-08-04 01:43:00,57.9,50.6,30.06,NNW,340,0.0,0.0,77,0.00,,,0.00,0.00,VWS V14.01,2013-08-04 05:43:00,
2013-08-04 01:45:00,58.0,50.8,30.06,NNW,341,0.0,0.0,77,0.00,,,0.00,0.00,VWS V14.01,2013-08-04 05:45:00,
2013-08-04 01:46:00,58.0,50.6,30.05,NW,307,0.0,0.0,76,0.00,,,0.00,0.00,VWS V14.01,2013-08-04 05:46:00,
2013-08-04 01:48:00,57.7,50.4,30.05,NW,307,0.0,0.0,77,0.00,,,0.00,0.43,VWS V14.01,2013-08-04 05:48:00,
2013-08-04 01:49:00,57.5,50.2,30.05,NNW,338,2.2,2.2,77,0.00,,,0.00,0.00,VWS V14.01,2013-08-04 05:49:00,
2013-08-04 01:51:00,57.5,50.6,30.06,NW,324,1.0,2.2,78,0.00,,,0.00,0.00,VWS V14.01,2013-08-04 05:51:00,
2013-08-04 01:52:00,57.4,50.4,30.10,NW,323,0.0,0.0,77,0.00,,,0.00,0.00,VWS V14.01,2013-08-04 05:52:00,
2013-08-04 01:55:00,57.3,48.4,30.06,NW,320,0.0,1.1,72,0.00,,,0.00,0.00,VWS V14.01,2013-08-04 05:55:00,
2013-08-04 01:56:00,57.5,50.5,30.07,NW,320,0.0,0.0,77,0.00,,,0.00,0.00,VWS V14.01,2013-08-04 05:56:00,
2013-08-04 01:57:00,57.6,50.7,30.07,NW,322,0.0,0.0,78,0.00,,,0.00,0.00,VWS V14.01,2013-08-04 05:57:00,
2013-08-04 02:00:00,58.0,51.3,30.07,WNW,285,1.0,1.0,78,0.00,,,0.00,0.00,VWS V14.01,2013-08-04 06:00:00,
2013-08-04 02:01:00,57.5,50.7,30.07,WNW,286,0.0,1.0,78,0.00,,,0.00,0.00,VWS V14.01,2013-08-04 06:01:00,
2013-08-04 02:02:00,57.8,50.8,30.06,NNW,335,0.0,1.0,77,0.00,,,0.00,0.00,VWS V14.01,2013-08-04 06:02:00,
2013-08-04 02:04:00,57.3,50.3,30.06,NNW,335,0.0,1.0,78,0.00,,,0.00,0.00,VWS V14.01,2013-08-04 06:04:00,
2013-08-04 02:06:00,57.7,50.9,30.05,NNW,335,0.0,1.0,78,0.00,,,0.00,0.00,VWS V14.01,2013-08-04 06:06:00,
2013-08-04 02:08:00,57.3,50.6,30.06,WNW,294,1.0,2.0,78,0.00,,,0.00,0.00,VWS V14.01,2013-08-04 06:08:00,
2013-08-04 02:11:00,57.4,50.4,30.06,NW,320,1.3,3.4,77,0.00,,,0.00,0.00,VWS V14.01,2013-08-04 06:11:00,
2013-08-04 02:12:00,57.1,50.0,30.07,NW,320,0.0,3.4,77,0.00,,,0.00,0.00,VWS V14.01,2013-08-04 06:12:00,
2013-08-04 02:13:00,57.5,50.6,30.06,NNW,329,0.0,3.4,78,0.00,,,0.00,0.00,VWS V14.01,2013-08-04 06:13:00,
2013-08-04 02:14:00,57.9,51.0,30.06,NNW,337,0.0,3.4,78,0.00,,,0.00,0.00,VWS V14.01,2013-08-04 06:14:00,
2013-08-04 02:15:00,57.7,50.6,30.05,NNW,332,0.0,3.4,77,0.00,,,0.00,0.00,VWS V14.01,2013-08-04 06:15:00,
2013-08-04 02:16:00,57.7,50.7,30.06,North,10,1.3,3.4,77,0.00,,,0.00,0.00,VWS V14.01,2013-08-04 06:16:00,
2013-08-04 02:18:00,57.5,50.5,30.11,NW,312,0.0,3.4,77,0.00,,,0.00,0.00,VWS V14.01,2013-08-04 06:18:00,
2013-08-04 02:22:00,56.9,50.3,30.07,NW,312,0.0,3.4,79,0.00,,,0.00,0.00,VWS V14.01,2013-08-04 06:22:00,
2013-08-04 02:25:00,56.7,50.3,30.06,NW,323,1.0,3.4,79,0.00,,,0.00,0.00,VWS V14.01,2013-08-04 06:25:00,
2013-08-04 02:27:00,57.3,51.2,30.07,NW,324,1.6,3.4,80,0.00,,,0.00,0.00,VWS V14.01,2013-08-04 06:27:00,
2013-08-04 02:28:00,56.5,50.4,30.08,NW,324,1.3,3.4,80,0.00,,,0.00,0.00,VWS V14.01,2013-08-04 06:28:00,
2013-08-04 02:31:00,56.3,50.3,30.06,WNW,303,2.0,3.4,80,0.00,,,0.00,0.00,VWS V14.01,2013-08-04 06:31:00,
2013-08-04 02:33:00,57.2,51.2,30.06,NW,319,1.5,3.4,80,0.00,,,0.00,0.00,VWS V14.01,2013-08-04 06:33:00,
2013-08-04 02:35:00,56.7,50.7,30.08,NW,316,1.0,3.4,80,0.00,,,0.00,0.00,VWS V14.01,2013-08-04 06:35:00,
2013-08-04 02:37:00,56.5,50.5,30.07,NW,321,1.8,3.4,80,0.00,,,0.00,0.12,VWS V14.01,2013-08-04 06:37:00,
2013-08-04 02:39:00,56.8,50.8,30.07,WNW,302,0.0,3.4,80,0.00,,,0.00,0.12,VWS V14.01,2013-08-04 06:39:00,
2013-08-04 02:42:00,56.2,50.5,30.07,NW,320,2.0,3.4,81,0.00,,,0.00,0.00,VWS V14.01,2013-08-04 06:42:00,
2013-08-04 02:43:00,56.5,51.0,30.06,NW,321,0.0,3.4,82,0.00,,,0.00,0.00,VWS V14.01,2013-08-04 06:43:00,
2013-08-04 02:45:00,56.2,50.7,30.06,NW,321,1.3,3.4,82,0.00,,,0.00,0.00,VWS V14.01,2013-08-04 06:45:00,
2013-08-04 02:49:00,56.5,51.3,30.06,NNW,337,0.0,3.4,83,0.00,,,0.00,0.00,VWS V14.01,2013-08-04 06:49:00,
2013-08-04 02:50:00,56.8,51.7,30.07,NNW,332,1.0,3.4,83,0.00,,,0.00,0.43,VWS V14.01,2013-08-04 06:50:00,
2013-08-04 02:53:00,56.5,51.3,30.06,NW,323,2.0,3.4,82,0.00,,,0.00,0.43,VWS V14.01,2013-08-04 06:53:00,
2013-08-04 02:54:00,56.6,51.3,30.11,NW,323,1.6,3.4,83,0.00,,,0.00,0.43,VWS V14.01,2013-08-04 06:54:00,
2013-08-04 02:55:00,55.4,50.1,30.08,NW,323,0.0,3.4,82,0.00,,,0.00,0.00,VWS V14.01,2013-08-04 06:55:00,
2013-08-04 02:58:00,56.9,51.4,30.07,NNW,330,2.7,3.4,82,0.00,,,0.00,0.00,VWS V14.01,2013-08-04 06:58:00,
2013-08-04 02:59:00,56.8,51.3,30.07,NNW,329,2.0,3.4,82,0.00,,,0.00,0.00,VWS V14.01,2013-08-04 06:59:00,
2013-08-04 03:00:00,56.5,50.9,30.07,NW,319,3.2,3.4,81,0.00,,,0.00,0.00,VWS V14.01,2013-08-04 07:00:00,
2013-08-04 03:01:00,56.5,50.9,30.07,NW,319,3.2,3.4,81,0.00,,,0.00,0.00,VWS V14.01,2013-08-04 07:01:00,
2013-08-04 03:02:00,58.5,48.6,30.06,NNE,14,0.0,0.0,70,0.00,,,0.00,0.00,VWS V14.01,2013-08-04 07:02:00,
2013-08-04 03:03:00,59.2,49.3,30.05,NNE,18,2.7,2.7,70,0.00,,,0.00,0.00,VWS V14.01,2013-08-04 07:03:00,
2013-08-04 03:04:00,56.3,49.5,30.07,NW,314,2.5,3.4,78,0.00,,,0.00,0.00,VWS V14.01,2013-08-04 07:04:00,
2013-08-04 03:05:00,58.8,48.8,30.04,NE,36,0.0,1.8,70,0.00,,,0.00,0.00,VWS V14.01,2013-08-04 07:05:00,
2013-08-04 03:06:00,56.4,51.2,30.08,NNW,329,2.2,3.5,83,0.00,,,0.00,0.00,VWS V14.01,2013-08-04 07:06:00,
2013-08-04 03:07:00,56.1,49.7,30.08,NW,319,2.7,3.5,79,0.00,,,0.00,0.00,VWS V14.01,2013-08-04 07:07:00,
2013-08-04 03:08:00,58.1,48.6,30.06,ENE,67,0.0,0.0,71,0.00,,,0.00,0.00,VWS V14.01,2013-08-04 07:08:00,
2013-08-04 03:09:00,55.7,50.3,30.08,NW,318,2.3,3.5,82,0.00,,,0.00,0.00,VWS V14.01,2013-08-04 07:09:00,
2013-08-04 03:10:00,58.9,49.6,30.05,WNW,300,0.0,0.0,71,0.00,,,0.00,0.00,VWS V14.01,2013-08-04 07:10:00,
2013-08-04 03:11:00,56.7,51.6,30.08,NNW,335,1.1,3.5,83,0.00,,,0.00,0.00,VWS V14.01,2013-08-04 07:11:00,
2013-08-04 03:12:00,56.3,51.2,30.08,NW,322,3.2,3.5,83,0.00,,,0.00,0.00,VWS V14.01,2013-08-04 07:12:00,
2013-08-04 03:13:00,58.3,48.7,30.06,NE,39,0.0,0.0,70,0.00,,,0.00,0.00,VWS V14.01,2013-08-04 07:13:00,
2013-08-04 03:14:00,56.0,51.1,30.08,NW,319,2.3,3.5,84,0.00,,,0.00,0.00,VWS V14.01,2013-08-04 07:14:00,
2013-08-04 03:15:00,58.7,49.3,30.05,NE,39,0.0,0.0,71,0.00,,,0.00,0.73,VWS V14.01,2013-08-04 07:15:00,
2013-08-04 03:16:00,58.3,49.0,30.06,NE,39,0.0,0.0,71,0.00,,,0.00,0.00,VWS V14.01,2013-08-04 07:16:00,
2013-08-04 03:17:00,56.4,51.7,30.08,NW,320,0.0,3.5,84,0.00,,,0.00,0.00,VWS V14.01,2013-08-04 07:17:00,
2013-08-04 03:18:00,56.1,51.2,30.08,NW,320,2.3,3.5,84,0.00,,,0.00,0.00,VWS V14.01,2013-08-04 07:18:00,
2013-08-04 03:19:00,56.4,51.5,30.08,NW,325,2.8,3.5,84,0.00,,,0.00,0.00,VWS V14.01,2013-08-04 07:19:00,
2013-08-04 03:20:00,56.6,51.9,30.08,NNW,338,1.3,3.5,84,0.00,,,0.00,0.00,VWS V14.01,2013-08-04 07:20:00,
2013-08-04 03:21:00,56.3,51.5,30.07,North,350,2.2,3.5,84,0.00,,,0.00,0.06,VWS V14.01,2013-08-04 07:21:00,
2013-08-04 03:22:00,58.9,49.9,30.06,NW,317,0.0,0.0,72,0.00,,,0.00,0.00,VWS V14.01,2013-08-04 07:22:00,
2013-08-04 03:23:00,58.6,48.0,30.05,NW,317,0.0,0.0,68,0.00,,,0.00,0.00,VWS V14.01,2013-08-04 07:23:00,
2013-08-04 03:24:00,56.1,51.4,30.09,North,351,0.0,3.5,84,0.00,,,0.00,0.00,VWS V14.01,2013-08-04 07:24:00,
2013-08-04 03:25:00,55.9,51.3,30.08,North,351,0.0,3.5,85,0.00,,,0.00,0.00,VWS V14.01,2013-08-04 07:25:00,
2013-08-04 03:26:00,55.7,51.2,30.08,WNW,293,0.0,3.5,85,0.00,,,0.00,0.00,VWS V14.01,2013-08-04 07:26:00,
2013-08-04 03:27:00,55.9,51.6,30.07,WNW,293,0.0,3.5,85,0.00,,,0.00,0.00,VWS V14.01,2013-08-04 07:27:00,
2013-08-04 03:28:00,55.9,51.6,30.07,WNW,293,0.0,3.5,85,0.00,,,0.00,0.00,VWS V14.01,2013-08-04 07:28:00,
2013-08-04 03:29:00,55.6,51.4,30.07,WNW,301,0.0,3.5,86,0.00,,,0.00,0.00,VWS V14.01,2013-08-04 07:29:00,
2013-08-04 03:30:00,58.5,50.0,30.06,NNW,336,0.0,0.0,73,0.00,,,0.00,0.00,VWS V14.01,2013-08-04 07:30:00,
2013-08-04 03:31:00,55.6,51.7,30.08,WNW,301,0.0,3.5,87,0.00,,,0.00,0.00,VWS V14.01,2013-08-04 07:31:00,
2013-08-04 03:32:00,58.2,49.7,30.06,NNW,335,0.0,1.0,73,0.00,,,0.00,0.00,VWS V14.01,2013-08-04 07:32:00,
2013-08-04 03:33:00,55.4,51.6,30.08,WNW,301,0.0,3.5,87,0.00,,,0.00,0.00,VWS V14.01,2013-08-04 07:33:00,
2013-08-04 03:34:00,55.9,52.3,30.12,WNW,302,0.0,3.5,88,0.00,,,0.00,0.00,VWS V14.01,2013-08-04 07:34:00,
2013-08-04 03:35:00,56.1,52.5,30.09,WNW,302,0.0,3.5,88,0.00,,,0.00,0.00,VWS V14.01,2013-08-04 07:35:00,
2013-08-04 03:36:00,57.9,50.0,30.06,NNE,15,0.0,0.0,75,0.00,,,0.00,0.00,VWS V14.01,2013-08-04 07:36:00,
2013-08-04 03:37:00,56.0,52.4,30.11,North,351,0.0,3.5,88,0.00,,,0.00,0.00,VWS V14.01,2013-08-04 07:37:00,
2013-08-04 03:38:00,55.8,52.0,30.08,North,360,0.0,3.5,87,0.00,,,0.00,0.00,VWS V14.01,2013-08-04 07:38:00,
2013-08-04 03:39:00,56.0,52.2,30.07,NW,322,1.0,3.5,87,0.00,,,0.00,0.12,VWS V14.01,2013-08-04 07:39:00,
2013-08-04 03:40:00,58.1,50.7,30.06,NNW,341,0.0,0.0,76,0.00,,,0.00,0.00,VWS V14.01,2013-08-04 07:40:00,
2013-08-04 03:41:00,55.4,51.6,30.08,NNW,330,1.3,3.5,87,0.00,,,0.00,0.00,VWS V14.01,2013-08-04 07:41:00,
2013-08-04 03:42:00,58.2,51.1,30.06,NNW,340,0.0,0.0,77,0.00,,,0.00,0.00,VWS V14.01,2013-08-04 07:42:00,
2013-08-04 03:43:00,55.8,52.0,30.08,NNW,330,0.0,3.5,87,0.00,,,0.00,0.00,VWS V14.01,2013-08-04 07:43:00,
2013-08-04 03:44:00,55.5,51.8,30.09,NNW,330,1.3,3.5,87,0.00,,,0.00,0.00,VWS V14.01,2013-08-04 07:44:00,
2013-08-04 03:45:00,55.5,51.9,30.09,NNW,330,0.0,3.5,88,0.00,,,0.00,0.00,VWS V14.01,2013-08-04 07:45:00,
2013-08-04 03:46:00,57.8,50.5,30.05,NNW,348,0.0,1.3,77,0.00,,,0.00,0.00,VWS V14.01,2013-08-04 07:46:00,
2013-08-04 03:47:00,55.8,52.3,30.09,NNW,330,0.0,3.5,88,0.00,,,0.00,0.12,VWS V14.01,2013-08-04 07:47:00,
2013-08-04 03:48:00,55.7,52.2,30.09,NNW,329,0.0,3.5,88,0.00,,,0.00,0.00,VWS V14.01,2013-08-04 07:48:00,
2013-08-04 03:49:00,55.2,51.6,30.09,NNW,328,2.3,3.5,88,0.00,,,0.00,0.43,VWS V14.01,2013-08-04 07:49:00,
2013-08-04 03:50:00,57.4,50.4,30.06,NNW,338,0.0,2.2,77,0.00,,,0.00,0.00,VWS V14.01,2013-08-04 07:50:00,
2013-08-04 03:51:00,55.0,51.2,30.13,NNW,334,2.0,3.5,87,0.00,,,0.00,0.00,VWS V14.01,2013-08-04 07:51:00,
2013-08-04 03:52:00,57.8,50.9,30.06,NW,324,0.0,2.2,78,0.00,,,0.00,0.00,VWS V14.01,2013-08-04 07:52:00,
2013-08-04 03:53:00,56.3,52.7,30.10,NW,323,2.7,3.5,88,0.00,,,0.00,0.00,VWS V14.01,2013-08-04 07:53:00,
2013-08-04 03:54:00,56.3,52.7,30.10,NW,323,2.7,3.5,88,0.00,,,0.00,0.00,VWS V14.01,2013-08-04 07:54:00,
2013-08-04 03:55:00,55.0,51.4,30.08,NNW,330,2.3,3.5,87,0.00,,,0.00,0.73,VWS V14.01,2013-08-04 07:55:00,
2013-08-04 03:56:00,57.5,50.5,30.07,NW,320,0.0,0.0,77,0.00,,,0.00,0.00,VWS V14.01,2013-08-04 07:56:00,
2013-08-04 03:57:00,55.1,51.6,30.09,NNW,334,2.0,3.5,88,0.00,,,0.00,0.00,VWS V14.01,2013-08-04 07:57:00,
2013-08-04 03:58:00,55.2,51.7,30.09,NNW,328,0.0,3.5,88,0.00,,,0.00,0.00,VWS V14.01,2013-08-04 07:58:00,
2013-08-04 03:59:00,55.7,52.2,30.08,NNW,328,1.5,3.5,88,0.00,,,0.00,0.00,VWS V14.01,2013-08-04 07:59:00,
2013-08-04 04:00:00,55.6,52.2,30.08,NNW,327,1.1,3.5,88,0.00,,,0.00,0.00,VWS V14.01,2013-08-04 08:00:00,
2013-08-04 04:01:00,55.4,51.8,30.08,NNW,327,2.3,3.5,88,0.00,,,0.00,0.00,VWS V14.01,2013-08-04 08:01:00,
2013-08-04 04:02:00,55.4,51.8,30.08,NNW,327,2.3,3.5,88,0.00,,,0.00,0.00,VWS V14.01,2013-08-04 08:02:00,
2013-08-04 04:03:00,55.6,52.1,30.08,NNW,327,2.2,2.2,88,0.00,,,0.00,0.00,VWS V14.01,2013-08-04 08:03:00,
2013-08-04 04:04:00,55.6,52.1,30.08,NNW,327,2.2,2.2,88,0.00,,,0.00,0.00,VWS V14.01,2013-08-04 08:04:00,
2013-08-04 04:05:00,55.1,51.4,30.10,NNW,327,1.3,2.2,87,0.00,,,0.00,0.00,VWS V14.01,2013-08-04 08:05:00,
2013-08-04 04:06:00,55.2,51.7,30.09,NW,321,1.1,2.5,88,0.00,,,0.00,0.00,VWS V14.01,2013-08-04 08:06:00,
2013-08-04 04:07:00,55.1,51.5,30.10,NNW,342,2.7,2.7,87,0.00,,,0.00,0.00,VWS V14.01,2013-08-04 08:07:00,
2013-08-04 04:08:00,55.0,51.4,30.10,NW,317,2.2,2.7,87,0.00,,,0.00,0.37,VWS V14.01,2013-08-04 08:08:00,
2013-08-04 04:09:00,54.8,51.2,30.12,NW,317,2.3,2.3,88,0.00,,,0.00,0.00,VWS V14.01,2013-08-04 08:09:00,
2013-08-04 04:10:00,54.9,51.3,30.09,NW,317,2.2,2.3,88,0.00,,,0.00,0.00,VWS V14.01,2013-08-04 08:10:00,
2013-08-04 04:11:00,54.9,51.4,30.09,NW,317,2.7,2.7,88,0.00,,,0.00,0.00,VWS V14.01,2013-08-04 08:11:00,
2013-08-04 04:12:00,54.6,51.2,30.09,NW,325,2.7,2.7,89,0.00,,,0.00,0.00,VWS V14.01,2013-08-04 08:12:00,
2013-08-04 04:13:00,55.2,51.9,30.12,NW,318,2.8,2.8,89,0.00,,,0.00,0.00,VWS V14.01,2013-08-04 08:13:00,
2013-08-04 04:14:00,55.1,51.9,30.09,NW,325,2.3,2.8,89,0.00,,,0.00,0.00,VWS V14.01,2013-08-04 08:14:00,
2013-08-04 04:15:00,55.4,52.3,30.09,NW,321,2.8,2.8,89,0.00,,,0.00,0.00,VWS V14.01,2013-08-04 08:15:00,
2013-08-04 04:16:00,55.0,51.9,30.10,NW,326,3.0,3.0,89,0.00,,,0.00,0.43,VWS V14.01,2013-08-04 08:16:00,
2013-08-04 04:17:00,54.9,51.8,30.10,NW,325,3.7,3.7,89,0.00,,,0.00,0.12,VWS V14.01,2013-08-04 08:17:00,
2013-08-04 04:18:00,55.2,52.1,30.10,NW,325,2.5,3.7,89,0.00,,,0.00,0.00,VWS V14.01,2013-08-04 08:18:00,
2013-08-04 04:19:00,55.2,52.1,30.10,NW,325,2.5,3.7,89,0.00,,,0.00,0.00,VWS V14.01,2013-08-04 08:19:00,
2013-08-04 04:20:00,55.6,52.4,30.10,NW,316,1.0,2.3,89,0.00,,,0.00,0.00,VWS V14.01,2013-08-04 08:20:00,
2013-08-04 04:21:00,55.0,51.6,30.09,NW,308,3.5,3.5,88,0.00,,,0.00,0.00,VWS V14.01,2013-08-04 08:21:00,
2013-08-04 04:22:00,55.7,52.4,30.09,NW,308,2.7,3.5,89,0.00,,,0.00,0.00,VWS V14.01,2013-08-04 08:22:00,
2013-08-04 04:23:00,55.1,51.7,30.10,NW,321,1.5,2.7,88,0.00,,,0.00,0.00,VWS V14.01,2013-08-04 08:23:00,
2013-08-04 04:24:00,54.4,51.0,30.10,NW,305,2.3,2.3,88,0.00,,,0.00,0.00,VWS V14.01,2013-08-04 08:24:00,
2013-08-04 04:25:00,55.1,51.7,30.10,NW,322,2.0,2.3,88,0.00,,,0.00,0.00,VWS V14.01,2013-08-04 08:25:00,
2013-08-04 04:26:00,54.2,50.9,30.10,NW,322,2.3,2.3,88,0.00,,,0.00,0.00,VWS V14.01,2013-08-04 08:26:00,
2013-08-04 04:27:00,54.2,50.9,30.10,NW,322,0.0,2.3,89,0.00,,,0.00,0.00,VWS V14.01,2013-08-04 08:27:00,
2013-08-04 04:28:00,54.4,51.3,30.10,NW,322,0.0,0.0,89,0.00,,,0.00,0.00,VWS V14.01,2013-08-04 08:28:00,
2013-08-04 04:29:00,54.7,51.8,30.10,NW,322,0.0,0.0,90,0.00,,,0.00,0.00,VWS V14.01,2013-08-04 08:29:00,
2013-08-04 04:30:00,54.8,52.0,30.09,NW,322,0.0,0.0,90,0.00,,,0.00,0.43,VWS V14.01,2013-08-04 08:30:00,
2013-08-04 04:31:00,54.8,52.1,30.09,NW,322,1.0,1.3,91,0.00,,,0.00,0.00,VWS V14.01,2013-08-04 08:31:00,
2013-08-04 04:32:00,54.5,51.7,30.09,NW,322,0.0,1.5,90,0.00,,,0.00,0.00,VWS V14.01,2013-08-04 08:32:00,
2013-08-04 04:33:00,55.5,52.9,30.14,NW,322,0.0,0.0,91,0.00,,,0.00,0.00,VWS V14.01,2013-08-04 08:33:00,
2013-08-04 04:34:00,54.9,52.4,30.11,NW,322,1.0,1.0,91,0.00,,,0.00,0.00,VWS V14.01,2013-08-04 08:34:00,
2013-08-04 04:35:00,54.8,52.2,30.10,NW,314,1.3,1.3,91,0.00,,,0.00,0.00,VWS V14.01,2013-08-04 08:35:00,
2013-08-04 04:36:00,55.1,52.4,30.11,NW,314,0.0,1.3,91,0.00,,,0.00,0.06,VWS V14.01,2013-08-04 08:36:00,
2013-08-04 04:37:00,54.9,52.2,30.10,NW,314,0.0,0.0,91,0.00,,,0.00,0.00,VWS V14.01,2013-08-04 08:37:00,
2013-08-04 04:38:00,55.0,52.3,30.11,NW,314,1.3,1.3,91,0.00,,,0.00,0.00,VWS V14.01,2013-08-04 08:38:00,
2013-08-04 04:39:00,54.1,51.4,30.10,NW,314,0.0,1.6,90,0.00,,,0.00,0.00,VWS V14.01,2013-08-04 08:39:00,
2013-08-04 04:40:00,54.5,51.8,30.10,NW,314,0.0,1.3,90,0.00,,,0.00,0.00,VWS V14.01,2013-08-04 08:40:00,
2013-08-04 04:41:00,54.5,51.8,30.10,NW,314,2.3,2.3,91,0.00,,,0.00,0.12,VWS V14.01,2013-08-04 08:41:00,
2013-08-04 04:42:00,54.0,51.3,30.10,NW,316,0.0,1.5,91,0.00,,,0.00,0.00,VWS V14.01,2013-08-04 08:42:00,
2013-08-04 04:43:00,54.5,52.1,30.09,NW,316,1.5,2.5,91,0.00,,,0.00,0.00,VWS V14.01,2013-08-04 08:43:00,
2013-08-04 04:44:00,55.0,52.5,30.09,NW,316,2.0,2.0,91,0.00,,,0.00,0.00,VWS V14.01,2013-08-04 08:44:00,
2013-08-04 04:45:00,54.5,52.0,30.09,NW,316,0.0,2.0,91,0.00,,,0.00,0.00,VWS V14.01,2013-08-04 08:45:00,
2013-08-04 04:46:00,54.5,52.1,30.09,NW,316,0.0,0.0,92,0.00,,,0.00,0.00,VWS V14.01,2013-08-04 08:46:00,
2013-08-04 04:47:00,54.8,52.4,30.10,NW,316,0.0,0.0,92,0.00,,,0.00,0.00,VWS V14.01,2013-08-04 08:47:00,
2013-08-04 04:48:00,54.5,52.1,30.10,NW,316,0.0,0.0,92,0.00,,,0.00,0.00,VWS V14.01,2013-08-04 08:48:00,
2013-08-04 04:49:00,54.6,52.2,30.10,NW,316,0.0,0.0,92,0.00,,,0.00,0.00,VWS V14.01,2013-08-04 08:49:00,
2013-08-04 04:50:00,54.4,52.1,30.08,NW,316,0.0,0.0,92,0.00,,,0.00,0.00,VWS V14.01,2013-08-04 08:50:00,
2013-08-04 04:51:00,53.8,51.5,30.09,NNE,33,0.0,0.0,92,0.00,,,0.00,0.73,VWS V14.01,2013-08-04 08:51:00,
2013-08-04 04:52:00,54.1,51.8,30.09,NNE,33,0.0,0.0,92,0.00,,,0.00,0.00,VWS V14.01,2013-08-04 08:52:00,
2013-08-04 04:53:00,53.4,51.4,30.10,North,4,0.0,0.0,93,0.00,,,0.00,0.00,VWS V14.01,2013-08-04 08:53:00,
2013-08-04 04:54:00,53.2,51.2,30.10,North,360,0.0,0.0,93,0.00,,,0.00,0.73,VWS V14.01,2013-08-04 08:54:00,
2013-08-04 04:55:00,53.7,51.7,30.10,North,360,0.0,0.0,93,0.00,,,0.00,0.00,VWS V14.01,2013-08-04 08:55:00,
2013-08-04 04:56:00,54.3,52.6,30.09,North,0,0.0,0.0,94,0.00,,,0.00,0.00,VWS V14.01,2013-08-04 08:56:00,
2013-08-04 04:57:00,53.8,52.2,30.11,North,0,0.0,0.0,94,0.00,,,0.00,0.00,VWS V14.01,2013-08-04 08:57:00,
2013-08-04 04:58:00,53.7,52.1,30.10,NNW,344,0.0,0.0,94,0.00,,,0.00,0.00,VWS V14.01,2013-08-04 08:58:00,
2013-08-04 04:59:00,54.3,52.7,30.09,NNW,344,0.0,0.0,94,0.00,,,0.00,0.00,VWS V14.01,2013-08-04 08:59:00,
2013-08-04 05:00:00,54.3,52.7,30.10,NNW,344,0.0,0.0,94,0.00,,,0.00,0.00,VWS V14.01,2013-08-04 09:00:00,
2013-08-04 05:01:00,54.5,52.9,30.10,NNW,344,0.0,0.0,94,0.00,,,0.00,0.00,VWS V14.01,2013-08-04 09:01:00,
2013-08-04 05:02:00,53.5,51.9,30.09,NNW,343,0.0,0.0,94,0.00,,,0.00,0.00,VWS V14.01,2013-08-04 09:02:00,
2013-08-04 05:03:00,53.8,52.2,30.10,NNW,343,0.0,0.0,94,0.00,,,0.00,0.00,VWS V14.01,2013-08-04 09:03:00,
2013-08-04 05:04:00,54.0,52.5,30.10,NNW,343,0.0,0.0,95,0.00,,,0.00,0.06,VWS V14.01,2013-08-04 09:04:00,
2013-08-04 05:05:00,53.9,52.4,30.10,NNW,329,1.8,1.8,94,0.00,,,0.00,0.00,VWS V14.01,2013-08-04 09:05:00,
2013-08-04 05:06:00,53.8,52.3,30.10,NNW,329,1.8,1.8,94,0.00,,,0.00,0.00,VWS V14.01,2013-08-04 09:06:00,
2013-08-04 05:07:00,53.6,52.0,30.10,NNW,329,1.6,2.7,94,0.00,,,0.00,0.00,VWS V14.01,2013-08-04 09:07:00,
2013-08-04 05:08:00,53.0,51.5,30.10,NNW,329,1.8,1.8,94,0.00,,,0.00,0.00,VWS V14.01,2013-08-04 09:08:00,
2013-08-04 05:09:00,53.4,52.0,30.10,NNW,329,0.0,2.2,95,0.00,,,0.00,0.00,VWS V14.01,2013-08-04 09:09:00,
2013-08-04 05:10:00,53.8,52.4,30.10,NNW,329,0.0,0.0,95,0.00,,,0.00,0.43,VWS V14.01,2013-08-04 09:10:00,
2013-08-04 05:11:00,53.5,52.1,30.11,NNW,329,0.0,0.0,95,0.00,,,0.00,0.00,VWS V14.01,2013-08-04 09:11:00,
2013-08-04 05:12:00,53.3,52.0,30.10,NNW,329,0.0,0.0,95,0.00,,,0.00,0.00,VWS V14.01,2013-08-04 09:12:00,
2013-08-04 05:13:00,53.3,52.0,30.10,NNW,329,0.0,0.0,95,0.00,,,0.00,0.00,VWS V14.01,2013-08-04 09:13:00,
2013-08-04 05:14:00,54.1,52.9,30.10,NNW,329,1.0,1.0,96,0.00,,,0.00,0.00,VWS V14.01,2013-08-04 09:14:00,
2013-08-04 05:15:00,53.5,52.3,30.11,NNW,329,0.0,1.0,95,0.00,,,0.00,0.00,VWS V14.01,2013-08-04 09:15:00,
2013-08-04 05:16:00,54.0,52.7,30.10,NNW,329,0.0,0.0,95,0.00,,,0.00,0.73,VWS V14.01,2013-08-04 09:16:00,
2013-08-04 05:17:00,53.2,51.9,30.10,NNW,329,1.6,2.5,95,0.00,,,0.00,0.00,VWS V14.01,2013-08-04 09:17:00,
2013-08-04 05:18:00,53.4,52.2,30.10,NNW,329,0.0,0.0,95,0.00,,,0.00,0.00,VWS V14.01,2013-08-04 09:18:00,
2013-08-04 05:19:00,53.2,52.0,30.10,NNW,329,0.0,0.0,96,0.00,,,0.00,0.00,VWS V14.01,2013-08-04 09:19:00,
2013-08-04 05:20:00,54.4,53.2,30.09,NNW,327,2.7,2.7,96,0.00,,,0.00,0.00,VWS V14.01,2013-08-04 09:20:00,
2013-08-04 05:21:00,53.6,52.5,30.10,NW,325,2.3,2.7,96,0.00,,,0.00,0.73,VWS V14.01,2013-08-04 09:21:00,
2013-08-04 05:22:00,53.6,52.4,30.10,NW,325,1.8,2.3,96,0.00,,,0.00,0.00,VWS V14.01,2013-08-04 09:22:00,
2013-08-04 05:23:00,53.6,52.4,30.10,NW,325,1.8,2.3,96,0.00,,,0.00,0.00,VWS V14.01,2013-08-04 09:23:00,
2013-08-04 05:24:00,54.7,53.5,30.09,NNW,328,2.5,2.8,96,0.00,,,0.00,0.00,VWS V14.01,2013-08-04 09:24:00,
2013-08-04 05:25:00,53.4,52.0,30.10,NW,325,1.5,2.3,95,0.00,,,0.00,0.00,VWS V14.01,2013-08-04 09:25:00,
2013-08-04 05:26:00,54.1,52.6,30.09,NW,325,2.2,2.2,95,0.00,,,0.00,0.00,VWS V14.01,2013-08-04 09:26:00,
2013-08-04 05:27:00,54.2,52.6,30.11,NW,318,2.2,2.7,94,0.00,,,0.00,0.00,VWS V14.01,2013-08-04 09:27:00,
2013-08-04 05:28:00,54.1,52.6,30.11,NW,318,0.0,2.3,95,0.00,,,0.00,0.00,VWS V14.01,2013-08-04 09:28:00,
2013-08-04 05:29:00,54.1,52.6,30.11,NW,318,0.0,0.0,95,0.00,,,0.00,0.12,VWS V14.01,2013-08-04 09:29:00,
2013-08-04 05:30:00,54.4,52.9,30.10,NW,318,0.0,0.0,95,0.00,,,0.00,0.00,VWS V14.01,2013-08-04 09:30:00,
2013-08-04 05:31:00,53.9,52.4,30.10,NW,318,0.0,0.0,94,0.00,,,0.00,0.00,VWS V14.01,2013-08-04 09:31:00,
2013-08-04 05:32:00,53.7,52.0,30.10,NW,318,0.0,0.0,94,0.00,,,0.00,0.00,VWS V14.01,2013-08-04 09:32:00,
2013-08-04 05:33:00,53.6,50.4,30.10,NW,318,0.0,0.0,89,0.00,,,0.00,0.00,VWS V14.01,2013-08-04 09:33:00,
2013-08-04 05:34:00,53.9,52.3,30.10,NW,318,0.0,0.0,94,0.00,,,0.00,0.00,VWS V14.01,2013-08-04 09:34:00,
2013-08-04 05:35:00,54.0,52.5,30.10,NW,318,0.0,0.0,95,0.00,,,0.00,0.00,VWS V14.01,2013-08-04 09:35:00,
2013-08-04 05:36:00,53.9,52.4,30.11,NW,318,0.0,0.0,95,0.00,,,0.00,0.00,VWS V14.01,2013-08-04 09:36:00,
2013-08-04 05:37:00,54.2,52.7,30.11,North,352,0.0,0.0,95,0.00,,,0.00,0.00,VWS V14.01,2013-08-04 09:37:00,
2013-08-04 05:39:00,53.4,51.9,30.09,North,352,0.0,0.0,94,0.00,,,0.00,0.00,VWS V14.01,2013-08-04 09:39:00,
2013-08-04 05:40:00,53.4,51.9,30.10,North,352,0.0,0.0,95,0.00,,,0.00,0.00,VWS V14.01,2013-08-04 09:40:00,
2013-08-04 05:41:00,53.7,52.4,30.09,North,352,0.0,0.0,95,0.00,,,0.00,0.00,VWS V14.01,2013-08-04 09:41:00,
2013-08-04 05:42:00,53.7,52.4,30.09,North,352,0.0,0.0,95,0.00,,,0.00,0.00,VWS V14.01,2013-08-04 09:42:00,
2013-08-04 05:43:00,53.6,52.4,30.10,North,352,0.0,0.0,96,0.00,,,0.00,0.00,VWS V14.01,2013-08-04 09:43:00,
2013-08-04 05:44:00,54.1,53.1,30.09,North,352,0.0,0.0,96,0.00,,,0.00,0.00,VWS V14.01,2013-08-04 09:44:00,
2013-08-04 05:45:00,53.5,52.5,30.10,North,352,0.0,0.0,96,0.00,,,0.00,0.00,VWS V14.01,2013-08-04 09:45:00,
2013-08-04 05:46:00,53.9,52.9,30.10,North,352,0.0,0.0,96,0.00,,,0.00,0.00,VWS V14.01,2013-08-04 09:46:00,
2013-08-04 05:47:00,53.9,52.9,30.10,North,352,0.0,0.0,96,0.00,,,0.00,0.00,VWS V14.01,2013-08-04 09:47:00,
2013-08-04 05:48:00,53.9,53.0,30.08,North,352,0.0,0.0,97,0.00,,,0.00,0.00,VWS V14.01,2013-08-04 09:48:00,
2013-08-04 05:49:00,53.8,52.8,30.09,North,352,0.0,0.0,97,0.00,,,0.00,0.12,VWS V14.01,2013-08-04 09:49:00,
2013-08-04 05:50:00,53.4,52.4,30.10,North,352,0.0,0.0,96,0.00,,,0.00,0.00,VWS V14.01,2013-08-04 09:50:00,
2013-08-04 05:51:00,53.6,52.6,30.09,North,352,0.0,0.0,96,0.00,,,0.00,0.00,VWS V14.01,2013-08-04 09:51:00,
2013-08-04 05:52:00,53.7,52.7,30.10,North,352,0.0,0.0,96,0.00,,,0.00,0.00,VWS V14.01,2013-08-04 09:52:00,
2013-08-04 05:53:00,53.8,52.8,30.11,North,352,0.0,0.0,96,0.00,,,0.00,0.00,VWS V14.01,2013-08-04 09:53:00,
2013-08-04 05:54:00,53.2,52.2,30.10,North,352,0.0,0.0,96,0.00,,,0.00,0.00,VWS V14.01,2013-08-04 09:54:00,
2013-08-04 05:55:00,53.2,52.2,30.10,North,352,0.0,0.0,96,0.00,,,0.00,0.00,VWS V14.01,2013-08-04 09:55:00,
2013-08-04 05:56:00,53.4,52.4,30.10,North,352,0.0,0.0,97,0.00,,,0.00,0.00,VWS V14.01,2013-08-04 09:56:00,
2013-08-04 05:57:00,53.3,52.4,30.11,North,352,0.0,0.0,97,0.00,,,0.00,0.00,VWS V14.01,2013-08-04 09:57:00,
2013-08-04 05:58:00,53.2,52.3,30.11,North,352,0.0,0.0,97,0.00,,,0.00,0.00,VWS V14.01,2013-08-04 09:58:00,
2013-08-04 05:59:00,53.2,52.3,30.10,North,352,0.0,0.0,97,0.00,,,0.00,0.00,VWS V14.01,2013-08-04 09:59:00,
2013-08-04 06:00:00,53.2,52.3,30.10,North,352,0.0,0.0,97,0.00,,,0.00,0.00,VWS V14.01,2013-08-04 10:00:00,
2013-08-04 06:01:00,52.0,51.0,30.10,North,352,0.0,0.0,96,0.00,,,0.00,0.73,VWS V14.01,2013-08-04 10:01:00,
2013-08-04 06:02:00,52.0,51.0,30.10,North,352,0.0,0.0,96,0.00,,,0.00,0.73,VWS V14.01,2013-08-04 10:02:00,
2013-08-04 06:03:00,52.4,51.4,30.10,North,352,0.0,0.0,97,0.00,,,0.00,0.12,VWS V14.01,2013-08-04 10:03:00,
2013-08-04 06:04:00,52.6,51.8,30.11,North,352,1.5,1.5,97,0.00,,,0.00,0.00,VWS V14.01,2013-08-04 10:04:00,
2013-08-04 06:05:00,52.9,52.2,30.10,North,352,0.0,1.5,98,0.00,,,0.00,0.00,VWS V14.01,2013-08-04 10:05:00,
2013-08-04 06:06:00,52.8,52.2,30.11,North,352,0.0,0.0,98,0.00,,,0.00,0.43,VWS V14.01,2013-08-04 10:06:00,
2013-08-04 06:07:00,52.9,52.4,30.11,North,352,0.0,0.0,98,0.00,,,0.00,0.00,VWS V14.01,2013-08-04 10:07:00,
2013-08-04 06:08:00,52.9,52.4,30.11,North,352,0.0,0.0,98,0.00,,,0.00,0.00,VWS V14.01,2013-08-04 10:08:00,
2013-08-04 06:09:00,52.6,52.1,30.11,North,352,0.0,0.0,98,0.00,,,0.00,0.00,VWS V14.01,2013-08-04 10:09:00,
2013-08-04 06:10:00,52.5,52.0,30.11,North,352,0.0,0.0,98,0.00,,,0.00,0.73,VWS V14.01,2013-08-04 10:10:00,
2013-08-04 06:11:00,52.5,52.0,30.11,North,352,0.0,0.0,98,0.00,,,0.00,0.73,VWS V14.01,2013-08-04 10:11:00,
2013-08-04 06:12:00,52.0,51.5,30.11,North,352,0.0,0.0,98,0.00,,,0.00,0.00,VWS V14.01,2013-08-04 10:12:00,
2013-08-04 06:13:00,52.9,52.4,30.11,North,352,0.0,0.0,98,0.00,,,0.00,0.00,VWS V14.01,2013-08-04 10:13:00,
2013-08-04 06:14:00,52.7,52.3,30.10,North,352,0.0,0.0,98,0.00,,,0.00,0.00,VWS V14.01,2013-08-04 10:14:00,
2013-08-04 06:15:00,52.8,52.5,30.09,North,352,0.0,0.0,99,0.00,,,0.00,0.00,VWS V14.01,2013-08-04 10:15:00,
2013-08-04 06:16:00,53.0,52.7,30.10,North,352,0.0,0.0,99,0.00,,,0.00,0.00,VWS V14.01,2013-08-04 10:16:00,
2013-08-04 06:17:00,53.0,52.8,30.11,North,352,0.0,0.0,99,0.00,,,0.00,0.00,VWS V14.01,2013-08-04 10:17:00,
2013-08-04 06:18:00,53.0,52.8,30.11,North,352,0.0,0.0,99,0.00,,,0.00,0.00,VWS V14.01,2013-08-04 10:18:00,
2013-08-04 06:19:00,52.7,52.5,30.11,North,352,0.0,0.0,99,0.00,,,0.00,0.00,VWS V14.01,2013-08-04 10:19:00,
2013-08-04 06:20:00,52.7,52.5,30.11,North,352,0.0,0.0,99,0.00,,,0.00,0.00,VWS V14.01,2013-08-04 10:20:00,
2013-08-04 06:21:00,52.8,52.6,30.11,North,352,0.0,0.0,100,0.00,,,0.00,0.37,VWS V14.01,2013-08-04 10:21:00,
2013-08-04 06:22:00,53.0,51.3,30.11,North,351,0.0,0.0,94,0.00,,,0.00,0.92,VWS V14.01,2013-08-04 10:22:00,
2013-08-04 06:23:00,52.7,52.6,30.11,North,352,0.0,0.0,100,0.00,,,0.00,0.06,VWS V14.01,2013-08-04 10:23:00,
2013-08-04 06:24:00,52.9,52.8,30.11,North,352,0.0,0.0,100,0.00,,,0.00,0.31,VWS V14.01,2013-08-04 10:24:00,
2013-08-04 06:25:00,52.7,51.3,30.10,North,352,0.0,0.0,95,0.00,,,0.00,1.71,VWS V14.01,2013-08-04 10:25:00,
2013-08-04 06:26:00,52.6,52.6,30.12,North,352,0.0,0.0,100,0.00,,,0.00,1.77,VWS V14.01,2013-08-04 10:26:00,
2013-08-04 06:27:00,53.1,52.3,30.11,NNW,336,2.0,2.0,97,0.00,,,0.00,2.38,VWS V14.01,2013-08-04 10:27:00,
2013-08-04 06:28:00,52.5,52.5,30.12,NNW,336,1.5,2.0,100,0.00,,,0.00,2.01,VWS V14.01,2013-08-04 10:28:00,
2013-08-04 06:29:00,52.3,52.2,30.11,NNW,336,1.6,1.6,100,0.00,,,0.00,2.87,VWS V14.01,2013-08-04 10:29:00,
2013-08-04 06:30:00,52.3,52.2,30.11,NNW,336,1.6,1.6,100,0.00,,,0.00,2.87,VWS V14.01,2013-08-04 10:30:00,
2013-08-04 06:31:00,52.0,52.0,30.11,NNW,336,2.2,2.2,100,0.00,,,0.00,2.26,VWS V14.01,2013-08-04 10:31:00,
2013-08-04 06:32:00,52.1,52.0,30.12,NNW,336,2.0,2.0,100,0.00,,,0.00,2.26,VWS V14.01,2013-08-04 10:32:00,
2013-08-04 06:33:00,51.7,51.6,30.12,NNW,336,2.3,2.3,100,0.00,,,0.00,2.50,VWS V14.01,2013-08-04 10:33:00,
2013-08-04 06:34:00,51.8,51.7,30.12,NNW,336,0.0,2.3,100,0.00,,,0.00,2.50,VWS V14.01,2013-08-04 10:34:00,
2013-08-04 06:35:00,51.9,51.8,30.12,NNW,336,0.0,0.0,99,0.00,,,0.00,2.26,VWS V14.01,2013-08-04 10:35:00,
2013-08-04 06:36:00,52.1,52.0,30.11,NNW,336,0.0,0.0,99,0.00,,,0.00,4.70,VWS V14.01,2013-08-04 10:36:00,
2013-08-04 06:37:00,52.2,52.1,30.12,NNW,336,0.0,0.0,100,0.00,,,0.00,3.91,VWS V14.01,2013-08-04 10:37:00,
2013-08-04 06:38:00,52.1,52.0,30.12,NNW,336,0.0,0.0,100,0.00,,,0.00,4.40,VWS V14.01,2013-08-04 10:38:00,
2013-08-04 06:39:00,52.1,52.0,30.12,NNW,336,0.0,0.0,100,0.00,,,0.00,4.40,VWS V14.01,2013-08-04 10:39:00,
2013-08-04 06:40:00,52.5,52.4,30.11,NNW,336,0.0,0.0,100,0.00,,,0.00,4.95,VWS V14.01,2013-08-04 10:40:00,
2013-08-04 06:41:00,52.8,52.8,30.11,NNE,31,0.0,0.0,100,0.00,,,0.00,6.90,VWS V14.01,2013-08-04 10:41:00,
2013-08-04 06:42:00,53.0,53.0,30.11,NNE,31,0.0,0.0,100,0.00,,,0.00,7.14,VWS V14.01,2013-08-04 10:42:00,
2013-08-04 06:43:00,53.0,53.0,30.11,NNE,31,0.0,0.0,100,0.00,,,0.00,7.14,VWS V14.01,2013-08-04 10:43:00,
2013-08-04 06:44:00,52.7,52.7,30.12,NNE,31,0.0,0.0,100,0.00,,,0.00,7.08,VWS V14.01,2013-08-04 10:44:00,
2013-08-04 06:45:00,52.5,52.5,30.12,NNE,31,0.0,0.0,100,0.00,,,0.00,7.57,VWS V14.01,2013-08-04 10:45:00,
2013-08-04 06:46:00,52.9,52.9,30.11,NNE,31,0.0,0.0,100,0.00,,,0.00,8.67,VWS V14.01,2013-08-04 10:46:00,
2013-08-04 06:47:00,52.6,52.6,30.11,NNE,31,0.0,0.0,100,0.00,,,0.00,14.47,VWS V14.01,2013-08-04 10:47:00,
2013-08-04 06:48:00,52.6,52.6,30.11,NNE,31,0.0,0.0,100,0.00,,,0.00,14.47,VWS V14.01,2013-08-04 10:48:00,
2013-08-04 06:49:00,53.1,53.1,30.11,NNE,31,0.0,0.0,100,0.00,,,0.00,21.49,VWS V14.01,2013-08-04 10:49:00,
2013-08-04 06:50:00,53.2,53.2,30.11,NNE,31,0.0,0.0,100,0.00,,,0.00,22.41,VWS V14.01,2013-08-04 10:50:00,
2013-08-04 06:51:00,53.0,53.0,30.11,NNE,31,0.0,0.0,100,0.00,,,0.00,21.79,VWS V14.01,2013-08-04 10:51:00,
2013-08-04 06:52:00,53.6,53.6,30.11,NNE,31,0.0,0.0,100,0.00,,,0.00,24.24,VWS V14.01,2013-08-04 10:52:00,
2013-08-04 06:53:00,53.6,53.6,30.11,North,1,0.0,0.0,100,0.00,,,0.00,24.48,VWS V14.01,2013-08-04 10:53:00,
2013-08-04 06:54:00,53.1,53.1,30.12,North,1,0.0,0.0,100,0.00,,,0.00,24.24,VWS V14.01,2013-08-04 10:54:00,
2013-08-04 06:55:00,53.6,53.5,30.12,North,1,0.0,0.0,100,0.00,,,0.00,29.12,VWS V14.01,2013-08-04 10:55:00,
2013-08-04 06:56:00,53.4,53.2,30.12,North,1,0.0,0.0,99,0.00,,,0.00,28.75,VWS V14.01,2013-08-04 10:56:00,
2013-08-04 06:57:00,54.1,53.9,30.12,North,1,0.0,0.0,99,0.00,,,0.00,35.47,VWS V14.01,2013-08-04 10:57:00,
2013-08-04 06:58:00,54.1,53.7,30.12,North,1,0.0,0.0,99,0.00,,,0.00,36.69,VWS V14.01,2013-08-04 10:58:00,
2013-08-04 06:59:00,54.1,53.5,30.12,North,1,0.0,0.0,98,0.00,,,0.00,38.58,VWS V14.01,2013-08-04 10:59:00,
2013-08-04 07:00:00,54.1,53.5,30.12,North,1,0.0,0.0,98,0.00,,,0.00,38.58,VWS V14.01,2013-08-04 11:00:00,
2013-08-04 07:01:00,54.8,54.0,30.12,North,1,0.0,0.0,97,0.00,,,0.00,41.27,VWS V14.01,2013-08-04 11:01:00,
2013-08-04 07:03:00,55.9,54.6,30.12,North,1,0.0,0.0,95,0.00,,,0.00,46.21,VWS V14.01,2013-08-04 11:03:00,
2013-08-04 07:04:00,55.8,53.9,30.12,North,1,0.0,0.0,93,0.00,,,0.00,48.66,VWS V14.01,2013-08-04 11:04:00,
2013-08-04 07:05:00,55.8,53.9,30.12,North,1,0.0,0.0,93,0.00,,,0.00,48.66,VWS V14.01,2013-08-04 11:05:00,
2013-08-04 07:09:00,57.2,53.6,30.12,North,1,0.0,0.0,88,0.00,,,0.00,57.75,VWS V14.01,2013-08-04 11:09:00,
2013-08-04 07:10:00,56.1,51.9,30.12,North,1,0.0,0.0,86,0.00,,,0.00,58.42,VWS V14.01,2013-08-04 11:10:00,
2013-08-04 07:11:00,54.8,49.6,30.12,North,1,0.0,0.0,83,0.00,,,0.00,63.31,VWS V14.01,2013-08-04 11:11:00,
2013-08-04 07:12:00,54.8,49.6,30.12,North,1,0.0,0.0,83,0.00,,,0.00,63.31,VWS V14.01,2013-08-04 11:12:00,
2013-08-04 07:13:00,54.4,49.3,30.11,North,1,0.0,0.0,83,0.00,,,0.00,64.29,VWS V14.01,2013-08-04 11:13:00,
2013-08-04 07:15:00,55.5,50.7,30.11,NNW,335,0.0,0.0,84,0.00,,,0.00,68.19,VWS V14.01,2013-08-04 11:15:00,
2013-08-04 07:17:00,56.0,50.9,30.12,NNW,335,0.0,0.0,83,0.00,,,0.00,73.08,VWS V14.01,2013-08-04 11:17:00,
2013-08-04 07:18:00,55.1,49.9,30.12,NW,306,0.0,0.0,83,0.00,,,0.00,73.02,VWS V14.01,2013-08-04 11:18:00,
2013-08-04 07:19:00,55.0,49.5,30.12,NW,306,0.0,0.0,82,0.00,,,0.00,76.07,VWS V14.01,2013-08-04 11:19:00,
2013-08-04 07:20:00,55.0,49.1,30.12,NW,306,0.0,0.0,81,0.00,,,0.00,73.38,VWS V14.01,2013-08-04 11:20:00,
2013-08-04 07:24:00,55.0,49.0,30.12,NW,306,0.0,0.0,80,0.00,,,0.00,85.35,VWS V14.01,2013-08-04 11:24:00,
2013-08-04 07:25:00,54.8,48.6,30.12,NW,306,0.0,0.0,79,0.00,,,0.00,88.34,VWS V14.01,2013-08-04 11:25:00,
2013-08-04 07:27:00,55.8,50.3,30.12,NW,306,0.0,0.0,82,0.00,,,0.00,90.17,VWS V14.01,2013-08-04 11:27:00,
2013-08-04 07:28:00,55.5,49.4,30.12,NW,306,0.0,0.0,80,0.00,,,0.00,91.88,VWS V14.01,2013-08-04 11:28:00,
2013-08-04 07:29:00,55.3,48.5,30.13,NNW,329,0.0,1.6,78,0.00,,,0.00,95.54,VWS V14.01,2013-08-04 11:29:00,
2013-08-04 07:32:00,54.8,48.0,30.13,NNW,328,0.0,1.6,78,0.00,,,0.00,96.28,VWS V14.01,2013-08-04 11:32:00,
2013-08-04 07:33:00,55.4,48.5,30.12,WNW,291,2.2,2.2,77,0.00,,,0.00,99.02,VWS V14.01,2013-08-04 11:33:00,
2013-08-04 07:37:00,56.1,49.3,30.13,NNW,332,1.6,2.2,78,0.00,,,0.00,107.02,VWS V14.01,2013-08-04 11:37:00,
2013-08-04 07:38:00,55.7,48.0,30.13,WNW,285,1.8,2.2,75,0.00,,,0.00,107.26,VWS V14.01,2013-08-04 11:38:00,
2013-08-04 07:40:00,56.7,49.7,30.13,NW,306,2.8,2.8,77,0.00,,,0.00,112.52,VWS V14.01,2013-08-04 11:40:00,
2013-08-04 07:42:00,57.1,49.4,30.13,NNW,329,3.4,3.4,75,0.00,,,0.00,115.20,VWS V14.01,2013-08-04 11:42:00,
2013-08-04 07:43:00,57.1,49.4,30.13,NNW,329,3.4,3.4,75,0.00,,,0.00,115.20,VWS V14.01,2013-08-04 11:43:00,
2013-08-04 07:44:00,56.7,48.9,30.13,NW,305,2.8,3.4,75,0.00,,,0.00,117.64,VWS V14.01,2013-08-04 11:44:00,
2013-08-04 07:46:00,57.1,49.0,30.12,WNW,297,2.5,3.4,74,0.00,,,0.00,121.61,VWS V14.01,2013-08-04 11:46:00,
2013-08-04 07:47:00,58.2,49.8,30.13,NNW,339,3.2,3.4,74,0.00,,,0.00,124.60,VWS V14.01,2013-08-04 11:47:00,
2013-08-04 07:49:00,59.0,50.4,30.13,WNW,295,2.5,3.4,73,0.00,,,0.00,129.49,VWS V14.01,2013-08-04 11:49:00,
2013-08-04 07:50:00,58.4,49.3,30.13,NW,323,2.8,3.4,72,0.00,,,0.00,131.69,VWS V14.01,2013-08-04 11:50:00,
2013-08-04 07:51:00,59.4,50.5,30.13,NW,323,0.0,3.4,72,0.00,,,0.00,135.53,VWS V14.01,2013-08-04 11:51:00,
2013-08-04 07:53:00,58.1,48.0,30.13,WNW,303,1.1,3.4,69,0.00,,,0.00,140.23,VWS V14.01,2013-08-04 11:53:00,
2013-08-04 07:54:00,58.3,48.5,30.14,WNW,284,2.8,3.4,70,0.00,,,0.00,140.54,VWS V14.01,2013-08-04 11:54:00,
2013-08-04 07:56:00,58.9,48.8,30.13,NW,324,3.2,3.4,69,0.00,,,0.00,143.90,VWS V14.01,2013-08-04 11:56:00,
2013-08-04 07:57:00,58.5,48.2,30.14,NW,323,3.9,3.9,69,0.00,,,0.00,146.09,VWS V14.01,2013-08-04 11:57:00,
2013-08-04 07:59:00,59.2,49.3,30.15,NNW,347,3.7,4.0,70,0.00,,,0.00,151.65,VWS V14.01,2013-08-04 11:59:00,
2013-08-04 08:00:00,54.8,54.0,30.12,North,1,0.0,0.0,97,0.00,,,0.00,41.27,VWS V14.01,2013-08-04 12:00:00,
2013-08-04 08:01:00,58.8,48.3,30.17,NW,311,0.0,4.4,68,0.00,,,0.00,158.06,VWS V14.01,2013-08-04 12:01:00,
2013-08-04 08:04:00,59.6,49.6,30.12,NW,317,2.5,3.9,69,0.00,,,0.00,163.92,VWS V14.01,2013-08-04 12:04:00,
2013-08-04 08:05:00,58.7,47.9,30.12,NW,309,3.5,3.5,67,0.00,,,0.00,165.87,VWS V14.01,2013-08-04 12:05:00,
2013-08-04 08:06:00,60.1,49.1,30.14,NW,323,1.6,3.4,67,0.00,,,0.00,170.45,VWS V14.01,2013-08-04 12:06:00,
2013-08-04 08:07:00,59.8,49.7,30.14,NW,315,1.0,1.6,69,0.00,,,0.00,171.61,VWS V14.01,2013-08-04 12:07:00,
2013-08-04 08:09:00,59.7,48.5,30.13,NNW,343,2.3,2.5,66,0.00,,,0.00,178.08,VWS V14.01,2013-08-04 12:09:00,
2013-08-04 08:10:00,61.1,50.5,30.13,NNW,347,0.0,2.3,68,0.00,,,0.00,180.04,VWS V14.01,2013-08-04 12:10:00,
2013-08-04 08:12:00,61.6,49.4,30.12,NNE,16,1.0,1.0,64,0.00,,,0.00,185.41,VWS V14.01,2013-08-04 12:12:00,
2013-08-04 08:13:00,60.2,46.6,30.12,NNE,14,1.6,1.6,61,0.00,,,0.00,186.81,VWS V14.01,2013-08-04 12:13:00,
2013-08-04 08:15:00,60.1,47.2,30.14,NNE,32,2.3,4.2,62,0.00,,,0.00,190.90,VWS V14.01,2013-08-04 12:15:00,
2013-08-04 08:17:00,59.8,47.8,30.14,WSW,256,0.0,2.7,64,0.00,,,0.00,198.84,VWS V14.01,2013-08-04 12:17:00,
2013-08-04 08:18:00,60.0,44.0,30.13,NNE,24,1.3,1.3,55,0.00,,,0.00,204.95,VWS V14.01,2013-08-04 12:18:00,
2013-08-04 08:21:00,60.6,44.3,30.14,North,2,2.5,2.5,55,0.00,,,0.00,207.39,VWS V14.01,2013-08-04 12:21:00,
2013-08-04 08:22:00,61.9,47.1,30.14,North,2,0.0,1.5,58,0.00,,,0.00,212.52,VWS V14.01,2013-08-04 12:22:00,
2013-08-04 08:23:00,60.3,45.1,30.13,North,0,2.2,2.2,57,0.00,,,0.00,214.71,VWS V14.01,2013-08-04 12:23:00,
2013-08-04 08:25:00,60.8,44.9,30.12,NE,37,2.0,2.0,56,0.00,,,0.00,219.11,VWS V14.01,2013-08-04 12:25:00,
2013-08-04 08:27:00,59.8,44.2,30.12,NE,55,4.2,4.2,56,0.00,,,0.00,225.09,VWS V14.01,2013-08-04 12:27:00,
2013-08-04 08:29:00,60.3,45.6,30.12,NE,45,2.2,2.2,58,0.00,,,0.00,227.41,VWS V14.01,2013-08-04 12:29:00,
2013-08-04 08:30:00,60.7,45.8,30.13,NNE,24,2.7,3.2,58,0.00,,,0.00,234.43,VWS V14.01,2013-08-04 12:30:00,
2013-08-04 08:32:00,61.6,45.7,30.13,North,2,3.9,3.9,56,0.00,,,0.00,237.91,VWS V14.01,2013-08-04 12:32:00,
2013-08-04 08:34:00,61.3,45.2,30.14,NNE,28,2.5,2.5,55,0.00,,,0.00,244.02,VWS V14.01,2013-08-04 12:34:00,
2013-08-04 08:35:00,62.0,45.8,30.14,NNW,348,2.7,3.7,55,0.00,,,0.00,244.93,VWS V14.01,2013-08-04 12:35:00,
2013-08-04 08:39:00,62.6,46.7,30.13,North,352,1.6,2.8,56,0.00,,,0.00,258.42,VWS V14.01,2013-08-04 12:39:00,
2013-08-04 08:40:00,62.9,47.2,30.12,North,352,1.3,1.6,57,0.00,,,0.00,259.40,VWS V14.01,2013-08-04 12:40:00,
2013-08-04 08:41:00,64.7,48.1,30.13,NNE,14,0.0,2.8,55,0.00,,,0.00,263.55,VWS V14.01,2013-08-04 12:41:00,
2013-08-04 08:42:00,61.6,42.9,30.13,ENE,62,3.2,3.2,50,0.00,,,0.00,266.97,VWS V14.01,2013-08-04 12:42:00,
2013-08-04 08:45:00,62.6,44.1,30.13,NNE,15,1.3,1.6,51,0.00,,,0.00,272.77,VWS V14.01,2013-08-04 12:45:00,
2013-08-04 08:46:00,64.0,44.9,30.13,NNE,15,1.1,1.6,50,0.00,,,0.00,276.37,VWS V14.01,2013-08-04 12:46:00,
2013-08-04 08:48:00,64.7,46.0,30.13,NW,313,0.0,2.8,51,0.00,,,0.00,281.20,VWS V14.01,2013-08-04 12:48:00,
2013-08-04 08:50:00,63.1,44.2,30.14,NNW,337,4.5,4.5,50,0.00,,,0.00,287.97,VWS V14.01,2013-08-04 12:50:00,
2013-08-04 08:51:00,63.1,44.2,30.14,NNW,337,4.5,4.5,50,0.00,,,0.00,287.97,VWS V14.01,2013-08-04 12:51:00,
2013-08-04 08:52:00,63.7,43.6,30.13,NNE,20,3.0,4.5,48,0.00,,,0.00,290.42,VWS V14.01,2013-08-04 12:52:00,
2013-08-04 08:53:00,62.8,42.6,30.14,NNE,19,4.2,4.2,48,0.00,,,0.00,294.99,VWS V14.01,2013-08-04 12:53:00,
2013-08-04 08:56:00,62.7,42.6,30.12,NNE,30,4.9,4.9,48,0.00,,,0.00,304.33,VWS V14.01,2013-08-04 12:56:00,
2013-08-04 08:57:00,62.3,41.9,30.13,NE,34,3.7,4.9,47,0.00,,,0.00,307.51,VWS V14.01,2013-08-04 12:57:00,
2013-08-04 08:58:00,62.6,42.5,30.13,NNE,16,2.7,3.7,48,0.00,,,0.00,309.65,VWS V14.01,2013-08-04 12:58:00,
2013-08-04 08:59:00,62.8,43.3,30.13,NE,42,3.7,3.7,49,0.00,,,0.00,312.39,VWS V14.01,2013-08-04 12:59:00,
2013-08-04 09:00:00,64.9,47.8,30.13,WNW,295,1.1,1.1,54,0.00,,,0.00,315.38,VWS V14.01,2013-08-04 13:00:00,
2013-08-04 09:01:00,59.3,49.0,30.14,NW,317,2.5,3.7,69,0.00,,,0.00,160.68,VWS V14.01,2013-08-04 13:01:00,
2013-08-04 09:02:00,58.6,48.5,30.13,NW,322,3.0,3.0,69,0.00,,,0.00,157.33,VWS V14.01,2013-08-04 13:02:00,
2013-08-04 09:03:00,64.9,47.8,30.13,WNW,295,1.1,1.1,54,0.00,,,0.00,315.38,VWS V14.01,2013-08-04 13:03:00,
2013-08-04 09:04:00,62.8,42.2,30.13,NE,37,3.9,3.9,47,0.00,,,0.00,327.05,VWS V14.01,2013-08-04 13:04:00,
2013-08-04 09:05:00,62.6,42.5,30.12,NE,52,3.0,4.0,48,0.00,,,0.00,329.98,VWS V14.01,2013-08-04 13:05:00,
2013-08-04 09:06:00,62.9,42.7,30.13,NE,47,2.5,3.0,48,0.00,,,0.00,332.54,VWS V14.01,2013-08-04 13:06:00,
2013-08-04 09:07:00,59.2,48.0,30.16,NW,321,3.7,3.7,66,0.00,,,0.00,173.20,VWS V14.01,2013-08-04 13:07:00,
2013-08-04 09:08:00,63.6,45.4,30.13,NNW,329,2.2,4.9,51,0.00,,,0.00,336.14,VWS V14.01,2013-08-04 13:08:00,
2013-08-04 09:09:00,63.2,40.9,30.13,NE,52,1.8,1.8,44,0.00,,,0.00,338.95,VWS V14.01,2013-08-04 13:09:00,
2013-08-04 09:10:00,63.4,41.7,30.12,NNE,21,2.5,2.5,45,0.00,,,0.00,341.39,VWS V14.01,2013-08-04 13:10:00,
2013-08-04 09:11:00,63.5,40.7,30.13,ENE,65,2.7,3.2,43,0.00,,,0.00,343.83,VWS V14.01,2013-08-04 13:11:00,
2013-08-04 09:12:00,62.5,39.0,30.13,NE,49,3.9,4.2,42,0.00,,,0.00,346.83,VWS V14.01,2013-08-04 13:12:00,
2013-08-04 09:13:00,59.7,46.0,30.13,NE,40,4.2,4.2,61,0.00,,,0.00,187.85,VWS V14.01,2013-08-04 13:13:00,
2013-08-04 09:14:00,64.4,43.0,30.15,NNW,342,2.0,3.9,46,0.00,,,0.00,351.89,VWS V14.01,2013-08-04 13:14:00,
2013-08-04 09:15:00,63.5,42.0,30.14,NNE,23,3.4,3.4,45,0.00,,,0.00,354.15,VWS V14.01,2013-08-04 13:15:00,
2013-08-04 09:16:00,62.6,36.4,30.13,NE,50,3.9,3.9,38,0.00,,,0.00,356.96,VWS V14.01,2013-08-04 13:16:00,
2013-08-04 09:17:00,63.6,41.5,30.14,NNE,32,3.9,3.9,44,0.00,,,0.00,361.23,VWS V14.01,2013-08-04 13:17:00,
2013-08-04 09:18:00,64.2,41.5,30.13,North,9,3.5,3.9,43,0.00,,,0.00,361.97,VWS V14.01,2013-08-04 13:18:00,
2013-08-04 09:19:00,63.7,38.8,30.13,NE,39,2.8,3.9,40,0.00,,,0.00,363.92,VWS V14.01,2013-08-04 13:19:00,
2013-08-04 09:20:00,60.6,44.3,30.14,North,2,2.5,2.5,55,0.00,,,0.00,207.39,VWS V14.01,2013-08-04 13:20:00,
2013-08-04 09:21:00,60.5,47.2,30.14,NNW,331,1.0,2.5,61,0.00,,,0.00,209.10,VWS V14.01,2013-08-04 13:21:00,
2013-08-04 09:22:00,63.5,41.2,30.13,NNE,32,3.9,4.9,44,0.00,,,0.00,371.49,VWS V14.01,2013-08-04 13:22:00,
2013-08-04 09:23:00,65.4,43.6,30.14,NNE,25,2.2,3.9,45,0.00,,,0.00,375.64,VWS V14.01,2013-08-04 13:23:00,
2013-08-04 09:24:00,60.4,44.4,30.13,NNE,26,1.5,2.2,55,0.00,,,0.00,219.60,VWS V14.01,2013-08-04 13:24:00,
2013-08-04 09:25:00,63.1,39.4,30.12,NE,39,5.9,6.3,42,0.00,,,0.00,381.26,VWS V14.01,2013-08-04 13:25:00,
2013-08-04 09:26:00,59.7,43.4,30.12,NNE,33,4.2,4.4,55,0.00,,,0.00,224.24,VWS V14.01,2013-08-04 13:26:00,
2013-08-04 09:27:00,60.9,46.6,30.12,NNW,340,2.0,4.2,59,0.00,,,0.00,226.92,VWS V14.01,2013-08-04 13:27:00,
2013-08-04 09:28:00,63.5,39.5,30.13,NE,53,4.0,4.0,41,0.00,,,0.00,388.10,VWS V14.01,2013-08-04 13:28:00,
2013-08-04 09:29:00,65.2,41.5,30.14,NNE,13,1.5,3.0,42,0.00,,,0.00,386.20,VWS V14.01,2013-08-04 13:29:00,
2013-08-04 09:30:00,65.0,40.8,30.13,ENE,57,3.5,3.5,41,0.00,,,0.00,395.12,VWS V14.01,2013-08-04 13:30:00,
2013-08-04 09:31:00,61.8,47.7,30.13,NNW,331,0.0,2.8,60,0.00,,,0.00,237.30,VWS V14.01,2013-08-04 13:31:00,
2013-08-04 09:32:00,62.0,46.5,30.13,North,350,3.7,3.9,57,0.00,,,0.00,241.09,VWS V14.01,2013-08-04 13:32:00,
2013-08-04 09:33:00,63.0,38.3,30.13,NE,43,4.0,4.4,40,0.00,,,0.00,402.44,VWS V14.01,2013-08-04 13:33:00,
2013-08-04 09:34:00,64.1,38.5,30.13,NE,55,3.9,4.0,39,0.00,,,0.00,405.19,VWS V14.01,2013-08-04 13:34:00,
2013-08-04 09:35:00,64.9,40.6,30.13,NE,46,4.5,5.1,41,0.00,,,0.00,407.63,VWS V14.01,2013-08-04 13:35:00,
2013-08-04 09:36:00,61.0,45.1,30.14,NE,35,2.8,3.2,56,0.00,,,0.00,251.04,VWS V14.01,2013-08-04 13:36:00,
2013-08-04 09:37:00,63.5,37.4,30.14,NE,35,5.6,5.9,38,0.00,,,0.00,412.03,VWS V14.01,2013-08-04 13:37:00,
2013-08-04 09:38:00,66.3,41.2,30.13,NNW,342,2.7,5.6,40,0.00,,,0.00,413.49,VWS V14.01,2013-08-04 13:38:00,
2013-08-04 09:39:00,62.6,46.7,30.13,North,352,1.6,2.8,56,0.00,,,0.00,258.42,VWS V14.01,2013-08-04 13:39:00,
2013-08-04 09:40:00,61.5,44.6,30.12,NE,39,2.8,2.8,54,0.00,,,0.00,261.11,VWS V14.01,2013-08-04 13:40:00,
2013-08-04 09:41:00,65.0,39.0,30.13,North,0,5.4,5.4,38,0.00,,,0.00,422.04,VWS V14.01,2013-08-04 13:41:00,
2013-08-04 09:42:00,65.0,39.3,30.13,ENE,67,2.8,3.9,39,0.00,,,0.00,425.89,VWS V14.01,2013-08-04 13:42:00,
2013-08-04 09:43:00,64.4,45.9,30.13,NNE,12,0.0,3.2,51,0.00,,,0.00,269.66,VWS V14.01,2013-08-04 13:43:00,
2013-08-04 09:44:00,63.8,37.8,30.13,NE,41,3.7,3.7,38,0.00,,,0.00,427.90,VWS V14.01,2013-08-04 13:44:00,
2013-08-04 09:45:00,64.8,42.6,30.12,NE,41,3.4,4.0,44,0.00,,,0.00,429.61,VWS V14.01,2013-08-04 13:45:00,
2013-08-04 09:46:00,64.3,38.4,30.13,ENE,66,4.0,4.0,38,0.00,,,0.00,435.41,VWS V14.01,2013-08-04 13:46:00,
2013-08-04 09:47:00,63.8,44.5,30.13,NNW,344,2.8,2.8,49,0.00,,,0.00,280.16,VWS V14.01,2013-08-04 13:47:00,
2013-08-04 09:48:00,65.3,41.1,30.14,NNE,13,4.5,5.7,41,0.00,,,0.00,432.97,VWS V14.01,2013-08-04 13:48:00,
2013-08-04 09:49:00,65.0,39.3,30.13,NNW,333,4.5,4.5,39,0.00,,,0.00,441.82,VWS V14.01,2013-08-04 13:49:00,
2013-08-04 09:50:00,63.1,44.2,30.14,NNW,337,4.5,4.5,50,0.00,,,0.00,287.97,VWS V14.01,2013-08-04 13:50:00,
2013-08-04 09:51:00,63.7,43.7,30.13,NNE,20,3.0,4.5,48,0.00,,,0.00,290.42,VWS V14.01,2013-08-04 13:51:00,
2013-08-04 09:52:00,64.4,38.5,30.13,ENE,70,5.7,6.6,38,0.00,,,0.00,451.59,VWS V14.01,2013-08-04 13:52:00,
2013-08-04 09:53:00,64.0,37.4,30.12,NNE,18,5.4,5.4,37,0.00,,,0.00,453.72,VWS V14.01,2013-08-04 13:53:00,
2013-08-04 09:54:00,64.0,37.4,30.12,NNE,18,5.4,5.4,37,0.00,,,0.00,453.72,VWS V14.01,2013-08-04 13:54:00,
2013-08-04 09:55:00,64.1,43.0,30.12,North,10,2.0,4.5,46,0.00,,,0.00,295.18,VWS V14.01,2013-08-04 13:55:00,
2013-08-04 09:56:00,62.7,42.6,30.12,NNE,30,4.9,4.9,48,0.00,,,0.00,304.33,VWS V14.01,2013-08-04 13:56:00,
2013-08-04 09:57:00,64.7,38.7,30.13,ENE,58,4.4,6.4,38,0.00,,,0.00,459.10,VWS V14.01,2013-08-04 13:57:00,
2013-08-04 09:58:00,62.8,43.3,30.13,NE,42,3.7,3.7,49,0.00,,,0.00,312.39,VWS V14.01,2013-08-04 13:58:00,
2013-08-04 09:59:00,65.0,38.7,30.12,North,11,5.2,5.7,38,0.00,,,0.00,466.42,VWS V14.01,2013-08-04 13:59:00,
2013-08-04 10:00:00,64.5,38.1,30.12,NNE,30,6.4,6.4,38,0.00,,,0.00,469.41,VWS V14.01,2013-08-04 14:00:00,
2013-08-04 10:01:00,64.9,47.8,30.13,WNW,295,1.1,1.1,54,0.00,,,0.00,315.39,VWS V14.01,2013-08-04 14:01:00,
2013-08-04 10:03:00,62.6,41.8,30.14,NE,45,2.0,6.1,47,0.00,,,0.00,322.65,VWS V14.01,2013-08-04 14:03:00,
2013-08-04 10:04:00,62.8,42.2,30.13,NE,37,3.9,3.9,47,0.00,,,0.00,327.05,VWS V14.01,2013-08-04 14:04:00,
2013-08-04 10:05:00,66.0,40.0,30.14,NNW,339,2.0,6.4,38,0.00,,,0.00,480.89,VWS V14.01,2013-08-04 14:05:00,
2013-08-04 10:06:00,66.2,41.0,30.13,NE,52,3.2,6.4,40,0.00,,,0.00,480.89,VWS V14.01,2013-08-04 14:06:00,
2013-08-04 10:07:00,66.3,42.4,30.13,NE,41,3.9,6.4,42,0.00,,,0.00,486.39,VWS V14.01,2013-08-04 14:07:00,
2013-08-04 10:08:00,65.8,47.8,30.13,NNW,329,0.0,4.9,52,0.00,,,0.00,336.81,VWS V14.01,2013-08-04 14:08:00,
2013-08-04 10:09:00,63.2,40.9,30.13,NE,52,1.8,1.8,44,0.00,,,0.00,338.95,VWS V14.01,2013-08-04 14:09:00,
2013-08-04 10:10:00,64.7,37.8,30.13,North,7,4.2,6.4,37,0.00,,,0.00,493.10,VWS V14.01,2013-08-04 14:10:00,
2013-08-04 10:11:00,63.5,40.7,30.13,ENE,65,2.7,3.2,43,0.00,,,0.00,343.83,VWS V14.01,2013-08-04 14:11:00,
2013-08-04 10:12:00,64.7,38.1,30.13,NW,312,4.2,6.4,37,0.00,,,0.00,497.44,VWS V14.01,2013-08-04 14:12:00,
2013-08-04 10:13:00,64.8,39.3,30.14,NW,317,5.1,6.4,39,0.00,,,0.00,500.12,VWS V14.01,2013-08-04 14:13:00,
2013-08-04 10:14:00,62.8,40.1,30.14,NE,49,2.0,2.2,43,0.00,,,0.00,353.42,VWS V14.01,2013-08-04 14:14:00,
2013-08-04 10:15:00,65.2,38.7,30.13,NE,42,4.9,6.4,38,0.00,,,0.00,505.31,VWS V14.01,2013-08-04 14:15:00,
2013-08-04 10:16:00,63.0,40.3,30.14,NE,47,2.8,3.9,43,0.00,,,0.00,358.55,VWS V14.01,2013-08-04 14:16:00,
2013-08-04 10:17:00,63.7,41.5,30.14,NNE,32,3.9,3.9,44,0.00,,,0.00,361.23,VWS V14.01,2013-08-04 14:17:00,
2013-08-04 10:18:00,66.3,37.7,30.13,NE,34,2.5,6.4,35,0.00,,,0.00,515.08,VWS V14.01,2013-08-04 14:18:00,
2013-08-04 10:19:00,62.3,37.6,30.14,NE,35,5.7,5.7,40,0.00,,,0.00,362.45,VWS V14.01,2013-08-04 14:19:00,
2013-08-04 10:20:00,65.6,38.5,30.13,NNE,28,3.5,6.4,37,0.00,,,0.00,517.52,VWS V14.01,2013-08-04 14:20:00,
2013-08-04 10:21:00,65.6,36.0,30.13,NNW,345,4.0,6.4,33,0.00,,,0.00,519.96,VWS V14.01,2013-08-04 14:21:00,
2013-08-04 10:22:00,65.4,43.6,30.14,NNE,25,2.2,3.9,45,0.00,,,0.00,375.64,VWS V14.01,2013-08-04 14:22:00,
2013-08-04 10:23:00,63.8,39.5,30.13,East,94,4.4,4.4,41,0.00,,,0.00,376.92,VWS V14.01,2013-08-04 14:23:00,
2013-08-04 10:24:00,66.0,38.9,30.14,NNE,13,4.0,6.4,37,0.00,,,0.00,526.50,VWS V14.01,2013-08-04 14:24:00,
2013-08-04 10:25:00,69.0,43.0,30.13,WNW,286,0.0,6.4,39,0.00,,,0.00,528.45,VWS V14.01,2013-08-04 14:25:00,
2013-08-04 10:26:00,65.5,38.3,30.12,North,2,3.4,6.4,37,0.00,,,0.00,529.73,VWS V14.01,2013-08-04 14:26:00,
2013-08-04 10:27:00,64.1,34.8,30.13,NE,35,4.5,6.4,33,0.00,,,0.00,534.62,VWS V14.01,2013-08-04 14:27:00,
2013-08-04 10:28:00,64.4,41.4,30.13,NE,35,3.0,4.0,43,0.00,,,0.00,390.90,VWS V14.01,2013-08-04 14:28:00,
2013-08-04 10:29:00,65.2,41.5,30.14,NNE,13,1.5,3.0,42,0.00,,,0.00,386.20,VWS V14.01,2013-08-04 14:29:00,
2013-08-04 10:30:00,65.1,35.8,30.14,NNE,14,7.1,7.1,34,0.00,,,0.00,541.94,VWS V14.01,2013-08-04 14:30:00,
2013-08-04 10:31:00,65.6,37.4,30.14,ENE,59,5.9,7.1,35,0.00,,,0.00,543.16,VWS V14.01,2013-08-04 14:31:00,
2013-08-04 10:32:00,66.2,39.4,30.14,NNE,19,7.1,7.1,37,0.00,,,0.00,546.76,VWS V14.01,2013-08-04 14:32:00,
2013-08-04 10:33:00,67.1,40.5,30.14,North,2,3.4,7.1,38,0.00,,,0.00,548.54,VWS V14.01,2013-08-04 14:33:00,
2013-08-04 10:34:00,64.1,38.5,30.13,NE,55,3.9,4.0,39,0.00,,,0.00,405.19,VWS V14.01,2013-08-04 14:34:00,
2013-08-04 10:35:00,64.8,36.0,30.13,NE,45,5.1,7.1,34,0.00,,,0.00,551.71,VWS V14.01,2013-08-04 14:35:00,
2013-08-04 10:36:00,63.6,39.7,30.13,NE,37,2.8,4.5,41,0.00,,,0.00,410.07,VWS V14.01,2013-08-04 14:36:00,
2013-08-04 10:37:00,67.2,42.3,30.14,NNW,343,1.0,7.1,40,0.00,,,0.00,558.30,VWS V14.01,2013-08-04 14:37:00,
2013-08-04 10:38:00,66.3,41.2,30.13,NNW,342,2.7,5.6,40,0.00,,,0.00,413.49,VWS V14.01,2013-08-04 14:38:00,
2013-08-04 10:39:00,66.5,38.8,30.13,NE,54,3.0,7.1,36,0.00,,,0.00,563.92,VWS V14.01,2013-08-04 14:39:00,
2013-08-04 10:40:00,66.8,40.7,30.13,North,352,5.4,7.1,38,0.00,,,0.00,563.61,VWS V14.01,2013-08-04 14:40:00,
2013-08-04 10:41:00,67.2,39.6,30.13,NNE,15,1.6,7.1,36,0.00,,,0.00,565.38,VWS V14.01,2013-08-04 14:41:00,
2013-08-04 10:42:00,65.0,39.3,30.13,ENE,67,2.8,3.9,39,0.00,,,0.00,425.89,VWS V14.01,2013-08-04 14:42:00,
2013-08-04 10:43:00,66.1,38.0,30.14,NNE,24,5.2,7.1,35,0.00,,,0.00,568.80,VWS V14.01,2013-08-04 14:43:00,
2013-08-04 10:44:00,68.0,40.5,30.13,SW,217,0.0,7.1,37,0.00,,,0.00,570.51,VWS V14.01,2013-08-04 14:44:00,
2013-08-04 10:45:00,66.9,39.4,30.13,NE,46,3.9,7.1,36,0.00,,,0.00,573.69,VWS V14.01,2013-08-04 14:45:00,
2013-08-04 10:46:00,64.6,38.8,30.13,East,83,3.7,3.7,39,0.00,,,0.00,434.74,VWS V14.01,2013-08-04 14:46:00,
2013-08-04 10:47:00,66.2,36.3,30.13,NNE,19,4.4,7.1,33,0.00,,,0.00,576.37,VWS V14.01,2013-08-04 14:47:00,
2013-08-04 10:48:00,67.3,39.4,30.13,NW,320,2.8,7.1,36,0.00,,,0.00,572.47,VWS V14.01,2013-08-04 14:48:00,
2013-08-04 10:49:00,66.9,41.5,30.14,NW,312,3.0,7.1,40,0.00,,,0.00,578.57,VWS V14.01,2013-08-04 14:49:00,
2013-08-04 10:50:00,66.7,37.2,30.13,NW,313,2.5,7.1,34,0.00,,,0.00,580.95,VWS V14.01,2013-08-04 14:50:00,
2013-08-04 10:51:00,63.5,36.8,30.12,NE,52,6.6,6.6,37,0.00,,,0.00,449.15,VWS V14.01,2013-08-04 14:51:00,
2013-08-04 10:52:00,65.9,36.6,30.13,NW,319,4.0,7.1,34,0.00,,,0.00,588.34,VWS V14.01,2013-08-04 14:52:00,
2013-08-04 10:53:00,64.2,38.5,30.12,ENE,60,4.7,5.7,39,0.00,,,0.00,451.28,VWS V14.01,2013-08-04 14:53:00,
2013-08-04 10:54:00,66.1,36.7,30.13,NNE,31,5.9,7.1,34,0.00,,,0.00,591.76,VWS V14.01,2013-08-04 14:54:00,
2013-08-04 10:55:00,64.6,38.6,30.12,NE,36,4.2,7.3,38,0.00,,,0.00,459.04,VWS V14.01,2013-08-04 14:55:00,
2013-08-04 10:56:00,63.9,37.8,30.12,ENE,65,6.4,6.4,38,0.00,,,0.00,459.58,VWS V14.01,2013-08-04 14:56:00,
2013-08-04 10:57:00,64.7,38.7,30.13,ENE,58,4.4,6.4,38,0.00,,,0.00,459.10,VWS V14.01,2013-08-04 14:57:00,
2013-08-04 10:58:00,66.9,38.7,30.13,NNE,20,4.5,7.1,35,0.00,,,0.00,597.80,VWS V14.01,2013-08-04 14:58:00,
2013-08-04 10:59:00,65.7,35.9,30.14,NNE,33,4.5,7.1,33,0.00,,,0.00,602.75,VWS V14.01,2013-08-04 14:59:00,
2013-08-04 11:00:00,64.5,38.1,30.12,NNE,30,6.4,6.4,38,0.00,,,0.00,469.41,VWS V14.01,2013-08-04 15:00:00,
2013-08-04 11:01:00,66.2,39.4,30.13,WNW,292,3.7,7.1,37,0.00,,,0.00,605.43,VWS V14.01,2013-08-04 15:01:00,
2013-08-04 11:04:00,68.4,40.3,30.14,North,351,2.2,5.1,36,0.00,,,0.00,613.00,VWS V14.01,2013-08-04 15:04:00,
2013-08-04 11:05:00,67.9,38.4,30.14,NW,321,5.2,5.2,34,0.00,,,0.00,616.18,VWS V14.01,2013-08-04 15:05:00,
2013-08-04 11:06:00,66.8,36.3,30.14,NNE,32,3.7,5.2,32,0.00,,,0.00,622.53,VWS V14.01,2013-08-04 15:06:00,
2013-08-04 11:09:00,67.8,39.2,30.13,ENE,60,2.2,5.2,35,0.00,,,0.00,629.85,VWS V14.01,2013-08-04 15:09:00,
2013-08-04 11:10:00,68.5,40.6,30.13,NW,325,0.0,5.2,36,0.00,,,0.00,630.95,VWS V14.01,2013-08-04 15:10:00,
2013-08-04 11:11:00,66.8,38.5,30.14,NW,325,5.1,5.2,35,0.00,,,0.00,632.30,VWS V14.01,2013-08-04 15:11:00,
2013-08-04 11:12:00,67.8,42.7,30.14,WNW,300,5.1,5.2,40,0.00,,,0.00,632.30,VWS V14.01,2013-08-04 15:12:00,
2013-08-04 11:15:00,67.1,40.0,30.14,NE,39,2.0,8.7,37,0.00,,,0.00,639.62,VWS V14.01,2013-08-04 15:15:00,
2013-08-04 11:16:00,66.6,39.1,30.13,NW,323,6.1,8.7,36,0.00,,,0.00,640.11,VWS V14.01,2013-08-04 15:16:00,
2013-08-04 11:17:00,66.3,38.0,30.14,ENE,60,4.0,8.7,35,0.00,,,0.00,647.31,VWS V14.01,2013-08-04 15:17:00,
2013-08-04 11:18:00,67.2,38.6,30.14,NNE,15,4.9,8.7,35,0.00,,,0.00,655.49,VWS V14.01,2013-08-04 15:18:00,
2013-08-04 11:19:00,66.3,36.8,30.14,NNE,24,6.4,8.7,34,0.00,,,0.00,649.08,VWS V14.01,2013-08-04 15:19:00,
2013-08-04 11:21:00,66.5,37.7,30.14,NE,40,5.2,8.7,35,0.00,,,0.00,654.58,VWS V14.01,2013-08-04 15:21:00,
2013-08-04 11:22:00,69.1,40.2,30.14,North,351,4.9,8.7,35,0.00,,,0.00,656.72,VWS V14.01,2013-08-04 15:22:00,
2013-08-04 11:24:00,67.4,39.2,30.14,NW,306,7.3,8.7,35,0.00,,,0.00,656.41,VWS V14.01,2013-08-04 15:24:00,
2013-08-04 11:25:00,66.7,37.7,30.13,NW,322,8.3,8.7,34,0.00,,,0.00,659.16,VWS V14.01,2013-08-04 15:25:00,
2013-08-04 11:27:00,67.6,38.5,30.14,North,10,3.5,8.7,34,0.00,,,0.00,663.13,VWS V14.01,2013-08-04 15:27:00,
2013-08-04 11:28:00,66.7,36.6,30.14,NNW,338,6.6,8.7,33,0.00,,,0.00,669.54,VWS V14.01,2013-08-04 15:28:00,
2013-08-04 11:29:00,66.0,35.8,30.14,NW,322,5.9,8.7,33,0.00,,,0.00,668.62,VWS V14.01,2013-08-04 15:29:00,
2013-08-04 11:30:00,67.3,38.3,30.14,NE,56,4.5,8.7,34,0.00,,,0.00,668.93,VWS V14.01,2013-08-04 15:30:00,
2013-08-04 11:33:00,66.9,37.1,30.13,NE,35,4.5,8.7,33,0.00,,,0.00,675.28,VWS V14.01,2013-08-04 15:33:00,
2013-08-04 11:35:00,67.9,40.0,30.14,NNW,338,5.1,9.0,36,0.00,,,0.00,676.98,VWS V14.01,2013-08-04 15:35:00,
2013-08-04 11:37:00,68.2,41.6,30.17,NW,322,4.9,9.0,38,0.00,,,0.00,678.69,VWS V14.01,2013-08-04 15:37:00,
2013-08-04 11:41:00,67.4,40.4,30.13,NW,324,3.5,10.2,37,0.00,,,0.00,112.09,VWS V14.01,2013-08-04 15:41:00,
2013-08-04 11:42:00,69.0,42.9,30.13,North,3,3.5,10.2,39,0.00,,,0.00,720.70,VWS V14.01,2013-08-04 15:42:00,
2013-08-04 11:43:00,67.4,41.1,30.13,West,272,6.8,10.2,38,0.00,,,0.00,164.04,VWS V14.01,2013-08-04 15:43:00,
2013-08-04 11:44:00,67.9,41.0,30.14,NNW,330,6.9,10.2,37,0.00,,,0.00,754.64,VWS V14.01,2013-08-04 15:44:00,
2013-08-04 11:46:00,67.9,42.0,30.15,NNE,21,5.2,10.2,39,0.00,,,0.00,271.25,VWS V14.01,2013-08-04 15:46:00,
2013-08-04 11:48:00,67.0,40.8,30.14,NW,308,6.9,10.2,38,0.00,,,0.00,649.39,VWS V14.01,2013-08-04 15:48:00,
2013-08-04 11:51:00,66.5,41.5,30.14,NNW,339,7.8,13.6,40,0.00,,,0.00,732.66,VWS V14.01,2013-08-04 15:51:00,
2013-08-04 11:52:00,67.1,41.1,30.14,NNW,335,6.8,13.6,39,0.00,,,0.00,722.65,VWS V14.01,2013-08-04 15:52:00,
2013-08-04 11:55:00,68.6,44.7,30.14,NW,314,4.4,13.6,42,0.00,,,0.00,722.65,VWS V14.01,2013-08-04 15:55:00,
2013-08-04 11:56:00,69.2,43.7,30.14,North,349,4.4,13.6,40,0.00,,,0.00,725.40,VWS V14.01,2013-08-04 15:56:00,
2013-08-04 11:57:00,67.9,39.0,30.14,WNW,301,6.4,13.6,35,0.00,,,0.00,728.27,VWS V14.01,2013-08-04 15:57:00,
2013-08-04 12:00:00,67.6,39.2,30.14,NE,48,4.7,13.6,35,0.00,,,0.00,736.75,VWS V14.01,2013-08-04 16:00:00,
2013-08-04 12:01:00,67.2,38.5,30.14,NW,320,11.1,11.1,35,0.00,,,0.00,725.09,VWS V14.01,2013-08-04 16:01:00,
2013-08-04 12:03:00,67.6,35.2,30.14,NE,40,8.0,8.0,30,0.00,,,0.00,736.20,VWS V14.01,2013-08-04 16:03:00,
2013-08-04 12:05:00,68.9,38.0,30.12,North,0,2.5,7.3,32,0.00,,,0.00,749.45,VWS V14.01,2013-08-04 16:05:00,
2013-08-04 12:08:00,67.4,39.0,30.13,NNE,19,9.7,9.7,35,0.00,,,0.00,766.61,VWS V14.01,2013-08-04 16:08:00,
2013-08-04 12:09:00,68.7,41.0,30.14,NE,48,4.0,9.7,37,0.00,,,0.00,765.51,VWS V14.01,2013-08-04 16:09:00,
2013-08-04 12:10:00,69.6,40.8,30.13,North,351,3.2,3.9,35,0.00,,,0.00,776.37,VWS V14.01,2013-08-04 16:10:00,
2013-08-04 12:12:00,69.0,40.4,30.13,WNW,288,4.0,6.6,35,0.00,,,0.00,771.61,VWS V14.01,2013-08-04 16:12:00,
2013-08-04 12:14:00,67.7,37.2,30.13,NNW,336,10.9,10.9,32,0.00,,,0.00,764.16,VWS V14.01,2013-08-04 16:14:00,
2013-08-04 12:15:00,67.9,38.8,30.13,NW,318,10.2,10.9,34,0.00,,,0.00,760.75,VWS V14.01,2013-08-04 16:15:00,
2013-08-04 12:18:00,67.5,39.8,30.13,WNW,283,8.7,8.7,36,0.00,,,0.00,773.44,VWS V14.01,2013-08-04 16:18:00,
2013-08-04 12:20:00,67.9,41.2,30.14,WNW,290,10.9,12.3,38,0.00,,,0.00,803.24,VWS V14.01,2013-08-04 16:20:00,
2013-08-04 12:21:00,67.9,41.5,30.13,NW,304,6.4,11.1,38,0.00,,,0.00,689.38,VWS V14.01,2013-08-04 16:21:00,
2013-08-04 12:24:00,69.8,42.9,30.13,NNW,340,5.7,7.8,38,0.00,,,0.00,761.42,VWS V14.01,2013-08-04 16:24:00,
2013-08-04 12:25:00,69.7,41.8,30.13,WSW,241,5.6,11.7,36,0.00,,,0.00,766.85,VWS V14.01,2013-08-04 16:25:00,
2013-08-04 12:26:00,68.4,40.5,30.13,West,278,6.6,6.6,36,0.00,,,0.00,769.05,VWS V14.01,2013-08-04 16:26:00,
2013-08-04 12:27:00,70.2,40.9,30.13,NNE,29,5.9,6.6,34,0.00,,,0.00,781.26,VWS V14.01,2013-08-04 16:27:00,
2013-08-04 12:29:00,68.7,39.3,30.13,NE,39,5.6,5.9,34,0.00,,,0.00,664.04,VWS V14.01,2013-08-04 16:29:00,
2013-08-04 12:31:00,68.0,36.9,30.13,NE,51,7.5,7.5,32,0.00,,,0.00,790.54,VWS V14.01,2013-08-04 16:31:00,
2013-08-04 12:32:00,69.6,40.1,30.13,NNE,20,4.0,7.5,34,0.00,,,0.00,795.67,VWS V14.01,2013-08-04 16:32:00,
2013-08-04 12:35:00,68.9,38.8,30.13,NNE,33,3.7,3.7,33,0.00,,,0.00,524.36,VWS V14.01,2013-08-04 16:35:00,
2013-08-04 12:36:00,69.2,40.3,30.14,NNE,19,8.3,8.3,35,0.00,,,0.00,314.84,VWS V14.01,2013-08-04 16:36:00,
2013-08-04 12:37:00,70.4,42.9,30.14,North,11,3.7,8.3,37,0.00,,,0.00,820.33,VWS V14.01,2013-08-04 16:37:00,
2013-08-04 12:38:00,69.6,40.7,30.13,NE,41,5.1,5.1,35,0.00,,,0.00,827.66,VWS V14.01,2013-08-04 16:38:00,
2013-08-04 12:41:00,67.8,39.3,30.13,NW,325,4.0,4.5,35,0.00,,,0.00,125.09,VWS V14.01,2013-08-04 16:41:00,
2013-08-04 12:42:00,68.7,39.7,30.12,North,360,5.1,5.1,35,0.00,,,0.00,830.10,VWS V14.01,2013-08-04 16:42:00,
2013-08-04 12:43:00,69.6,39.8,30.13,North,5,2.3,4.2,34,0.00,,,0.00,823.93,VWS V14.01,2013-08-04 16:43:00,
2013-08-04 12:44:00,69.3,38.5,30.13,NNW,335,4.7,4.7,32,0.00,,,0.00,817.64,VWS V14.01,2013-08-04 16:44:00,
2013-08-04 12:47:00,69.3,42.3,30.12,NW,316,6.1,7.5,37,0.00,,,0.00,602.87,VWS V14.01,2013-08-04 16:47:00,
2013-08-04 12:48:00,69.3,42.2,30.12,NNW,330,7.8,8.1,37,0.00,,,0.00,779.73,VWS V14.01,2013-08-04 16:48:00,
2013-08-04 12:49:00,69.3,41.8,30.12,North,349,7.3,10.9,37,0.00,,,0.00,788.58,VWS V14.01,2013-08-04 16:49:00,
2013-08-04 12:50:00,70.1,44.3,30.12,NE,49,8.5,10.9,39,0.00,,,0.00,784.13,VWS V14.01,2013-08-04 16:50:00,
2013-08-04 12:52:00,68.7,42.2,30.12,WNW,298,4.2,8.5,38,0.00,,,0.00,787.12,VWS V14.01,2013-08-04 16:52:00,
2013-08-04 12:54:00,70.1,42.1,30.13,NE,42,3.9,5.2,36,0.00,,,0.00,796.52,VWS V14.01,2013-08-04 16:54:00,
2013-08-04 12:55:00,70.1,42.1,30.13,NE,42,3.9,5.2,36,0.00,,,0.00,796.52,VWS V14.01,2013-08-04 16:55:00,
2013-08-04 12:58:00,69.9,38.7,30.13,NNE,17,4.2,4.2,32,0.00,,,0.00,795.60,VWS V14.01,2013-08-04 16:58:00,
2013-08-04 12:59:00,69.1,37.9,30.12,NNE,26,6.1,6.1,32,0.00,,,0.00,427.47,VWS V14.01,2013-08-04 16:59:00,
2013-08-04 13:00:00,70.9,41.4,30.12,NNW,334,3.0,6.1,34,0.00,,,0.00,65.51,VWS V14.01,2013-08-04 17:00:00,
2013-08-04 13:01:00,68.5,41.6,30.14,NE,43,7.5,11.1,37,0.00,,,0.00,729.98,VWS V14.01,2013-08-04 17:01:00,
2013-08-04 13:02:00,67.6,35.2,30.14,NE,40,8.0,8.0,30,0.00,,,0.00,736.20,VWS V14.01,2013-08-04 17:02:00,
2013-08-04 13:03:00,67.8,41.0,30.13,NNW,334,8.7,8.7,38,0.00,,,0.00,739.44,VWS V14.01,2013-08-04 17:03:00,
2013-08-04 13:04:00,69.5,38.0,30.12,WNW,302,6.9,6.9,31,0.00,,,0.00,58.42,VWS V14.01,2013-08-04 17:04:00,
2013-08-04 13:05:00,70.8,41.3,30.12,North,11,4.5,10.2,34,0.00,,,0.00,59.16,VWS V14.01,2013-08-04 17:05:00,
2013-08-04 13:06:00,69.4,37.2,30.11,NNE,28,8.8,8.8,31,0.00,,,0.00,58.12,VWS V14.01,2013-08-04 17:06:00,
2013-08-04 13:07:00,69.5,41.7,30.12,WNW,288,7.3,9.2,36,0.00,,,0.00,396.76,VWS V14.01,2013-08-04 17:07:00,
2013-08-04 13:08:00,67.4,39.0,30.14,NNE,19,9.7,9.7,35,0.00,,,0.00,766.61,VWS V14.01,2013-08-04 17:08:00,
2013-08-04 13:09:00,70.5,39.1,30.11,East,89,0.0,6.8,32,0.00,,,0.00,651.83,VWS V14.01,2013-08-04 17:09:00,
2013-08-04 13:10:00,69.6,40.8,30.13,North,351,3.2,3.9,35,0.00,,,0.00,776.37,VWS V14.01,2013-08-04 17:10:00,
2013-08-04 13:11:00,69.4,40.1,30.12,North,350,3.9,4.4,34,0.00,,,0.00,786.08,VWS V14.01,2013-08-04 17:11:00,
2013-08-04 13:12:00,70.8,42.3,30.13,North,1,5.4,7.3,36,0.00,,,0.00,790.72,VWS V14.01,2013-08-04 17:12:00,
2013-08-04 13:13:00,69.8,42.8,30.13,NW,326,5.6,5.6,38,0.00,,,0.00,770.51,VWS V14.01,2013-08-04 17:13:00,
2013-08-04 13:14:00,67.7,37.2,30.14,NNW,336,10.9,10.9,32,0.00,,,0.00,764.16,VWS V14.01,2013-08-04 17:14:00,
2013-08-04 13:15:00,72.4,45.8,30.11,NNE,23,3.5,8.0,39,0.00,,,0.00,788.58,VWS V14.01,2013-08-04 17:15:00,
2013-08-04 13:16:00,67.4,39.5,30.13,WNW,300,8.5,10.9,36,0.00,,,0.00,763.68,VWS V14.01,2013-08-04 17:16:00,
2013-08-04 13:17:00,70.5,38.9,30.11,North,11,5.2,7.3,32,0.00,,,0.00,791.76,VWS V14.01,2013-08-04 17:17:00,
2013-08-04 13:18:00,70.7,39.2,30.11,NNE,17,5.1,7.3,32,0.00,,,0.00,794.57,VWS V14.01,2013-08-04 17:18:00,
2013-08-04 13:19:00,67.7,40.0,30.13,NW,323,12.3,12.3,36,0.00,,,0.00,778.33,VWS V14.01,2013-08-04 17:19:00,
2013-08-04 13:20:00,67.9,41.2,30.14,WNW,290,10.9,12.3,38,0.00,,,0.00,803.24,VWS V14.01,2013-08-04 17:20:00,
2013-08-04 13:21:00,71.5,40.4,30.11,NE,44,2.7,6.8,32,0.00,,,0.00,793.47,VWS V14.01,2013-08-04 17:21:00,
2013-08-04 13:22:00,68.3,42.3,30.13,NNW,328,7.1,9.7,39,0.00,,,0.00,180.52,VWS V14.01,2013-08-04 17:22:00,
2013-08-04 13:23:00,70.9,40.0,30.11,NNW,343,4.2,4.2,33,0.00,,,0.00,796.52,VWS V14.01,2013-08-04 17:23:00,
2013-08-04 13:24:00,69.8,38.4,30.11,WNW,303,3.5,4.2,32,0.00,,,0.00,793.47,VWS V14.01,2013-08-04 17:24:00,
2013-08-04 13:25:00,69.7,41.8,30.13,WSW,241,5.6,11.7,36,0.00,,,0.00,766.85,VWS V14.01,2013-08-04 17:25:00,
2013-08-04 13:26:00,70.2,40.9,30.13,NNE,29,5.9,6.6,34,0.00,,,0.00,781.26,VWS V14.01,2013-08-04 17:26:00,
2013-08-04 13:27:00,68.9,40.6,30.13,NE,43,1.5,5.9,36,0.00,,,0.00,136.57,VWS V14.01,2013-08-04 17:27:00,
2013-08-04 13:28:00,70.1,37.3,30.11,NE,55,4.2,6.8,30,0.00,,,0.00,793.71,VWS V14.01,2013-08-04 17:28:00,
2013-08-04 13:29:00,70.1,37.3,30.11,NE,55,4.2,6.8,30,0.00,,,0.00,793.71,VWS V14.01,2013-08-04 17:29:00,
2013-08-04 13:30:00,72.0,39.7,30.12,NW,311,4.2,4.2,31,0.00,,,0.00,798.35,VWS V14.01,2013-08-04 17:30:00,
2013-08-04 13:31:00,68.0,36.9,30.13,NE,51,7.5,7.5,32,0.00,,,0.00,790.54,VWS V14.01,2013-08-04 17:31:00,
2013-08-04 13:32:00,71.2,42.7,30.13,NW,322,5.1,7.5,36,0.00,,,0.00,810.56,VWS V14.01,2013-08-04 17:32:00,
2013-08-04 13:33:00,69.4,36.0,30.11,NE,41,9.0,9.0,29,0.00,,,0.00,801.40,VWS V14.01,2013-08-04 17:33:00,
2013-08-04 13:34:00,71.1,39.6,30.11,NNE,28,3.7,9.0,32,0.00,,,0.00,798.35,VWS V14.01,2013-08-04 17:34:00,
2013-08-04 13:35:00,70.2,38.1,30.11,WNW,289,4.5,4.5,31,0.00,,,0.00,797.62,VWS V14.01,2013-08-04 17:35:00,
2013-08-04 13:36:00,69.5,35.1,30.11,NE,47,7.3,7.3,28,0.00,,,0.00,799.08,VWS V14.01,2013-08-04 17:36:00,
2013-08-04 13:37:00,70.4,42.9,30.14,North,11,3.7,8.3,37,0.00,,,0.00,820.33,VWS V14.01,2013-08-04 17:37:00,
2013-08-04 13:38:00,70.4,41.4,30.15,NNE,24,2.8,5.1,35,0.00,,,0.00,841.70,VWS V14.01,2013-08-04 17:38:00,
2013-08-04 13:39:00,69.7,37.3,30.11,NW,306,4.9,5.6,30,0.00,,,0.00,802.08,VWS V14.01,2013-08-04 17:39:00,
2013-08-04 13:40:00,69.9,35.7,30.11,WNW,285,6.3,6.3,28,0.00,,,0.00,804.52,VWS V14.01,2013-08-04 17:40:00,
2013-08-04 13:41:00,70.2,35.9,30.11,NNW,327,7.3,7.3,28,0.00,,,0.00,804.46,VWS V14.01,2013-08-04 17:41:00,
2013-08-04 13:42:00,69.2,40.0,30.13,NE,44,4.2,5.1,34,0.00,,,0.00,823.26,VWS V14.01,2013-08-04 17:42:00,
2013-08-04 13:43:00,70.2,35.3,30.11,NE,41,6.1,6.1,28,0.00,,,0.00,801.53,VWS V14.01,2013-08-04 17:43:00,
2013-08-04 13:44:00,69.3,38.5,30.13,NNW,335,4.7,4.7,32,0.00,,,0.00,817.64,VWS V14.01,2013-08-04 17:44:00,
2013-08-04 13:45:00,71.5,37.6,30.11,North,8,3.2,9.0,29,0.00,,,0.00,691.15,VWS V14.01,2013-08-04 17:45:00,
2013-08-04 13:46:00,71.5,37.6,30.11,North,8,3.2,9.0,29,0.00,,,0.00,691.15,VWS V14.01,2013-08-04 17:46:00,
2013-08-04 13:47:00,71.1,39.2,30.11,NW,305,3.2,3.2,31,0.00,,,0.00,801.53,VWS V14.01,2013-08-04 17:47:00,
2013-08-04 13:48:00,69.8,33.9,30.11,NNE,15,5.7,5.7,26,0.00,,,0.00,800.79,VWS V14.01,2013-08-04 17:48:00,
2013-08-04 13:49:00,70.1,44.3,30.12,NE,49,8.5,10.9,39,0.00,,,0.00,784.13,VWS V14.01,2013-08-04 17:49:00,
2013-08-04 13:50:00,70.7,35.0,30.11,NNE,33,4.7,5.2,27,0.00,,,0.00,803.24,VWS V14.01,2013-08-04 17:50:00,
2013-08-04 13:51:00,69.5,40.9,30.12,NNW,332,5.4,10.5,35,0.00,,,0.00,785.65,VWS V14.01,2013-08-04 17:51:00,
2013-08-04 13:52:00,71.2,37.4,30.12,NW,321,8.0,8.0,29,0.00,,,0.00,803.48,VWS V14.01,2013-08-04 17:52:00,
2013-08-04 13:53:00,71.1,31.4,30.11,NE,39,9.2,9.2,23,0.00,,,0.00,804.46,VWS V14.01,2013-08-04 17:53:00,
2013-08-04 13:54:00,69.8,34.1,30.11,NW,322,14.0,14.0,27,0.00,,,0.00,808.36,VWS V14.01,2013-08-04 17:54:00,
2013-08-04 13:56:00,71.5,44.6,30.12,North,11,4.2,5.2,38,0.00,,,0.00,803.97,VWS V14.01,2013-08-04 17:56:00,
2013-08-04 13:57:00,70.8,40.0,30.11,NNW,340,7.5,12.3,33,0.00,,,0.00,810.56,VWS V14.01,2013-08-04 17:57:00,
2013-08-04 13:58:00,70.7,36.7,30.11,NW,318,5.2,7.5,29,0.00,,,0.00,813.00,VWS V14.01,2013-08-04 17:58:00,
2013-08-04 13:59:00,70.3,37.2,30.12,WNW,303,10.4,12.6,30,0.00,,,0.00,812.15,VWS V14.01,2013-08-04 17:59:00,
2013-08-04 14:00:00,70.3,34.7,30.11,NW,321,11.1,11.1,27,0.00,,,0.00,812.27,VWS V14.01,2013-08-04 18:00:00,
2013-08-04 14:01:00,69.1,36.6,30.12,WNW,290,6.4,6.4,30,0.00,,,0.00,60.56,VWS V14.01,2013-08-04 18:01:00,
2013-08-04 14:02:00,70.1,35.3,30.11,NW,325,6.8,6.8,28,0.00,,,0.00,813.00,VWS V14.01,2013-08-04 18:02:00,
2013-08-04 14:03:00,71.3,40.2,30.11,NW,314,4.0,7.3,32,0.00,,,0.00,58.42,VWS V14.01,2013-08-04 18:03:00,
2013-08-04 14:04:00,70.8,34.6,30.12,NNE,22,5.1,8.1,26,0.00,,,0.00,869.66,VWS V14.01,2013-08-04 18:04:00,
2013-08-04 14:05:00,69.9,34.0,30.12,NNW,340,5.4,8.1,27,0.00,,,0.00,166.54,VWS V14.01,2013-08-04 18:05:00,
2013-08-04 14:06:00,69.7,38.1,30.11,NNE,17,9.2,9.2,31,0.00,,,0.00,63.31,VWS V14.01,2013-08-04 18:06:00,
2013-08-04 14:07:00,70.8,35.3,30.11,North,351,5.1,8.1,27,0.00,,,0.00,547.68,VWS V14.01,2013-08-04 18:07:00,
2013-08-04 14:08:00,70.2,34.3,30.10,WNW,287,6.4,8.1,27,0.00,,,0.00,807.63,VWS V14.01,2013-08-04 18:08:00,
2013-08-04 14:09:00,71.0,36.1,30.11,NNE,30,4.0,8.1,28,0.00,,,0.00,806.17,VWS V14.01,2013-08-04 18:09:00,
2013-08-04 14:10:00,71.0,36.1,30.11,NNE,30,4.0,8.1,28,0.00,,,0.00,806.17,VWS V14.01,2013-08-04 18:10:00,
2013-08-04 14:11:00,69.4,40.1,30.12,North,350,3.9,4.4,34,0.00,,,0.00,786.08,VWS V14.01,2013-08-04 18:11:00,
2013-08-04 14:12:00,71.0,33.8,30.11,NW,322,6.3,8.1,25,0.00,,,0.00,810.26,VWS V14.01,2013-08-04 18:12:00,
2013-08-04 14:13:00,71.2,35.2,30.11,NNW,333,6.8,8.1,27,0.00,,,0.00,812.27,VWS V14.01,2013-08-04 18:13:00,
2013-08-04 14:14:00,70.4,38.2,30.11,NE,38,8.0,8.0,31,0.00,,,0.00,789.20,VWS V14.01,2013-08-04 18:14:00,
2013-08-04 14:15:00,70.1,32.4,30.11,NNE,25,8.7,8.7,25,0.00,,,0.00,810.56,VWS V14.01,2013-08-04 18:15:00,
2013-08-04 14:16:00,70.9,39.5,30.11,NNE,26,7.3,7.3,32,0.00,,,0.00,793.47,VWS V14.01,2013-08-04 18:16:00,
2013-08-04 14:17:00,70.7,39.2,30.11,NNE,17,5.1,7.3,32,0.00,,,0.00,794.57,VWS V14.01,2013-08-04 18:17:00,
2013-08-04 14:18:00,71.2,30.9,30.11,NW,322,1.8,8.7,22,0.00,,,0.00,144.38,VWS V14.01,2013-08-04 18:18:00,
2013-08-04 14:19:00,69.4,36.6,30.11,NNW,341,5.4,7.3,30,0.00,,,0.00,793.71,VWS V14.01,2013-08-04 18:19:00,
2013-08-04 14:20:00,71.1,34.4,30.11,ENE,67,4.7,8.7,26,0.00,,,0.00,815.69,VWS V14.01,2013-08-04 18:20:00,
2013-08-04 14:21:00,73.5,41.5,30.11,NNE,32,2.8,8.7,32,0.00,,,0.00,815.45,VWS V14.01,2013-08-04 18:21:00,
2013-08-04 14:22:00,71.4,41.9,30.11,NNW,341,4.2,5.9,34,0.00,,,0.00,793.47,VWS V14.01,2013-08-04 18:22:00,
2013-08-04 14:23:00,71.5,33.5,30.11,NNE,20,7.3,8.7,25,0.00,,,0.00,826.92,VWS V14.01,2013-08-04 18:23:00,
2013-08-04 14:24:00,69.8,38.4,30.11,WNW,303,3.5,4.2,32,0.00,,,0.00,793.47,VWS V14.01,2013-08-04 18:24:00,
2013-08-04 14:25:00,71.3,33.2,30.11,NE,41,3.5,8.7,25,0.00,,,0.00,628.63,VWS V14.01,2013-08-04 18:25:00,
2013-08-04 14:26:00,69.8,35.7,30.11,NE,43,8.0,8.7,28,0.00,,,0.00,411.11,VWS V14.01,2013-08-04 18:26:00,
2013-08-04 14:27:00,71.6,40.8,30.11,NNE,28,6.8,6.8,33,0.00,,,0.00,795.97,VWS V14.01,2013-08-04 18:27:00,
2013-08-04 14:28:00,70.1,37.3,30.11,NE,55,4.2,6.8,30,0.00,,,0.00,793.71,VWS V14.01,2013-08-04 18:28:00,
2013-08-04 14:29:00,72.2,36.6,30.10,ENE,58,6.1,8.7,27,0.00,,,0.00,820.33,VWS V14.01,2013-08-04 18:29:00,
2013-08-04 14:30:00,70.8,35.5,30.11,NNE,28,7.5,8.7,27,0.00,,,0.00,830.83,VWS V14.01,2013-08-04 18:30:00,
2013-08-04 14:31:00,69.3,32.0,30.10,ENE,67,5.6,8.7,25,0.00,,,0.00,122.89,VWS V14.01,2013-08-04 18:31:00,
2013-08-04 14:32:00,69.3,32.0,30.10,ENE,67,5.6,8.7,25,0.00,,,0.00,122.89,VWS V14.01,2013-08-04 18:32:00,
2013-08-04 14:33:00,71.9,35.9,30.11,North,10,3.2,8.7,27,0.00,,,0.00,813.00,VWS V14.01,2013-08-04 18:33:00,
2013-08-04 14:34:00,71.1,39.6,30.11,NNE,28,3.7,9.0,32,0.00,,,0.00,798.35,VWS V14.01,2013-08-04 18:34:00,
2013-08-04 14:35:00,70.2,38.1,30.11,WNW,289,4.5,4.5,31,0.00,,,0.00,797.62,VWS V14.01,2013-08-04 18:35:00,
2013-08-04 14:36:00,70.9,33.5,30.11,NNE,18,4.7,9.3,25,0.00,,,0.00,854.27,VWS V14.01,2013-08-04 18:36:00,
2013-08-04 14:37:00,70.9,33.5,30.11,NNE,18,4.7,9.3,25,0.00,,,0.00,854.27,VWS V14.01,2013-08-04 18:37:00,
2013-08-04 14:38:00,71.2,37.3,30.10,NE,36,3.7,9.3,29,0.00,,,0.00,163.43,VWS V14.01,2013-08-04 18:38:00,
2013-08-04 14:39:00,72.5,36.9,30.11,NNE,23,1.0,9.3,27,0.00,,,0.00,826.92,VWS V14.01,2013-08-04 18:39:00,
2013-08-04 14:40:00,69.9,35.7,30.11,WNW,285,6.3,6.3,28,0.00,,,0.00,804.52,VWS V14.01,2013-08-04 18:40:00,
2013-08-04 14:41:00,69.6,35.4,30.12,NE,38,7.8,7.8,28,0.00,,,0.00,802.69,VWS V14.01,2013-08-04 18:41:00,
2013-08-04 14:42:00,72.5,36.3,30.11,NNW,347,5.4,9.3,27,0.00,,,0.00,808.36,VWS V14.01,2013-08-04 18:42:00,
2013-08-04 14:43:00,70.5,36.0,30.11,NNE,24,3.5,6.1,28,0.00,,,0.00,803.24,VWS V14.01,2013-08-04 18:43:00,
2013-08-04 14:44:00,70.8,34.4,30.10,NNW,344,7.6,9.7,26,0.00,,,0.00,813.00,VWS V14.01,2013-08-04 18:44:00,
2013-08-04 14:45:00,70.6,33.4,30.11,NNW,330,13.8,13.8,25,0.00,,,0.00,815.45,VWS V14.01,2013-08-04 18:45:00,
2013-08-04 14:47:00,71.1,34.8,30.11,NNW,331,10.2,13.8,26,0.00,,,0.00,844.38,VWS V14.01,2013-08-04 18:47:00,
2013-08-04 14:48:00,72.3,38.1,30.11,NNW,346,1.3,5.7,29,0.00,,,0.00,800.79,VWS V14.01,2013-08-04 18:48:00,
2013-08-04 14:49:00,71.5,35.5,30.10,NE,48,3.4,13.8,27,0.00,,,0.00,893.59,VWS V14.01,2013-08-04 18:49:00,
2013-08-04 14:50:00,71.5,35.5,30.10,NE,48,3.4,13.8,27,0.00,,,0.00,893.59,VWS V14.01,2013-08-04 18:50:00,
2013-08-04 14:51:00,72.6,34.6,30.10,NNW,336,0.0,13.8,25,0.00,,,0.00,261.11,VWS V14.01,2013-08-04 18:51:00,
2013-08-04 14:52:00,71.2,37.4,30.12,NW,321,8.0,8.0,29,0.00,,,0.00,803.48,VWS V14.01,2013-08-04 18:52:00,
2013-08-04 14:53:00,71.1,31.4,30.11,NE,39,9.2,9.2,23,0.00,,,0.00,804.46,VWS V14.01,2013-08-04 18:53:00,
2013-08-04 14:54:00,69.8,34.1,30.11,NW,322,14.0,14.0,27,0.00,,,0.00,808.36,VWS V14.01,2013-08-04 18:54:00,
2013-08-04 14:55:00,70.3,35.2,30.10,NE,39,4.0,13.8,28,0.00,,,0.00,161.60,VWS V14.01,2013-08-04 18:55:00,
2013-08-04 14:56:00,69.5,35.1,30.11,NW,320,12.3,12.3,28,0.00,,,0.00,809.59,VWS V14.01,2013-08-04 18:56:00,
2013-08-04 14:57:00,69.9,36.5,30.10,NNW,345,4.0,13.8,29,0.00,,,0.00,752.56,VWS V14.01,2013-08-04 18:57:00,
2013-08-04 14:58:00,70.7,36.7,30.11,NW,318,5.2,7.5,29,0.00,,,0.00,813.00,VWS V14.01,2013-08-04 18:58:00,
2013-08-04 14:59:00,70.4,34.7,30.10,NW,310,7.6,13.8,27,0.00,,,0.00,893.35,VWS V14.01,2013-08-04 18:59:00,
2013-08-04 15:00:00,70.5,36.5,30.11,NNE,19,4.4,11.1,29,0.00,,,0.00,813.00,VWS V14.01,2013-08-04 19:00:00,
2013-08-04 15:01:00,72.6,36.7,30.11,NNE,32,4.2,13.8,27,0.00,,,0.00,180.28,VWS V14.01,2013-08-04 19:01:00,
2013-08-04 15:02:00,71.5,36.6,30.10,NNW,346,3.9,4.0,28,0.00,,,0.00,468.68,VWS V14.01,2013-08-04 19:02:00,
2013-08-04 15:03:00,72.5,37.9,30.11,NE,41,1.5,4.4,28,0.00,,,0.00,879.85,VWS V14.01,2013-08-04 19:03:00,
2013-08-04 15:04:00,70.3,34.8,30.12,NE,40,2.7,3.9,27,0.00,,,0.00,165.08,VWS V14.01,2013-08-04 19:04:00,
2013-08-04 15:05:00,71.7,38.6,30.10,NNE,31,1.6,4.7,30,0.00,,,0.00,832.54,VWS V14.01,2013-08-04 19:05:00,
2013-08-04 15:06:00,71.5,38.1,30.10,NE,36,4.4,4.4,30,0.00,,,0.00,829.79,VWS V14.01,2013-08-04 19:06:00,
2013-08-04 15:07:00,72.1,35.5,30.10,WNW,299,5.1,5.1,26,0.00,,,0.00,832.54,VWS V14.01,2013-08-04 19:07:00,
2013-08-04 15:08:00,72.1,34.2,30.09,North,351,6.6,6.6,25,0.00,,,0.00,843.53,VWS V14.01,2013-08-04 19:08:00,
2013-08-04 15:09:00,72.1,34.2,30.09,North,351,6.6,6.6,25,0.00,,,0.00,843.53,VWS V14.01,2013-08-04 19:09:00,
2013-08-04 15:10:00,71.9,34.4,30.11,NE,56,3.5,3.5,25,0.00,,,0.00,829.79,VWS V14.01,2013-08-04 19:10:00,
2013-08-04 15:11:00,72.5,36.3,30.10,NE,37,4.2,5.2,27,0.00,,,0.00,817.89,VWS V14.01,2013-08-04 19:11:00,
2013-08-04 15:12:00,72.3,36.9,30.10,West,272,3.7,5.2,27,0.00,,,0.00,823.99,VWS V14.01,2013-08-04 19:12:00,
2013-08-04 15:13:00,72.3,35.0,30.10,NE,39,5.1,7.3,25,0.00,,,0.00,840.11,VWS V14.01,2013-08-04 19:13:00,
2013-08-04 15:14:00,74.3,42.4,30.10,North,351,3.2,6.8,32,0.00,,,0.00,852.08,VWS V14.01,2013-08-04 19:14:00,
2013-08-04 15:15:00,73.1,35.3,30.10,North,3,6.8,6.8,25,0.00,,,0.00,874.05,VWS V14.01,2013-08-04 19:15:00,
2013-08-04 15:16:00,72.5,36.8,30.10,NE,39,5.4,6.8,27,0.00,,,0.00,476.01,VWS V14.01,2013-08-04 19:16:00,
2013-08-04 15:17:00,72.1,35.3,30.10,North,10,5.2,5.4,26,0.00,,,0.00,883.82,VWS V14.01,2013-08-04 19:17:00,
2013-08-04 15:18:00,72.3,35.3,30.10,North,349,4.2,8.0,26,0.00,,,0.00,884.80,VWS V14.01,2013-08-04 19:18:00,
2013-08-04 15:19:00,71.9,32.7,30.10,NE,49,5.9,5.9,24,0.00,,,0.00,857.14,VWS V14.01,2013-08-04 19:19:00,
2013-08-04 15:20:00,73.7,37.1,30.10,NNE,16,5.6,5.9,26,0.00,,,0.00,855.25,VWS V14.01,2013-08-04 19:20:00,
2013-08-04 15:21:00,72.5,35.9,30.10,ENE,61,4.9,5.6,26,0.00,,,0.00,187.85,VWS V14.01,2013-08-04 19:21:00,
2013-08-04 15:22:00,71.3,32.7,30.09,NNW,346,6.3,6.3,24,0.00,,,0.00,168.32,VWS V14.01,2013-08-04 19:22:00,
2013-08-04 15:23:00,70.2,33.6,30.09,NW,308,3.5,6.3,26,0.00,,,0.00,201.77,VWS V14.01,2013-08-04 19:23:00,
2013-08-04 15:24:00,72.4,36.4,30.09,NNE,31,4.2,4.7,27,0.00,,,0.00,760.75,VWS V14.01,2013-08-04 19:24:00,
2013-08-04 15:25:00,71.7,31.1,30.10,NNE,12,6.1,6.1,22,0.00,,,0.00,834.98,VWS V14.01,2013-08-04 19:25:00,
2013-08-04 15:26:00,72.1,35.5,30.10,North,7,3.0,6.1,26,0.00,,,0.00,314.84,VWS V14.01,2013-08-04 19:26:00,
2013-08-04 15:27:00,72.2,35.4,30.09,North,11,3.5,8.1,26,0.00,,,0.00,178.08,VWS V14.01,2013-08-04 19:27:00,
2013-08-04 15:28:00,70.3,32.5,30.10,WNW,295,4.7,4.7,25,0.00,,,0.00,187.85,VWS V14.01,2013-08-04 19:28:00,
2013-08-04 15:29:00,71.5,36.0,30.10,North,6,5.6,7.6,27,0.00,,,0.00,842.55,VWS V14.01,2013-08-04 19:29:00,
2013-08-04 15:30:00,72.7,36.4,30.09,North,351,4.2,5.6,27,0.00,,,0.00,849.33,VWS V14.01,2013-08-04 19:30:00,
2013-08-04 15:31:00,72.0,36.1,30.09,NE,34,5.4,5.4,27,0.00,,,0.00,185.41,VWS V14.01,2013-08-04 19:31:00,
2013-08-04 15:32:00,72.0,36.1,30.09,NE,34,5.4,5.4,27,0.00,,,0.00,185.41,VWS V14.01,2013-08-04 19:32:00,
2013-08-04 15:33:00,71.7,34.2,30.10,NW,323,3.0,5.1,25,0.00,,,0.00,894.57,VWS V14.01,2013-08-04 19:33:00,
2013-08-04 15:34:00,73.0,36.9,30.10,North,10,2.7,3.0,27,0.00,,,0.00,916.18,VWS V14.01,2013-08-04 19:34:00,
2013-08-04 15:35:00,72.6,35.7,30.10,NNW,329,4.9,4.9,26,0.00,,,0.00,288.71,VWS V14.01,2013-08-04 19:35:00,
2013-08-04 15:36:00,71.6,35.2,30.10,NNW,339,5.6,5.9,26,0.00,,,0.00,825.21,VWS V14.01,2013-08-04 19:36:00,
2013-08-04 15:37:00,71.2,35.8,30.10,NNE,26,4.2,5.6,27,0.00,,,0.00,720.45,VWS V14.01,2013-08-04 19:37:00,
2013-08-04 15:38:00,71.1,33.6,30.09,NNW,347,6.3,6.4,25,0.00,,,0.00,270.88,VWS V14.01,2013-08-04 19:38:00,
2013-08-04 15:39:00,72.1,36.5,30.10,East,79,2.7,6.3,27,0.00,,,0.00,532.30,VWS V14.01,2013-08-04 19:39:00,
2013-08-04 15:40:00,73.0,37.4,30.10,NNW,348,4.0,4.0,27,0.00,,,0.00,814.71,VWS V14.01,2013-08-04 19:40:00,
2013-08-04 15:41:00,73.0,36.4,30.09,North,351,5.2,5.2,26,0.00,,,0.00,793.47,VWS V14.01,2013-08-04 19:41:00,
2013-08-04 15:42:00,71.8,33.1,30.09,NE,41,4.7,5.2,24,0.00,,,0.00,752.57,VWS V14.01,2013-08-04 19:42:00,
2013-08-04 15:43:00,73.6,37.8,30.09,ENE,73,5.7,5.7,27,0.00,,,0.00,715.32,VWS V14.01,2013-08-04 19:43:00,
2013-08-04 15:44:00,72.8,34.7,30.10,NE,36,5.6,6.4,25,0.00,,,0.00,868.99,VWS V14.01,2013-08-04 19:44:00,
2013-08-04 15:45:00,72.6,33.8,30.10,NNE,20,6.1,6.1,24,0.00,,,0.00,878.94,VWS V14.01,2013-08-04 19:45:00,
2013-08-04 15:46:00,74.5,38.7,30.09,NE,39,4.7,6.1,27,0.00,,,0.00,869.41,VWS V14.01,2013-08-04 19:46:00,
2013-08-04 15:47:00,74.3,37.4,30.09,NE,56,3.2,4.2,26,0.00,,,0.00,871.79,VWS V14.01,2013-08-04 19:47:00,
2013-08-04 15:48:00,71.6,31.6,30.09,NNE,15,6.1,6.1,23,0.00,,,0.00,244.02,VWS V14.01,2013-08-04 19:48:00,
2013-08-04 15:49:00,74.0,35.9,30.09,NE,53,3.0,6.1,25,0.00,,,0.00,871.86,VWS V14.01,2013-08-04 19:49:00,
2013-08-04 15:50:00,72.0,32.1,30.09,East,101,4.4,4.4,23,0.00,,,0.00,865.45,VWS V14.01,2013-08-04 19:50:00,
2013-08-04 15:51:00,72.2,32.8,30.08,NNE,16,5.6,5.7,23,0.00,,,0.00,808.61,VWS V14.01,2013-08-04 19:51:00,
2013-08-04 15:52:00,72.7,35.0,30.08,NE,49,7.3,9.5,25,0.00,,,0.00,866.73,VWS V14.01,2013-08-04 19:52:00,
2013-08-04 15:53:00,73.2,40.4,30.09,WNW,288,5.7,7.3,31,0.00,,,0.00,870.33,VWS V14.01,2013-08-04 19:53:00,
2013-08-04 15:54:00,72.3,33.1,30.09,NNW,328,5.9,7.1,24,0.00,,,0.00,235.47,VWS V14.01,2013-08-04 19:54:00,
2013-08-04 15:55:00,71.9,33.2,30.10,NE,35,3.9,5.9,24,0.00,,,0.00,216.42,VWS V14.01,2013-08-04 19:55:00,
2013-08-04 15:56:00,74.4,36.1,30.10,South,176,3.7,3.7,25,0.00,,,0.00,883.82,VWS V14.01,2013-08-04 19:56:00,
2013-08-04 15:57:00,71.8,32.6,30.09,NNE,23,7.5,7.5,23,0.00,,,0.00,282.11,VWS V14.01,2013-08-04 19:57:00,
2013-08-04 15:58:00,71.8,32.6,30.09,NNE,23,7.5,7.5,23,0.00,,,0.00,282.11,VWS V14.01,2013-08-04 19:58:00,
2013-08-04 16:00:00,74.4,36.2,30.09,NE,35,2.0,5.2,25,0.00,,,0.00,873.57,VWS V14.01,2013-08-04 20:00:00,
2013-08-04 16:01:00,71.6,31.0,30.09,NNE,12,7.1,7.1,22,0.00,,,0.00,266.00,VWS V14.01,2013-08-04 20:01:00,
2013-08-04 16:02:00,71.6,31.0,30.09,NNE,12,7.1,7.1,22,0.00,,,0.00,266.00,VWS V14.01,2013-08-04 20:02:00,
2013-08-04 16:03:00,71.6,31.0,30.09,NNE,12,7.1,7.1,22,0.00,,,0.00,266.00,VWS V14.01,2013-08-04 20:03:00,
2013-08-04 16:04:00,71.7,32.6,30.10,NNW,339,5.6,7.1,24,0.00,,,0.00,775.03,VWS V14.01,2013-08-04 20:04:00,
2013-08-04 16:05:00,71.7,32.6,30.10,NNW,339,5.6,7.1,24,0.00,,,0.00,775.03,VWS V14.01,2013-08-04 20:05:00,
2013-08-04 16:07:00,70.2,35.1,30.10,NW,323,8.0,9.5,28,0.00,,,0.00,212.03,VWS V14.01,2013-08-04 20:07:00,
2013-08-04 16:08:00,69.9,35.3,30.10,WNW,288,8.8,8.8,28,0.00,,,0.00,451.59,VWS V14.01,2013-08-04 20:08:00,
2013-08-04 16:10:00,71.4,38.8,30.09,NNW,332,1.1,1.1,31,0.00,,,0.00,217.16,VWS V14.01,2013-08-04 20:10:00,
2013-08-04 16:12:00,71.7,38.9,30.10,WNW,301,0.0,4.2,30,0.00,,,0.00,423.20,VWS V14.01,2013-08-04 20:12:00,
2013-08-04 16:15:00,69.8,34.5,30.09,NE,53,5.4,5.4,27,0.00,,,0.00,177.35,VWS V14.01,2013-08-04 20:15:00,
2013-08-04 16:16:00,70.4,37.7,30.10,NNW,348,3.2,4.2,30,0.00,,,0.00,297.50,VWS V14.01,2013-08-04 20:16:00,
2013-08-04 16:18:00,72.2,38.4,30.10,NNE,20,3.2,3.2,29,0.00,,,0.00,727.53,VWS V14.01,2013-08-04 20:18:00,
2013-08-04 16:19:00,73.6,38.5,30.10,ENE,57,1.3,1.3,28,0.00,,,0.00,733.88,VWS V14.01,2013-08-04 20:19:00,
2013-08-04 16:20:00,73.6,38.5,30.10,ENE,57,1.3,1.3,28,0.00,,,0.00,733.88,VWS V14.01,2013-08-04 20:20:00,
2013-08-04 16:21:00,73.9,38.6,30.09,NNE,21,3.4,3.4,28,0.00,,,0.00,729.98,VWS V14.01,2013-08-04 20:21:00,
2013-08-04 16:23:00,73.3,35.3,30.10,NNW,338,2.7,2.7,25,0.00,,,0.00,749.21,VWS V14.01,2013-08-04 20:23:00,
2013-08-04 16:24:00,72.9,39.9,30.10,NW,316,6.3,6.3,30,0.00,,,0.00,761.78,VWS V14.01,2013-08-04 20:24:00,
2013-08-04 16:26:00,73.2,34.3,30.09,NNE,30,5.9,5.9,24,0.00,,,0.00,771.49,VWS V14.01,2013-08-04 20:26:00,
2013-08-04 16:27:00,72.5,33.4,30.10,NNE,23,3.4,6.1,24,0.00,,,0.00,778.82,VWS V14.01,2013-08-04 20:27:00,
2013-08-04 16:29:00,71.3,32.3,30.09,NE,53,7.6,7.6,24,0.00,,,0.00,224.48,VWS V14.01,2013-08-04 20:29:00,
2013-08-04 16:30:00,71.2,32.8,30.09,NW,311,5.9,7.6,24,0.00,,,0.00,219.60,VWS V14.01,2013-08-04 20:30:00,
2013-08-04 16:31:00,70.2,31.5,30.09,NE,42,7.8,7.8,24,0.00,,,0.00,232.05,VWS V14.01,2013-08-04 20:31:00,
2013-08-04 16:32:00,70.4,32.9,30.09,ENE,58,6.1,6.1,25,0.00,,,0.00,195.18,VWS V14.01,2013-08-04 20:32:00,
2013-08-04 16:35:00,71.0,34.8,30.10,North,5,4.9,6.1,26,0.00,,,0.00,666.97,VWS V14.01,2013-08-04 20:35:00,
2013-08-04 16:36:00,72.1,37.2,30.09,North,350,4.5,6.1,28,0.00,,,0.00,634.49,VWS V14.01,2013-08-04 20:36:00,
2013-08-04 16:38:00,72.1,29.1,30.10,NNE,31,4.2,6.8,20,0.00,,,0.00,283.33,VWS V14.01,2013-08-04 20:38:00,
2013-08-04 16:39:00,72.2,35.1,30.10,NNE,28,4.2,4.9,26,0.00,,,0.00,694.02,VWS V14.01,2013-08-04 20:39:00,
2013-08-04 16:41:00,71.1,34.4,30.10,NE,43,3.2,3.4,26,0.00,,,0.00,109.95,VWS V14.01,2013-08-04 20:41:00,
2013-08-04 16:43:00,71.7,33.3,30.09,North,1,4.0,4.4,24,0.00,,,0.00,653.30,VWS V14.01,2013-08-04 20:43:00,
2013-08-04 16:45:00,72.4,34.4,30.10,NE,40,5.4,6.3,25,0.00,,,0.00,656.47,VWS V14.01,2013-08-04 20:45:00,
2013-08-04 16:47:00,72.3,32.8,30.09,ENE,66,4.5,4.5,23,0.00,,,0.00,660.75,VWS V14.01,2013-08-04 20:47:00,
2013-08-04 16:49:00,72.4,33.7,30.08,NNW,348,7.1,7.6,24,0.00,,,0.00,546.83,VWS V14.01,2013-08-04 20:49:00,
2013-08-04 16:50:00,72.9,35.0,30.09,NE,37,2.8,7.1,25,0.00,,,0.00,686.02,VWS V14.01,2013-08-04 20:50:00,
2013-08-04 16:51:00,71.1,32.3,30.09,NW,325,5.4,6.8,24,0.00,,,0.00,184.92,VWS V14.01,2013-08-04 20:51:00,
2013-08-04 16:53:00,71.3,34.0,30.09,East,100,2.3,5.4,25,0.00,,,0.00,168.56,VWS V14.01,2013-08-04 20:53:00,
2013-08-04 16:54:00,70.5,35.3,30.08,NNW,342,2.0,3.7,27,0.00,,,0.00,181.14,VWS V14.01,2013-08-04 20:54:00,
2013-08-04 16:56:00,72.1,34.5,30.09,NE,39,2.5,3.2,25,0.00,,,0.00,678.21,VWS V14.01,2013-08-04 20:56:00,
2013-08-04 16:57:00,70.9,35.7,30.09,NW,318,6.8,6.8,27,0.00,,,0.00,678.02,VWS V14.01,2013-08-04 20:57:00,
2013-08-04 16:58:00,73.0,39.0,30.09,NW,311,2.3,6.8,29,0.00,,,0.00,673.57,VWS V14.01,2013-08-04 20:58:00,
2013-08-04 17:00:00,71.8,35.6,30.08,NW,325,5.1,5.1,27,0.00,,,0.00,151.53,VWS V14.01,2013-08-04 21:00:00,
2013-08-04 17:02:00,72.1,36.6,30.10,NW,318,3.5,3.5,27,0.00,,,0.00,664.04,VWS V14.01,2013-08-04 21:02:00,
2013-08-04 17:03:00,71.7,32.6,30.10,NNW,339,5.6,7.1,24,0.00,,,0.00,775.03,VWS V14.01,2013-08-04 21:03:00,
2013-08-04 17:04:00,73.8,38.4,30.11,West,270,3.2,5.7,28,0.00,,,0.00,664.04,VWS V14.01,2013-08-04 21:04:00,
2013-08-04 17:05:00,72.1,36.0,30.09,NNE,23,3.2,4.0,27,0.00,,,0.00,659.52,VWS V14.01,2013-08-04 21:05:00,
2013-08-04 17:06:00,70.5,34.9,30.10,NW,313,9.5,9.5,27,0.00,,,0.00,214.71,VWS V14.01,2013-08-04 21:06:00,
2013-08-04 17:07:00,71.8,32.4,30.09,NNE,30,5.9,5.9,23,0.00,,,0.00,615.45,VWS V14.01,2013-08-04 21:07:00,
2013-08-04 17:08:00,71.8,32.4,30.09,NNE,30,5.9,5.9,23,0.00,,,0.00,615.45,VWS V14.01,2013-08-04 21:08:00,
2013-08-04 17:09:00,71.4,38.8,30.09,NNW,332,1.1,1.1,31,0.00,,,0.00,217.15,VWS V14.01,2013-08-04 21:09:00,
2013-08-04 17:10:00,72.3,32.9,30.09,NNE,25,4.5,4.5,23,0.00,,,0.00,611.29,VWS V14.01,2013-08-04 21:10:00,
2013-08-04 17:11:00,72.6,34.3,30.08,North,3,3.7,4.5,25,0.00,,,0.00,196.09,VWS V14.01,2013-08-04 21:11:00,
2013-08-04 17:12:00,71.7,38.9,30.09,WNW,301,0.0,4.2,30,0.00,,,0.00,423.20,VWS V14.01,2013-08-04 21:12:00,
2013-08-04 17:13:00,70.3,36.5,30.09,North,11,4.7,4.7,29,0.00,,,0.00,185.41,VWS V14.01,2013-08-04 21:13:00,
2013-08-04 17:14:00,72.7,33.4,30.09,NNE,31,5.1,5.4,24,0.00,,,0.00,624.97,VWS V14.01,2013-08-04 21:14:00,
2013-08-04 17:15:00,72.8,34.0,30.09,NNE,31,4.5,5.6,24,0.00,,,0.00,599.33,VWS V14.01,2013-08-04 21:15:00,
2013-08-04 17:16:00,70.9,40.3,30.10,NW,316,0.0,4.2,33,0.00,,,0.00,754.40,VWS V14.01,2013-08-04 21:16:00,
2013-08-04 17:17:00,72.4,34.8,30.08,NNE,33,4.5,6.1,25,0.00,,,0.00,617.64,VWS V14.01,2013-08-04 21:17:00,
2013-08-04 17:18:00,75.7,41.8,30.10,NE,45,0.0,3.2,30,0.00,,,0.00,734.62,VWS V14.01,2013-08-04 21:18:00,
2013-08-04 17:20:00,71.0,34.6,30.09,NE,40,4.0,4.9,26,0.00,,,0.00,137.91,VWS V14.01,2013-08-04 21:20:00,
2013-08-04 17:21:00,70.3,34.8,30.08,NE,48,3.9,4.0,27,0.00,,,0.00,134.07,VWS V14.01,2013-08-04 21:21:00,
2013-08-04 17:22:00,70.0,34.0,30.09,NE,51,5.9,5.9,26,0.00,,,0.00,141.21,VWS V14.01,2013-08-04 21:22:00,
2013-08-04 17:23:00,73.0,41.7,30.10,NW,319,5.2,5.2,32,0.00,,,0.00,757.08,VWS V14.01,2013-08-04 21:23:00,
2013-08-04 17:24:00,71.7,33.4,30.08,NE,48,6.1,6.1,24,0.00,,,0.00,592.00,VWS V14.01,2013-08-04 21:24:00,
2013-08-04 17:25:00,73.2,34.3,30.09,NNE,30,5.9,5.9,24,0.00,,,0.00,771.49,VWS V14.01,2013-08-04 21:25:00,
2013-08-04 17:26:00,72.8,37.5,30.09,NE,47,1.8,3.2,28,0.00,,,0.00,505.31,VWS V14.01,2013-08-04 21:26:00,
2013-08-04 17:27:00,73.7,36.5,30.09,North,0,4.9,4.9,26,0.00,,,0.00,757.45,VWS V14.01,2013-08-04 21:27:00,
2013-08-04 17:28:00,73.2,35.9,30.08,NNE,29,3.0,4.5,26,0.00,,,0.00,549.51,VWS V14.01,2013-08-04 21:28:00,
2013-08-04 17:29:00,71.2,32.8,30.09,NW,311,5.9,7.6,24,0.00,,,0.00,219.60,VWS V14.01,2013-08-04 21:29:00,
2013-08-04 17:30:00,73.8,36.9,30.09,North,360,2.5,3.0,26,0.00,,,0.00,535.10,VWS V14.01,2013-08-04 21:30:00,
2013-08-04 17:31:00,71.5,33.8,30.09,NNE,18,5.4,7.8,25,0.00,,,0.00,639.62,VWS V14.01,2013-08-04 21:31:00,
2013-08-04 17:32:00,71.9,35.1,30.09,NNW,329,1.3,3.5,26,0.00,,,0.00,132.54,VWS V14.01,2013-08-04 21:32:00,
2013-08-04 17:33:00,70.6,34.3,30.09,NE,56,4.4,7.8,26,0.00,,,0.00,157.08,VWS V14.01,2013-08-04 21:33:00,
2013-08-04 17:34:00,70.6,31.2,30.09,NNE,26,6.1,6.1,23,0.00,,,0.00,706.78,VWS V14.01,2013-08-04 21:34:00,
2013-08-04 17:35:00,70.9,35.2,30.08,NE,35,5.1,5.1,27,0.00,,,0.00,141.45,VWS V14.01,2013-08-04 21:35:00,
2013-08-04 17:36:00,71.8,33.5,30.10,North,4,6.8,6.8,24,0.00,,,0.00,663.80,VWS V14.01,2013-08-04 21:36:00,
2013-08-04 17:37:00,73.5,33.9,30.09,NW,323,5.1,5.1,23,0.00,,,0.00,524.30,VWS V14.01,2013-08-04 21:37:00,
2013-08-04 17:38:00,73.5,33.9,30.09,NW,323,5.1,5.1,23,0.00,,,0.00,524.30,VWS V14.01,2013-08-04 21:38:00,
2013-08-04 17:39:00,71.8,33.2,30.08,NW,317,4.9,6.6,24,0.00,,,0.00,519.23,VWS V14.01,2013-08-04 21:39:00,
2013-08-04 17:40:00,71.8,34.0,30.10,NE,39,3.4,4.4,25,0.00,,,0.00,119.47,VWS V14.01,2013-08-04 21:40:00,
2013-08-04 17:41:00,72.6,36.2,30.11,NE,39,3.0,3.7,26,0.00,,,0.00,512.15,VWS V14.01,2013-08-04 21:41:00,
2013-08-04 17:42:00,71.7,33.3,30.09,North,1,4.0,4.4,24,0.00,,,0.00,653.30,VWS V14.01,2013-08-04 21:42:00,
2013-08-04 17:43:00,71.6,28.3,30.08,NW,306,5.2,5.2,20,0.00,,,0.00,510.32,VWS V14.01,2013-08-04 21:43:00,
2013-08-04 17:44:00,72.4,34.4,30.10,NE,40,5.4,6.3,25,0.00,,,0.00,656.47,VWS V14.01,2013-08-04 21:44:00,
2013-08-04 17:45:00,71.7,30.6,30.08,NW,316,7.1,7.1,22,0.00,,,0.00,498.23,VWS V14.01,2013-08-04 21:45:00,
2013-08-04 17:46:00,71.9,33.6,30.09,NNW,340,6.4,7.1,24,0.00,,,0.00,499.94,VWS V14.01,2013-08-04 21:46:00,
2013-08-04 17:47:00,72.7,34.4,30.09,NNE,31,4.0,7.1,25,0.00,,,0.00,618.50,VWS V14.01,2013-08-04 21:47:00,
2013-08-04 17:48:00,72.4,32.1,30.09,NNW,333,4.0,4.0,23,0.00,,,0.00,446.70,VWS V14.01,2013-08-04 21:48:00,
2013-08-04 17:49:00,72.9,34.9,30.09,NW,317,1.3,2.7,25,0.00,,,0.00,467.77,VWS V14.01,2013-08-04 21:49:00,
2013-08-04 17:50:00,72.9,29.9,30.09,NNW,329,3.2,3.2,20,0.00,,,0.00,366.12,VWS V14.01,2013-08-04 21:50:00,
2013-08-04 17:51:00,71.1,32.3,30.08,NW,325,5.4,6.8,24,0.00,,,0.00,184.92,VWS V14.01,2013-08-04 21:51:00,
2013-08-04 17:52:00,71.8,31.9,30.09,NW,324,6.3,6.3,23,0.00,,,0.00,497.99,VWS V14.01,2013-08-04 21:52:00,
2013-08-04 17:53:00,71.6,32.2,30.09,NW,312,7.5,7.5,23,0.00,,,0.00,419.60,VWS V14.01,2013-08-04 21:53:00,
2013-08-04 17:54:00,71.7,31.7,30.09,WNW,299,6.6,8.1,23,0.00,,,0.00,471.12,VWS V14.01,2013-08-04 21:54:00,
2013-08-04 17:55:00,70.7,35.8,30.09,NW,312,3.2,3.4,28,0.00,,,0.00,705.56,VWS V14.01,2013-08-04 21:55:00,
2013-08-04 17:56:00,71.4,27.5,30.09,NW,319,7.6,8.1,19,0.00,,,0.00,468.13,VWS V14.01,2013-08-04 21:56:00,
2013-08-04 17:57:00,72.9,35.3,30.09,NW,306,2.7,7.1,25,0.00,,,0.00,457.69,VWS V14.01,2013-08-04 21:57:00,
2013-08-04 17:58:00,71.7,35.8,30.08,WNW,283,4.9,8.3,27,0.00,,,0.00,668.62,VWS V14.01,2013-08-04 21:58:00,
2013-08-04 17:59:00,73.2,35.7,30.09,North,11,1.0,2.7,25,0.00,,,0.00,449.45,VWS V14.01,2013-08-04 21:59:00,
2013-08-04 18:00:00,72.3,37.0,30.09,East,93,2.3,5.1,28,0.00,,,0.00,224.48,VWS V14.01,2013-08-04 22:00:00,
2013-08-04 18:01:00,71.8,34.8,30.08,NW,310,4.5,4.5,26,0.00,,,0.00,399.08,VWS V14.01,2013-08-04 22:01:00,
2013-08-04 18:02:00,72.6,33.9,30.08,NNW,331,3.2,5.1,24,0.00,,,0.00,380.46,VWS V14.01,2013-08-04 22:02:00,
2013-08-04 18:03:00,72.5,34.0,30.08,NNW,336,4.5,5.1,24,0.00,,,0.00,430.22,VWS V14.01,2013-08-04 22:03:00,
2013-08-04 18:05:00,72.3,33.4,30.09,NE,46,3.7,6.9,24,0.00,,,0.00,446.22,VWS V14.01,2013-08-04 22:05:00,
2013-08-04 18:06:00,71.8,32.8,30.09,NNE,17,5.9,6.9,24,0.00,,,0.00,444.87,VWS V14.01,2013-08-04 22:06:00,
2013-08-04 18:07:00,71.7,33.1,30.09,NE,42,4.2,5.1,24,0.00,,,0.00,163.31,VWS V14.01,2013-08-04 22:07:00,
2013-08-04 18:08:00,73.0,35.2,30.08,NE,50,2.5,6.9,25,0.00,,,0.00,497.99,VWS V14.01,2013-08-04 22:08:00,
2013-08-04 18:09:00,72.1,35.3,30.08,NNW,331,3.5,5.9,26,0.00,,,0.00,611.97,VWS V14.01,2013-08-04 22:09:00,
2013-08-04 18:10:00,72.7,33.1,30.08,NNE,32,6.4,6.9,23,0.00,,,0.00,371.49,VWS V14.01,2013-08-04 22:10:00,
2013-08-04 18:11:00,71.4,30.2,30.08,NNE,20,6.6,6.9,22,0.00,,,0.00,345.36,VWS V14.01,2013-08-04 22:11:00,
2013-08-04 18:12:00,72.5,33.8,30.08,NNE,25,4.0,4.5,24,0.00,,,0.00,617.77,VWS V14.01,2013-08-04 22:12:00,
2013-08-04 18:13:00,71.7,31.4,30.08,NE,45,3.9,6.9,22,0.00,,,0.00,164.41,VWS V14.01,2013-08-04 22:13:00,
2013-08-04 18:14:00,72.0,32.4,30.08,North,8,2.8,6.9,23,0.00,,,0.00,319.48,VWS V14.01,2013-08-04 22:14:00,
2013-08-04 18:15:00,72.7,33.4,30.09,NNE,31,5.1,5.4,24,0.00,,,0.00,624.97,VWS V14.01,2013-08-04 22:15:00,
2013-08-04 18:16:00,71.7,32.5,30.08,ENE,73,5.6,6.9,24,0.00,,,0.00,375.89,VWS V14.01,2013-08-04 22:16:00,
2013-08-04 18:17:00,72.3,33.0,30.09,NE,54,3.2,6.9,23,0.00,,,0.00,407.63,VWS V14.01,2013-08-04 22:17:00,
2013-08-04 18:18:00,71.7,32.5,30.08,NE,45,4.0,6.9,24,0.00,,,0.00,419.84,VWS V14.01,2013-08-04 22:18:00,
2013-08-04 18:19:00,71.7,32.2,30.08,NE,42,5.7,6.9,23,0.00,,,0.00,424.73,VWS V14.01,2013-08-04 22:19:00,
2013-08-04 18:20:00,71.7,35.2,30.09,NNW,329,4.9,4.9,26,0.00,,,0.00,630.53,VWS V14.01,2013-08-04 22:20:00,
2013-08-04 18:21:00,71.0,34.6,30.09,NE,40,4.0,4.9,26,0.00,,,0.00,137.91,VWS V14.01,2013-08-04 22:21:00,
2013-08-04 18:22:00,72.8,31.8,30.08,NNE,17,3.9,6.9,22,0.00,,,0.00,427.17,VWS V14.01,2013-08-04 22:22:00,
2013-08-04 18:23:00,72.8,31.8,30.08,NNE,17,3.9,6.9,22,0.00,,,0.00,427.17,VWS V14.01,2013-08-04 22:23:00,
2013-08-04 18:24:00,72.4,30.3,30.09,North,2,3.9,6.9,21,0.00,,,0.00,403.36,VWS V14.01,2013-08-04 22:24:00,
2013-08-04 18:25:00,71.7,33.4,30.08,NE,48,6.1,6.1,24,0.00,,,0.00,592.00,VWS V14.01,2013-08-04 22:25:00,
2013-08-04 18:26:00,74.9,38.1,30.08,NNE,23,0.0,6.9,26,0.00,,,0.00,388.10,VWS V14.01,2013-08-04 22:26:00,
2013-08-04 18:27:00,73.0,38.0,30.09,NE,46,5.9,5.9,28,0.00,,,0.00,556.90,VWS V14.01,2013-08-04 22:27:00,
2013-08-04 18:28:00,73.0,35.5,30.08,NNW,344,4.2,5.9,25,0.00,,,0.00,547.31,VWS V14.01,2013-08-04 22:28:00,
2013-08-04 18:29:00,73.2,36.9,30.09,NNW,329,1.0,6.9,27,0.00,,,0.00,371.49,VWS V14.01,2013-08-04 22:29:00,
2013-08-04 18:30:00,72.7,33.3,30.08,NNE,26,5.2,6.9,23,0.00,,,0.00,347.80,VWS V14.01,2013-08-04 22:30:00,
2013-08-04 18:31:00,73.8,36.9,30.09,North,360,2.5,3.0,26,0.00,,,0.00,535.10,VWS V14.01,2013-08-04 22:31:00,
2013-08-04 18:32:00,72.4,34.8,30.09,North,4,3.5,4.5,25,0.00,,,0.00,186.63,VWS V14.01,2013-08-04 22:32:00,
2013-08-04 18:33:00,71.1,33.5,30.08,WNW,287,0.0,3.5,25,0.00,,,0.00,104.52,VWS V14.01,2013-08-04 22:33:00,
2013-08-04 18:34:00,70.1,36.6,30.08,NW,314,2.5,2.5,29,0.00,,,0.00,90.17,VWS V14.01,2013-08-04 22:34:00,
2013-08-04 18:35:00,74.5,35.5,30.09,NW,323,4.0,6.9,24,0.00,,,0.00,303.24,VWS V14.01,2013-08-04 22:35:00,
2013-08-04 18:36:00,73.6,33.4,30.09,NW,307,3.7,6.9,23,0.00,,,0.00,283.94,VWS V14.01,2013-08-04 22:36:00,
2013-08-04 18:37:00,72.1,33.3,30.08,NNE,25,4.9,7.5,24,0.00,,,0.00,529.73,VWS V14.01,2013-08-04 22:37:00,
2013-08-04 18:38:00,71.7,30.5,30.09,NNE,26,3.7,6.9,22,0.00,,,0.00,80.89,VWS V14.01,2013-08-04 22:38:00,
2013-08-04 18:39:00,71.7,32.9,30.10,WNW,297,6.6,6.6,24,0.00,,,0.00,520.94,VWS V14.01,2013-08-04 22:39:00,
2013-08-04 18:40:00,70.2,30.9,30.09,NW,305,2.3,6.9,23,0.00,,,0.00,74.79,VWS V14.01,2013-08-04 22:40:00,
2013-08-04 18:41:00,72.8,36.3,30.09,NNE,12,0.0,6.9,26,0.00,,,0.00,272.10,VWS V14.01,2013-08-04 22:41:00,
2013-08-04 18:42:00,72.9,34.5,30.09,NNW,336,5.7,5.7,24,0.00,,,0.00,512.15,VWS V14.01,2013-08-04 22:42:00,
2013-08-04 18:43:00,73.4,34.7,30.09,NNE,29,2.5,6.9,24,0.00,,,0.00,325.09,VWS V14.01,2013-08-04 22:43:00,
2013-08-04 18:44:00,71.6,28.3,30.08,NW,306,5.2,5.2,20,0.00,,,0.00,510.32,VWS V14.01,2013-08-04 22:44:00,
2013-08-04 18:45:00,75.8,36.4,30.09,NNW,345,1.1,6.9,24,0.00,,,0.00,324.30,VWS V14.01,2013-08-04 22:45:00,
2013-08-04 18:46:00,75.5,37.7,30.09,NE,35,3.0,6.9,25,0.00,,,0.00,299.57,VWS V14.01,2013-08-04 22:46:00,
2013-08-04 18:47:00,74.0,34.2,30.09,NNW,336,3.7,6.9,23,0.00,,,0.00,310.26,VWS V14.01,2013-08-04 22:47:00,
2013-08-04 18:48:00,72.2,35.0,30.09,NNW,329,3.2,6.9,26,0.00,,,0.00,258.67,VWS V14.01,2013-08-04 22:48:00,
2013-08-04 18:49:00,71.6,35.3,30.08,ENE,70,2.7,6.9,26,0.00,,,0.00,166.91,VWS V14.01,2013-08-04 22:49:00,
2013-08-04 18:50:00,72.9,34.9,30.09,NW,317,1.3,2.7,25,0.00,,,0.00,467.77,VWS V14.01,2013-08-04 22:50:00,
2013-08-04 18:51:00,72.9,29.9,30.09,NNW,329,3.2,3.2,20,0.00,,,0.00,366.12,VWS V14.01,2013-08-04 22:51:00,
2013-08-04 18:52:00,76.0,39.5,30.09,NE,44,0.0,6.9,27,0.00,,,0.00,253.72,VWS V14.01,2013-08-04 22:52:00,
2013-08-04 18:53:00,71.6,35.9,30.09,NE,41,2.7,6.9,27,0.00,,,0.00,148.53,VWS V14.01,2013-08-04 22:53:00,
2013-08-04 18:54:00,71.6,32.2,30.09,NW,312,7.5,7.5,23,0.00,,,0.00,419.60,VWS V14.01,2013-08-04 22:54:00,
2013-08-04 18:55:00,70.2,35.3,30.09,NNE,12,1.1,6.9,28,0.00,,,0.00,67.58,VWS V14.01,2013-08-04 22:55:00,
2013-08-04 18:56:00,71.4,27.5,30.09,NW,319,7.6,8.1,19,0.00,,,0.00,468.13,VWS V14.01,2013-08-04 22:56:00,
2013-08-04 18:57:00,70.6,37.3,30.08,WNW,290,0.0,6.9,30,0.00,,,0.00,84.98,VWS V14.01,2013-08-04 22:57:00,
2013-08-04 18:58:00,72.9,35.3,30.09,NW,306,2.7,7.1,25,0.00,,,0.00,457.69,VWS V14.01,2013-08-04 22:58:00,
2013-08-04 18:59:00,69.6,37.0,30.08,WNW,290,0.0,6.9,30,0.00,,,0.00,82.11,VWS V14.01,2013-08-04 22:59:00,
2013-08-04 19:00:00,72.4,33.1,30.08,NW,309,3.4,3.4,24,0.00,,,0.00,441.82,VWS V14.01,2013-08-04 23:00:00,
2013-08-04 19:01:00,69.4,37.9,30.11,WNW,297,1.6,6.9,31,0.00,,,0.00,161.48,VWS V14.01,2013-08-04 23:01:00,
2013-08-04 19:02:00,71.1,38.0,30.09,WNW,297,0.0,1.6,30,0.00,,,0.00,229.98,VWS V14.01,2013-08-04 23:02:00,
2013-08-04 19:03:00,71.1,38.0,30.09,WNW,297,0.0,1.6,30,0.00,,,0.00,229.98,VWS V14.01,2013-08-04 23:03:00,
2013-08-04 19:04:00,72.2,38.0,30.11,NE,45,2.7,2.7,29,0.00,,,0.00,275.46,VWS V14.01,2013-08-04 23:04:00,
2013-08-04 19:05:00,73.5,39.4,30.10,WNW,292,0.0,2.7,29,0.00,,,0.00,278.88,VWS V14.01,2013-08-04 23:05:00,
2013-08-04 19:06:00,74.5,38.2,30.09,North,7,0.0,0.0,27,0.00,,,0.00,192.80,VWS V14.01,2013-08-04 23:06:00,
2013-08-04 19:07:00,71.8,35.5,30.08,North,8,0.0,0.0,26,0.00,,,0.00,80.40,VWS V14.01,2013-08-04 23:07:00,
2013-08-04 19:08:00,70.6,34.2,30.08,North,351,1.0,1.0,26,0.00,,,0.00,80.65,VWS V14.01,2013-08-04 23:08:00,
2013-08-04 19:09:00,70.0,34.6,30.09,NE,39,2.3,2.3,27,0.00,,,0.00,77.96,VWS V14.01,2013-08-04 23:09:00,
2013-08-04 19:10:00,70.1,35.3,30.09,North,6,0.0,2.3,28,0.00,,,0.00,77.96,VWS V14.01,2013-08-04 23:10:00,
2013-08-04 19:11:00,69.7,35.9,30.09,NNW,343,1.1,1.3,29,0.00,,,0.00,92.61,VWS V14.01,2013-08-04 23:11:00,
2013-08-04 19:12:00,72.9,39.2,30.09,NW,311,0.0,1.5,29,0.00,,,0.00,270.88,VWS V14.01,2013-08-04 23:12:00,
2013-08-04 19:13:00,74.1,37.9,30.09,NNW,327,1.8,1.8,27,0.00,,,0.00,246.15,VWS V14.01,2013-08-04 23:13:00,
2013-08-04 19:14:00,74.0,36.1,30.10,NNW,348,2.7,2.7,25,0.00,,,0.00,244.02,VWS V14.01,2013-08-04 23:14:00,
2013-08-04 19:15:00,72.7,36.4,30.09,North,11,3.2,3.2,27,0.00,,,0.00,164.04,VWS V14.01,2013-08-04 23:15:00,
2013-08-04 19:16:00,76.4,41.3,30.09,NNE,20,0.0,1.1,28,0.00,,,0.00,236.69,VWS V14.01,2013-08-04 23:16:00,
2013-08-04 19:17:00,76.4,41.3,30.09,NNE,20,0.0,1.1,28,0.00,,,0.00,236.69,VWS V14.01,2013-08-04 23:17:00,
2013-08-04 19:18:00,74.5,36.4,30.09,NNW,346,1.1,1.3,25,0.00,,,0.00,241.57,VWS V14.01,2013-08-04 23:18:00,
2013-08-04 19:19:00,72.7,36.4,30.08,West,279,1.6,2.8,27,0.00,,,0.00,242.49,VWS V14.01,2013-08-04 23:19:00,
2013-08-04 19:20:00,71.8,36.2,30.09,WNW,299,2.3,2.3,27,0.00,,,0.00,241.58,VWS V14.01,2013-08-04 23:20:00,
2013-08-04 19:21:00,73.5,40.2,30.10,NNW,336,3.2,3.2,30,0.00,,,0.00,242.19,VWS V14.01,2013-08-04 23:21:00,
2013-08-04 19:22:00,73.8,37.9,30.10,North,8,0.0,3.2,27,0.00,,,0.00,238.64,VWS V14.01,2013-08-04 23:22:00,
2013-08-04 19:23:00,74.6,38.3,30.10,NNW,331,2.5,2.5,27,0.00,,,0.00,234.25,VWS V14.01,2013-08-04 23:23:00,
2013-08-04 19:24:00,76.3,39.8,30.10,North,10,1.1,3.0,27,0.00,,,0.00,230.34,VWS V14.01,2013-08-04 23:24:00,
2013-08-04 19:25:00,74.5,39.6,30.10,NE,34,0.0,3.0,28,0.00,,,0.00,220.82,VWS V14.01,2013-08-04 23:25:00,
2013-08-04 19:26:00,73.3,35.1,30.10,NW,323,2.3,4.5,25,0.00,,,0.00,181.14,VWS V14.01,2013-08-04 23:26:00,
2013-08-04 19:27:00,74.0,37.0,30.10,NW,325,2.3,2.3,26,0.00,,,0.00,204.64,VWS V14.01,2013-08-04 23:27:00,
2013-08-04 19:28:00,72.9,35.5,30.10,NW,313,1.0,2.3,25,0.00,,,0.00,187.85,VWS V14.01,2013-08-04 23:28:00,
2013-08-04 19:29:00,74.2,36.8,30.10,NW,323,2.5,2.5,26,0.00,,,0.00,198.23,VWS V14.01,2013-08-04 23:29:00,
2013-08-04 19:30:00,73.2,36.1,30.09,NNW,327,3.7,4.0,26,0.00,,,0.00,185.65,VWS V14.01,2013-08-04 23:30:00,
2013-08-04 19:31:00,72.8,37.0,30.09,NW,325,4.0,4.0,27,0.00,,,0.00,146.58,VWS V14.01,2013-08-04 23:31:00,
2013-08-04 19:32:00,71.4,37.9,30.09,North,11,0.0,4.0,29,0.00,,,0.00,80.89,VWS V14.01,2013-08-04 23:32:00,
2013-08-04 19:33:00,69.8,36.1,30.10,North,11,3.5,3.7,29,0.00,,,0.00,51.10,VWS V14.01,2013-08-04 23:33:00,
2013-08-04 19:34:00,69.8,36.5,30.10,North,8,1.8,3.5,29,0.00,,,0.00,46.95,VWS V14.01,2013-08-04 23:34:00,
2013-08-04 19:35:00,69.6,34.0,30.10,NW,322,1.6,3.5,27,0.00,,,0.00,46.95,VWS V14.01,2013-08-04 23:35:00,
2013-08-04 19:36:00,69.7,36.6,30.10,NNW,344,0.0,1.0,30,0.00,,,0.00,49.33,VWS V14.01,2013-08-04 23:36:00,
2013-08-04 19:37:00,69.2,36.6,30.10,NNW,344,0.0,0.0,30,0.00,,,0.00,48.66,VWS V14.01,2013-08-04 23:37:00,
2013-08-04 19:38:00,70.3,36.3,30.10,NNW,336,2.5,2.5,29,0.00,,,0.00,72.83,VWS V14.01,2013-08-04 23:38:00,
2013-08-04 19:39:00,69.4,35.4,30.09,WNW,295,0.0,2.5,29,0.00,,,0.00,52.93,VWS V14.01,2013-08-04 23:39:00,
2013-08-04 19:40:00,69.9,35.5,30.08,NW,304,0.0,0.0,28,0.00,,,0.00,52.99,VWS V14.01,2013-08-04 23:40:00,
2013-08-04 19:41:00,68.8,34.7,30.09,NW,312,1.5,1.5,28,0.00,,,0.00,51.10,VWS V14.01,2013-08-04 23:41:00,
2013-08-04 19:42:00,72.8,37.9,30.09,NNW,346,1.3,3.4,28,0.00,,,0.00,156.11,VWS V14.01,2013-08-04 23:42:00,
2013-08-04 19:43:00,72.2,37.3,30.09,NE,40,1.5,1.5,28,0.00,,,0.00,149.39,VWS V14.01,2013-08-04 23:43:00,
2013-08-04 19:44:00,72.4,36.2,30.10,NNE,18,2.3,2.3,27,0.00,,,0.00,148.17,VWS V14.01,2013-08-04 23:44:00,
2013-08-04 19:45:00,74.2,39.8,30.10,NNE,22,1.1,2.3,29,0.00,,,0.00,146.34,VWS V14.01,2013-08-04 23:45:00,
2013-08-04 19:46:00,74.3,38.2,30.10,North,8,0.0,2.3,27,0.00,,,0.00,146.89,VWS V14.01,2013-08-04 23:46:00,
2013-08-04 19:47:00,71.5,36.5,30.10,NW,325,0.0,2.2,28,0.00,,,0.00,145.85,VWS V14.01,2013-08-04 23:47:00,
2013-08-04 19:48:00,71.9,38.1,30.09,NW,325,1.8,1.8,29,0.00,,,0.00,143.59,VWS V14.01,2013-08-04 23:48:00,
2013-08-04 19:49:00,72.9,38.8,30.09,NW,325,0.0,1.8,29,0.00,,,0.00,140.48,VWS V14.01,2013-08-04 23:49:00,
2013-08-04 19:50:00,72.4,38.2,30.09,NW,325,0.0,0.0,29,0.00,,,0.00,139.01,VWS V14.01,2013-08-04 23:50:00,
2013-08-04 19:51:00,72.1,38.2,30.08,NW,325,0.0,0.0,29,0.00,,,0.00,105.31,VWS V14.01,2013-08-04 23:51:00,
2013-08-04 19:52:00,72.1,38.2,30.08,NW,325,0.0,0.0,29,0.00,,,0.00,105.31,VWS V14.01,2013-08-04 23:52:00,
2013-08-04 19:53:00,69.9,36.7,30.08,NW,325,0.0,0.0,30,0.00,,,0.00,75.21,VWS V14.01,2013-08-04 23:53:00,
2013-08-04 19:54:00,69.6,36.8,30.10,NW,322,0.0,0.0,30,0.00,,,0.00,78.21,VWS V14.01,2013-08-04 23:54:00,
2013-08-04 19:55:00,69.4,36.4,30.09,NW,322,2.0,2.0,30,0.00,,,0.00,73.57,VWS V14.01,2013-08-04 23:55:00,
2013-08-04 19:56:00,68.9,37.7,30.09,NW,322,1.5,2.0,32,0.00,,,0.00,60.32,VWS V14.01,2013-08-04 23:56:00,
2013-08-04 19:57:00,68.0,39.0,30.10,NW,318,1.8,2.3,35,0.00,,,0.00,41.03,VWS V14.01,2013-08-04 23:57:00,
2013-08-04 19:58:00,68.2,36.8,30.09,NW,318,0.0,1.3,31,0.00,,,0.00,36.63,VWS V14.01,2013-08-04 23:58:00,
2013-08-04 19:59:00,68.4,38.4,30.09,NW,318,0.0,1.3,33,0.00,,,0.00,34.19,VWS V14.01,2013-08-04 23:59:00,
2013-08-04 20:00:00,68.0,39.9,30.10,NW,318,0.0,0.0,36,0.00,,,0.00,33.76,VWS V14.01,2013-08-05 00:00:00,
2013-08-04 20:02:00,68.3,38.7,30.09,NW,318,0.0,0.0,34,0.00,,,0.00,31.56,VWS V14.01,2013-08-05 00:02:00,
2013-08-04 20:03:00,68.4,38.3,30.10,NW,320,0.0,1.6,33,0.00,,,0.00,31.07,VWS V14.01,2013-08-05 00:03:00,
2013-08-04 20:04:00,66.6,39.5,30.10,NW,320,0.0,0.0,37,0.00,,,0.00,30.53,VWS V14.01,2013-08-05 00:04:00,
2013-08-04 20:05:00,68.5,37.9,30.10,NW,321,3.2,3.2,33,0.00,,,0.00,29.73,VWS V14.01,2013-08-05 00:05:00,
2013-08-04 20:06:00,68.1,38.3,30.10,NW,320,1.0,1.3,33,0.00,,,0.00,29.12,VWS V14.01,2013-08-05 00:06:00,
2013-08-04 20:08:00,67.9,38.3,30.10,NW,323,2.2,2.3,34,0.00,,,0.00,27.66,VWS V14.01,2013-08-05 00:08:00,
2013-08-04 20:11:00,67.8,38.4,30.10,NW,325,3.2,3.2,34,0.00,,,0.00,26.19,VWS V14.01,2013-08-05 00:11:00,
2013-08-04 20:13:00,67.8,38.5,30.10,NW,326,1.5,1.5,34,0.00,,,0.00,24.73,VWS V14.01,2013-08-05 00:13:00,
2013-08-04 20:14:00,67.7,38.6,30.10,WNW,298,2.3,2.3,34,0.00,,,0.00,24.24,VWS V14.01,2013-08-05 00:14:00,
2013-08-04 20:17:00,67.6,38.6,30.10,NW,326,0.0,0.0,35,0.00,,,0.00,24.24,VWS V14.01,2013-08-05 00:17:00,
2013-08-04 20:18:00,67.7,38.8,30.10,NW,326,2.2,2.2,35,0.00,,,0.00,24.24,VWS V14.01,2013-08-05 00:18:00,
2013-08-04 20:19:00,66.8,39.2,30.10,NW,326,0.0,0.0,36,0.00,,,0.00,23.02,VWS V14.01,2013-08-05 00:19:00,
2013-08-04 20:23:00,65.4,42.1,30.10,NW,326,0.0,0.0,43,0.00,,,0.00,19.35,VWS V14.01,2013-08-05 00:23:00,
2013-08-04 20:24:00,65.4,43.2,30.10,NW,326,0.0,0.0,44,0.00,,,0.00,19.35,VWS V14.01,2013-08-05 00:24:00,
2013-08-04 20:25:00,65.6,42.4,30.09,NW,326,0.0,0.0,43,0.00,,,0.00,16.91,VWS V14.01,2013-08-05 00:25:00,
2013-08-04 20:27:00,65.2,43.3,30.09,NW,326,0.0,0.0,45,0.00,,,0.00,16.91,VWS V14.01,2013-08-05 00:27:00,
2013-08-04 20:29:00,65.2,41.2,30.09,NNW,327,0.0,0.0,41,0.00,,,0.00,18.07,VWS V14.01,2013-08-05 00:29:00,
2013-08-04 20:30:00,65.9,42.3,30.10,North,10,0.0,0.0,42,0.00,,,0.00,16.42,VWS V14.01,2013-08-05 00:30:00,
2013-08-04 20:31:00,65.9,42.3,30.10,North,10,0.0,0.0,42,0.00,,,0.00,16.42,VWS V14.01,2013-08-05 00:31:00,
2013-08-04 20:33:00,66.6,41.9,30.10,North,10,0.0,0.0,40,0.00,,,0.00,10.81,VWS V14.01,2013-08-05 00:33:00,
2013-08-04 20:36:00,66.3,42.0,30.09,North,10,0.0,0.0,41,0.00,,,0.00,10.01,VWS V14.01,2013-08-05 00:36:00,
2013-08-04 20:37:00,65.7,41.6,30.09,North,10,0.0,0.0,41,0.00,,,0.00,9.58,VWS V14.01,2013-08-05 00:37:00,
2013-08-04 20:38:00,65.9,41.6,30.09,North,10,0.0,0.0,41,0.00,,,0.00,7.14,VWS V14.01,2013-08-05 00:38:00,
2013-08-04 20:40:00,65.5,42.3,30.09,North,10,0.0,0.0,43,0.00,,,0.00,7.14,VWS V14.01,2013-08-05 00:40:00,
2013-08-04 20:42:00,65.3,42.3,30.10,North,10,0.0,0.0,43,0.00,,,0.00,7.14,VWS V14.01,2013-08-05 00:42:00,
2013-08-04 20:43:00,65.7,42.6,30.09,North,10,0.0,0.0,43,0.00,,,0.00,6.84,VWS V14.01,2013-08-05 00:43:00,
2013-08-04 20:45:00,66.0,41.9,30.10,North,10,0.0,0.0,41,0.00,,,0.00,7.14,VWS V14.01,2013-08-05 00:45:00,
2013-08-04 20:46:00,66.2,41.5,30.09,North,10,0.0,0.0,41,0.00,,,0.00,5.68,VWS V14.01,2013-08-05 00:46:00,
2013-08-04 20:47:00,65.8,41.4,30.12,North,10,0.0,0.0,41,0.00,,,0.00,6.84,VWS V14.01,2013-08-05 00:47:00,
2013-08-04 20:48:00,64.6,44.5,30.09,North,10,0.0,0.0,48,0.00,,,0.00,3.79,VWS V14.01,2013-08-05 00:48:00,
2013-08-04 20:51:00,63.6,47.0,30.08,North,10,0.0,0.0,55,0.00,,,0.00,4.70,VWS V14.01,2013-08-05 00:51:00,
2013-08-04 20:52:00,63.4,47.5,30.08,North,10,0.0,0.0,56,0.00,,,0.00,4.58,VWS V14.01,2013-08-05 00:52:00,
2013-08-04 20:53:00,64.1,46.8,30.08,North,10,0.0,0.0,53,0.00,,,0.00,2.87,VWS V14.01,2013-08-05 00:53:00,
2013-08-04 20:54:00,64.9,44.7,30.08,North,10,0.0,0.0,48,0.00,,,0.00,3.24,VWS V14.01,2013-08-05 00:54:00,
2013-08-04 20:56:00,64.7,44.5,30.10,North,10,0.0,0.0,48,0.00,,,0.00,2.26,VWS V14.01,2013-08-05 00:56:00,
2013-08-04 20:58:00,63.6,44.9,30.09,North,10,0.0,0.0,51,0.00,,,0.00,1.89,VWS V14.01,2013-08-05 00:58:00,
2013-08-04 20:59:00,63.6,44.2,30.09,North,10,0.0,0.0,49,0.00,,,0.00,0.31,VWS V14.01,2013-08-05 00:59:00,
2013-08-04 21:00:00,63.8,44.4,30.09,North,10,0.0,0.0,49,0.00,,,0.00,0.00,VWS V14.01,2013-08-05 01:00:00,
2013-08-04 21:02:00,63.5,44.4,30.09,North,10,0.0,0.0,50,0.00,,,0.00,1.10,VWS V14.01,2013-08-05 01:02:00,
2013-08-04 21:03:00,68.4,38.3,30.10,NW,320,0.0,1.6,33,0.00,,,0.00,31.07,VWS V14.01,2013-08-05 01:03:00,
2013-08-04 21:04:00,63.7,45.9,30.10,North,10,0.0,0.0,52,0.00,,,0.00,0.00,VWS V14.01,2013-08-05 01:04:00,
2013-08-04 21:05:00,63.7,45.9,30.10,North,10,0.0,0.0,52,0.00,,,0.00,0.00,VWS V14.01,2013-08-05 01:05:00,
2013-08-04 21:06:00,68.5,37.9,30.10,NW,321,3.2,3.2,33,0.00,,,0.00,29.73,VWS V14.01,2013-08-05 01:06:00,
2013-08-04 21:07:00,68.1,38.1,30.09,NNW,329,2.0,3.2,33,0.00,,,0.00,27.90,VWS V14.01,2013-08-05 01:07:00,
2013-08-04 21:08:00,63.5,46.8,30.09,North,10,0.0,0.0,55,0.00,,,0.00,0.12,VWS V14.01,2013-08-05 01:08:00,
2013-08-04 21:09:00,67.8,38.8,30.09,NW,323,1.8,2.3,34,0.00,,,0.00,26.92,VWS V14.01,2013-08-05 01:09:00,
2013-08-04 21:10:00,62.3,47.1,30.09,North,10,0.0,0.0,57,0.00,,,0.00,0.00,VWS V14.01,2013-08-05 01:10:00,
2013-08-04 21:11:00,62.1,47.4,30.09,North,10,0.0,0.0,59,0.00,,,0.00,0.06,VWS V14.01,2013-08-05 01:11:00,
2013-08-04 21:12:00,62.3,46.9,30.10,North,10,0.0,0.0,57,0.00,,,0.00,0.00,VWS V14.01,2013-08-05 01:12:00,
2013-08-04 21:13:00,67.8,34.6,30.10,NW,326,0.0,1.5,29,0.00,,,0.00,24.24,VWS V14.01,2013-08-05 01:13:00,
2013-08-04 21:14:00,62.1,48.0,30.10,North,10,0.0,0.0,60,0.00,,,0.00,0.00,VWS V14.01,2013-08-05 01:14:00,
2013-08-04 21:15:00,61.8,48.4,30.09,North,10,0.0,0.0,61,0.00,,,0.00,0.00,VWS V14.01,2013-08-05 01:15:00,
2013-08-04 21:16:00,67.4,38.7,30.10,WNW,302,0.0,0.0,35,0.00,,,0.00,24.24,VWS V14.01,2013-08-05 01:16:00,
2013-08-04 21:17:00,61.3,49.0,30.10,North,10,0.0,0.0,64,0.00,,,0.00,0.00,VWS V14.01,2013-08-05 01:17:00,
2013-08-04 21:18:00,61.3,49.3,30.09,North,10,0.0,0.0,65,0.00,,,0.00,0.00,VWS V14.01,2013-08-05 01:18:00,
2013-08-04 21:19:00,61.2,49.9,30.09,North,10,0.0,0.0,66,0.00,,,0.00,0.00,VWS V14.01,2013-08-05 01:19:00,
2013-08-04 21:20:00,66.9,39.1,30.10,NW,326,0.0,0.0,36,0.00,,,0.00,22.28,VWS V14.01,2013-08-05 01:20:00,
2013-08-04 21:21:00,61.0,50.2,30.09,North,10,0.0,0.0,68,0.00,,,0.00,0.00,VWS V14.01,2013-08-05 01:21:00,
2013-08-04 21:22:00,65.4,40.8,30.10,NW,326,0.0,0.0,40,0.00,,,0.00,21.31,VWS V14.01,2013-08-05 01:22:00,
2013-08-04 21:23:00,61.6,48.9,30.12,North,0,0.0,0.0,63,0.00,,,0.00,0.00,VWS V14.01,2013-08-05 01:23:00,
2013-08-04 21:24:00,65.4,43.2,30.10,NW,326,0.0,0.0,44,0.00,,,0.00,19.35,VWS V14.01,2013-08-05 01:24:00,
2013-08-04 21:25:00,61.7,48.9,30.10,North,360,0.0,0.0,63,0.00,,,0.00,0.12,VWS V14.01,2013-08-05 01:25:00,
2013-08-04 21:26:00,61.6,49.1,30.10,North,360,0.0,0.0,64,0.00,,,0.00,0.00,VWS V14.01,2013-08-05 01:26:00,
2013-08-04 21:27:00,65.3,42.4,30.09,NW,326,0.0,0.0,43,0.00,,,0.00,16.91,VWS V14.01,2013-08-05 01:27:00,
2013-08-04 21:28:00,65.2,42.7,30.09,NW,326,0.0,0.0,44,0.00,,,0.00,17.64,VWS V14.01,2013-08-05 01:28:00,
2013-08-04 21:29:00,61.9,49.0,30.10,NNW,333,0.0,2.2,63,0.00,,,0.00,0.00,VWS V14.01,2013-08-05 01:29:00,
2013-08-04 21:30:00,61.7,49.0,30.10,NNW,333,0.0,2.2,63,0.00,,,0.00,0.00,VWS V14.01,2013-08-05 01:30:00,
2013-08-04 21:31:00,65.9,42.3,30.10,North,10,0.0,0.0,42,0.00,,,0.00,16.42,VWS V14.01,2013-08-05 01:31:00,
2013-08-04 21:32:00,66.3,42.0,30.09,North,10,0.0,0.0,41,0.00,,,0.00,14.47,VWS V14.01,2013-08-05 01:32:00,
2013-08-04 21:33:00,61.2,49.9,30.10,NNW,333,0.0,2.2,66,0.00,,,0.00,0.00,VWS V14.01,2013-08-05 01:33:00,
2013-08-04 21:34:00,64.8,42.0,30.09,North,10,0.0,0.0,43,0.00,,,0.00,12.03,VWS V14.01,2013-08-05 01:34:00,
2013-08-04 21:35:00,60.7,50.0,30.10,NNW,333,0.0,2.2,68,0.00,,,0.00,0.12,VWS V14.01,2013-08-05 01:35:00,
2013-08-04 21:36:00,60.3,50.9,30.10,NNW,333,0.0,2.2,71,0.00,,,0.00,0.00,VWS V14.01,2013-08-05 01:36:00,
2013-08-04 21:37:00,65.7,41.6,30.09,North,10,0.0,0.0,41,0.00,,,0.00,9.59,VWS V14.01,2013-08-05 01:37:00,
2013-08-04 21:38:00,60.3,51.2,30.10,NNE,33,0.0,2.2,72,0.00,,,0.00,0.00,VWS V14.01,2013-08-05 01:38:00,
2013-08-04 21:39:00,65.8,41.7,30.09,North,10,0.0,0.0,41,0.00,,,0.00,7.14,VWS V14.01,2013-08-05 01:39:00,
2013-08-04 21:40:00,60.4,51.9,30.09,NNE,33,0.0,2.2,74,0.00,,,0.00,0.43,VWS V14.01,2013-08-05 01:40:00,
2013-08-04 21:41:00,60.4,52.2,30.09,NNE,33,0.0,2.2,74,0.00,,,0.00,0.00,VWS V14.01,2013-08-05 01:41:00,
2013-08-04 21:42:00,60.3,51.9,30.09,NNE,33,0.0,2.2,74,0.00,,,0.00,0.00,VWS V14.01,2013-08-05 01:42:00,
2013-08-04 21:43:00,64.8,42.7,30.10,North,10,0.0,0.0,45,0.00,,,0.00,7.63,VWS V14.01,2013-08-05 01:43:00,
2013-08-04 21:44:00,59.7,52.2,30.09,NNE,33,0.0,2.2,76,0.00,,,0.00,0.00,VWS V14.01,2013-08-05 01:44:00,
2013-08-04 21:45:00,66.0,41.9,30.10,North,10,0.0,0.0,41,0.00,,,0.00,7.14,VWS V14.01,2013-08-05 01:45:00,
2013-08-04 21:46:00,59.4,52.1,30.10,NNE,33,0.0,2.2,77,0.00,,,0.00,0.00,VWS V14.01,2013-08-05 01:46:00,
2013-08-04 21:47:00,59.5,52.2,30.11,NNE,33,0.0,2.2,77,0.00,,,0.00,0.00,VWS V14.01,2013-08-05 01:47:00,
2013-08-04 21:48:00,59.8,52.5,30.11,NNE,33,0.0,2.2,77,0.00,,,0.00,0.00,VWS V14.01,2013-08-05 01:48:00,
2013-08-04 21:49:00,64.1,45.5,30.09,North,10,0.0,0.0,51,0.00,,,0.00,5.86,VWS V14.01,2013-08-05 01:49:00,
2013-08-04 21:50:00,64.0,46.3,30.10,North,10,0.0,0.0,53,0.00,,,0.00,4.70,VWS V14.01,2013-08-05 01:50:00,
2013-08-04 21:51:00,60.4,53.5,30.11,NNE,33,0.0,2.2,78,0.00,,,0.00,0.00,VWS V14.01,2013-08-05 01:51:00,
2013-08-04 21:52:00,60.4,53.5,30.13,NNE,33,0.0,2.2,78,0.00,,,0.00,0.00,VWS V14.01,2013-08-05 01:52:00,
2013-08-04 21:53:00,59.5,52.8,30.11,NNE,33,0.0,2.2,78,0.00,,,0.00,0.00,VWS V14.01,2013-08-05 01:53:00,
2013-08-04 21:54:00,64.6,45.7,30.08,North,10,0.0,0.0,50,0.00,,,0.00,2.26,VWS V14.01,2013-08-05 01:54:00,
2013-08-04 21:55:00,64.8,44.1,30.12,North,10,0.0,0.0,47,0.00,,,0.00,2.26,VWS V14.01,2013-08-05 01:55:00,
2013-08-04 21:56:00,59.4,53.1,30.10,NNE,33,0.0,2.2,80,0.00,,,0.00,0.00,VWS V14.01,2013-08-05 01:56:00,
2013-08-04 21:57:00,64.3,44.1,30.09,North,10,0.0,0.0,48,0.00,,,0.00,2.02,VWS V14.01,2013-08-05 01:57:00,
2013-08-04 21:58:00,59.7,54.3,30.10,NNE,33,0.0,2.2,82,0.00,,,0.00,0.00,VWS V14.01,2013-08-05 01:58:00,
2013-08-04 21:59:00,59.6,54.5,30.10,NNE,33,0.0,2.2,83,0.00,,,0.00,0.00,VWS V14.01,2013-08-05 01:59:00,
2013-08-04 22:00:00,59.5,54.3,30.10,NNE,33,0.0,2.2,83,0.00,,,0.00,0.73,VWS V14.01,2013-08-05 02:00:00,
2013-08-04 22:01:00,59.2,53.9,30.10,NNE,33,0.0,2.2,83,0.00,,,0.00,0.73,VWS V14.01,2013-08-05 02:01:00,
2013-08-04 22:02:00,59.2,53.8,30.10,NNE,33,0.0,0.0,82,0.00,,,0.00,0.00,VWS V14.01,2013-08-05 02:02:00,
2013-08-04 22:03:00,59.7,54.4,30.10,NNE,33,0.0,0.0,83,0.00,,,0.00,0.00,VWS V14.01,2013-08-05 02:03:00,
2013-08-04 22:04:00,59.6,54.2,30.10,NNE,33,0.0,0.0,82,0.00,,,0.00,0.00,VWS V14.01,2013-08-05 02:04:00,
2013-08-04 22:05:00,59.2,53.4,30.11,NNE,33,0.0,0.0,81,0.00,,,0.00,0.43,VWS V14.01,2013-08-05 02:05:00,
2013-08-04 22:06:00,59.1,53.3,30.10,NNE,33,0.0,0.0,81,0.00,,,0.00,0.00,VWS V14.01,2013-08-05 02:06:00,
2013-08-04 22:07:00,59.0,53.1,30.10,NNE,33,0.0,0.0,81,0.00,,,0.00,0.00,VWS V14.01,2013-08-05 02:07:00,
2013-08-04 22:08:00,59.6,53.4,30.10,NNE,33,0.0,0.0,80,0.00,,,0.00,0.12,VWS V14.01,2013-08-05 02:08:00,
2013-08-04 22:09:00,59.7,53.5,30.11,NNE,33,0.0,0.0,80,0.00,,,0.00,0.00,VWS V14.01,2013-08-05 02:09:00,
2013-08-04 22:10:00,59.7,53.5,30.11,NNE,33,0.0,0.0,80,0.00,,,0.00,0.00,VWS V14.01,2013-08-05 02:10:00,
2013-08-04 22:11:00,59.8,53.4,30.10,NNE,33,0.0,0.0,79,0.00,,,0.00,0.43,VWS V14.01,2013-08-05 02:11:00,
2013-08-04 22:12:00,59.8,53.0,30.10,NNE,33,0.0,0.0,78,0.00,,,0.00,0.00,VWS V14.01,2013-08-05 02:12:00,
2013-08-04 22:13:00,59.6,53.1,30.11,NNW,348,2.2,2.2,79,0.00,,,0.00,0.00,VWS V14.01,2013-08-05 02:13:00,
2013-08-04 22:14:00,59.8,53.1,30.10,NNW,348,0.0,2.2,78,0.00,,,0.00,0.00,VWS V14.01,2013-08-05 02:14:00,
2013-08-04 22:15:00,59.7,53.0,30.10,NNW,348,0.0,0.0,78,0.00,,,0.00,0.73,VWS V14.01,2013-08-05 02:15:00,
2013-08-04 22:16:00,59.5,52.9,30.10,NNW,348,0.0,0.0,79,0.00,,,0.00,0.00,VWS V14.01,2013-08-05 02:16:00,
2013-08-04 22:17:00,59.3,53.2,30.10,NNW,348,0.0,0.0,80,0.00,,,0.00,0.00,VWS V14.01,2013-08-05 02:17:00,
2013-08-04 22:18:00,58.9,53.4,30.10,NNW,348,0.0,0.0,82,0.00,,,0.00,0.73,VWS V14.01,2013-08-05 02:18:00,
2013-08-04 22:19:00,59.1,53.9,30.10,NNW,348,0.0,0.0,83,0.00,,,0.00,0.00,VWS V14.01,2013-08-05 02:19:00,
2013-08-04 22:20:00,59.0,53.9,30.11,NNW,348,0.0,0.0,83,0.00,,,0.00,0.00,VWS V14.01,2013-08-05 02:20:00,
2013-08-04 22:21:00,59.1,53.5,30.10,NNW,348,0.0,0.0,82,0.00,,,0.00,0.00,VWS V14.01,2013-08-05 02:21:00,
2013-08-04 22:22:00,59.8,53.8,30.09,NNW,348,0.0,0.0,81,0.00,,,0.00,0.00,VWS V14.01,2013-08-05 02:22:00,
2013-08-04 22:23:00,60.0,53.0,30.10,NNW,348,0.0,0.0,78,0.00,,,0.00,0.00,VWS V14.01,2013-08-05 02:23:00,
2013-08-04 22:24:00,59.8,52.8,30.10,NNW,348,0.0,0.0,77,0.00,,,0.00,0.00,VWS V14.01,2013-08-05 02:24:00,
2013-08-04 22:25:00,59.8,52.8,30.10,NNW,348,0.0,0.0,77,0.00,,,0.00,0.00,VWS V14.01,2013-08-05 02:25:00,
2013-08-04 22:26:00,58.8,52.9,30.10,NNW,348,0.0,0.0,81,0.00,,,0.00,0.12,VWS V14.01,2013-08-05 02:26:00,
2013-08-04 22:27:00,58.9,53.1,30.10,NNW,348,0.0,0.0,81,0.00,,,0.00,0.00,VWS V14.01,2013-08-05 02:27:00,
2013-08-04 22:28:00,58.8,53.5,30.10,NNW,348,0.0,0.0,83,0.00,,,0.00,0.00,VWS V14.01,2013-08-05 02:28:00,
2013-08-04 22:29:00,58.9,53.7,30.10,NNW,348,0.0,0.0,83,0.00,,,0.00,0.43,VWS V14.01,2013-08-05 02:29:00,
2013-08-04 22:30:00,58.8,53.6,30.09,NNW,348,0.0,0.0,83,0.00,,,0.00,0.43,VWS V14.01,2013-08-05 02:30:00,
2013-08-04 22:31:00,58.5,53.3,30.10,NNW,348,0.0,0.0,83,0.00,,,0.00,0.00,VWS V14.01,2013-08-05 02:31:00,
2013-08-04 22:33:00,58.6,53.6,30.10,NNW,348,0.0,0.0,83,0.00,,,0.00,0.00,VWS V14.01,2013-08-05 02:33:00,
2013-08-04 22:34:00,58.6,53.6,30.10,NNW,348,0.0,0.0,83,0.00,,,0.00,0.00,VWS V14.01,2013-08-05 02:34:00,
2013-08-04 22:35:00,57.9,53.1,30.10,NNW,348,0.0,0.0,84,0.00,,,0.00,0.37,VWS V14.01,2013-08-05 02:35:00,
2013-08-04 22:36:00,57.7,53.0,30.10,NNW,348,0.0,0.0,84,0.00,,,0.00,0.00,VWS V14.01,2013-08-05 02:36:00,
2013-08-04 22:37:00,57.5,52.9,30.09,NNW,348,0.0,0.0,85,0.00,,,0.00,0.00,VWS V14.01,2013-08-05 02:37:00,
2013-08-04 22:38:00,57.4,52.9,30.09,NNW,348,0.0,0.0,85,0.00,,,0.00,0.00,VWS V14.01,2013-08-05 02:38:00,
2013-08-04 22:39:00,57.2,52.9,30.10,NNW,348,0.0,0.0,86,0.00,,,0.00,0.00,VWS V14.01,2013-08-05 02:39:00,
2013-08-04 22:40:00,58.4,54.6,30.10,NNW,348,0.0,0.0,87,0.00,,,0.00,0.00,VWS V14.01,2013-08-05 02:40:00,
2013-08-04 22:41:00,57.6,53.9,30.10,NNW,348,0.0,0.0,87,0.00,,,0.00,0.00,VWS V14.01,2013-08-05 02:41:00,
2013-08-04 22:42:00,57.5,53.8,30.11,NNW,348,0.0,0.0,88,0.00,,,0.00,0.00,VWS V14.01,2013-08-05 02:42:00,
2013-08-04 22:43:00,57.6,54.0,30.10,NNW,348,0.0,0.0,88,0.00,,,0.00,0.43,VWS V14.01,2013-08-05 02:43:00,
2013-08-04 22:44:00,57.9,54.6,30.10,NNW,348,0.0,0.0,89,0.00,,,0.00,0.00,VWS V14.01,2013-08-05 02:44:00,
2013-08-04 22:45:00,58.0,54.7,30.10,NNW,348,0.0,0.0,89,0.00,,,0.00,0.00,VWS V14.01,2013-08-05 02:45:00,
2013-08-04 22:46:00,57.9,54.7,30.11,NNW,348,0.0,0.0,89,0.00,,,0.00,0.00,VWS V14.01,2013-08-05 02:46:00,
2013-08-04 22:47:00,57.9,55.0,30.10,NNW,348,0.0,0.0,90,0.00,,,0.00,0.00,VWS V14.01,2013-08-05 02:47:00,
2013-08-04 22:48:00,57.6,54.6,30.11,NNW,348,0.0,0.0,90,0.00,,,0.00,0.00,VWS V14.01,2013-08-05 02:48:00,
2013-08-04 22:49:00,57.6,54.6,30.11,NNW,348,0.0,0.0,90,0.00,,,0.00,0.00,VWS V14.01,2013-08-05 02:49:00,
2013-08-04 22:50:00,57.4,54.3,30.10,NNW,348,0.0,0.0,89,0.00,,,0.00,0.00,VWS V14.01,2013-08-05 02:50:00,
2013-08-04 22:51:00,57.5,54.4,30.10,NNW,348,0.0,0.0,89,0.00,,,0.00,0.00,VWS V14.01,2013-08-05 02:51:00,
2013-08-04 22:52:00,56.9,53.8,30.10,NNW,348,0.0,0.0,89,0.00,,,0.00,0.00,VWS V14.01,2013-08-05 02:52:00,
2013-08-04 22:53:00,56.9,53.7,30.10,NNW,348,0.0,0.0,89,0.00,,,0.00,0.00,VWS V14.01,2013-08-05 02:53:00,
2013-08-04 22:54:00,57.3,54.2,30.10,NNW,348,0.0,0.0,89,0.00,,,0.00,0.00,VWS V14.01,2013-08-05 02:54:00,
2013-08-04 22:55:00,57.5,54.7,30.10,NNW,348,0.0,0.0,91,0.00,,,0.00,0.06,VWS V14.01,2013-08-05 02:55:00,
2013-08-04 22:56:00,57.5,55.0,30.09,NNW,348,0.0,0.0,91,0.00,,,0.00,0.00,VWS V14.01,2013-08-05 02:56:00,
2013-08-04 22:57:00,57.5,55.0,30.10,NNW,348,0.0,0.0,91,0.00,,,0.00,0.00,VWS V14.01,2013-08-05 02:57:00,
2013-08-04 22:58:00,56.8,54.1,30.10,NNW,348,0.0,0.0,90,0.00,,,0.00,0.00,VWS V14.01,2013-08-05 02:58:00,
2013-08-04 22:59:00,56.6,53.8,30.11,NNW,348,0.0,0.0,90,0.00,,,0.00,0.43,VWS V14.01,2013-08-05 02:59:00,
2013-08-04 23:00:00,57.0,54.4,30.10,NNW,348,0.0,0.0,91,0.00,,,0.00,0.00,VWS V14.01,2013-08-05 03:00:00,
2013-08-04 23:01:00,57.0,54.4,30.10,NNW,348,0.0,0.0,91,0.00,,,0.00,0.00,VWS V14.01,2013-08-05 03:01:00,
2013-08-04 23:02:00,56.8,54.4,30.09,NNW,348,0.0,0.0,92,0.00,,,0.00,0.12,VWS V14.01,2013-08-05 03:02:00,
2013-08-04 23:03:00,57.3,55.2,30.10,NNW,348,0.0,0.0,93,0.00,,,0.00,0.43,VWS V14.01,2013-08-05 03:03:00,
2013-08-04 23:05:00,57.1,54.9,30.10,NNW,348,0.0,0.0,93,0.00,,,0.00,0.00,VWS V14.01,2013-08-05 03:05:00,
2013-08-04 23:08:00,56.7,54.3,30.09,NNW,348,0.0,0.0,92,0.00,,,0.00,0.73,VWS V14.01,2013-08-05 03:08:00,
2013-08-04 23:11:00,56.6,54.3,30.09,NNW,348,0.0,0.0,92,0.00,,,0.00,0.00,VWS V14.01,2013-08-05 03:11:00,
2013-08-04 23:13:00,57.3,55.3,30.10,NNW,348,0.0,0.0,93,0.00,,,0.00,0.00,VWS V14.01,2013-08-05 03:13:00,
2013-08-04 23:14:00,57.0,55.1,30.10,NNW,348,0.0,0.0,93,0.00,,,0.00,0.00,VWS V14.01,2013-08-05 03:14:00,
2013-08-04 23:15:00,57.5,55.6,30.11,WNW,301,0.0,0.0,93,0.00,,,0.00,0.12,VWS V14.01,2013-08-05 03:15:00,
2013-08-04 23:16:00,57.4,55.4,30.10,WNW,301,0.0,0.0,93,0.00,,,0.00,0.12,VWS V14.01,2013-08-05 03:16:00,
2013-08-04 23:17:00,57.8,55.7,30.11,WNW,301,0.0,0.0,92,0.00,,,0.00,0.00,VWS V14.01,2013-08-05 03:17:00,
2013-08-04 23:19:00,56.7,54.3,30.11,WNW,301,0.0,1.1,92,0.00,,,0.00,0.06,VWS V14.01,2013-08-05 03:19:00,
2013-08-04 23:20:00,56.2,53.6,30.11,WNW,301,1.3,1.3,91,0.00,,,0.00,0.00,VWS V14.01,2013-08-05 03:20:00,
2013-08-04 23:22:00,57.3,55.0,30.14,WNW,301,2.2,2.2,92,0.00,,,0.00,0.00,VWS V14.01,2013-08-05 03:22:00,
2013-08-04 23:25:00,56.8,54.1,30.10,WNW,301,2.7,2.7,91,0.00,,,0.00,0.00,VWS V14.01,2013-08-05 03:25:00,
2013-08-04 23:26:00,57.1,54.4,30.11,WNW,300,3.2,3.2,90,0.00,,,0.00,0.00,VWS V14.01,2013-08-05 03:26:00,
2013-08-04 23:27:00,57.5,54.8,30.11,WNW,299,3.9,3.9,91,0.00,,,0.00,0.00,VWS V14.01,2013-08-05 03:27:00,
2013-08-04 23:29:00,56.3,53.3,30.10,NW,312,4.0,4.0,90,0.00,,,0.00,0.00,VWS V14.01,2013-08-05 03:29:00,
2013-08-04 23:30:00,56.7,53.9,30.10,NW,312,3.7,4.0,90,0.00,,,0.00,0.00,VWS V14.01,2013-08-05 03:30:00,
2013-08-04 23:32:00,56.9,54.5,30.09,NW,312,2.7,3.0,92,0.00,,,0.00,0.43,VWS V14.01,2013-08-05 03:32:00,
2013-08-04 23:34:00,57.2,54.7,30.10,NW,325,2.2,2.5,91,0.00,,,0.00,0.43,VWS V14.01,2013-08-05 03:34:00,
2013-08-04 23:36:00,56.5,53.6,30.10,ENE,70,0.0,1.3,90,0.00,,,0.00,0.43,VWS V14.01,2013-08-05 03:36:00,
2013-08-04 23:37:00,56.7,53.9,30.10,ENE,70,0.0,0.0,90,0.00,,,0.00,0.00,VWS V14.01,2013-08-05 03:37:00,
2013-08-04 23:40:00,55.7,53.1,30.11,ENE,70,0.0,0.0,91,0.00,,,0.00,0.00,VWS V14.01,2013-08-05 03:40:00,
2013-08-04 23:42:00,56.2,54.0,30.11,ENE,70,0.0,0.0,92,0.00,,,0.00,0.00,VWS V14.01,2013-08-05 03:42:00,
2013-08-04 23:43:00,56.3,54.1,30.11,ENE,70,0.0,0.0,92,0.00,,,0.00,0.00,VWS V14.01,2013-08-05 03:43:00,
2013-08-04 23:45:00,56.5,54.5,30.10,ENE,69,0.0,0.0,93,0.00,,,0.00,0.00,VWS V14.01,2013-08-05 03:45:00,
2013-08-04 23:46:00,56.3,54.5,30.11,ENE,70,0.0,0.0,93,0.00,,,0.00,0.00,VWS V14.01,2013-08-05 03:46:00,
2013-08-04 23:47:00,56.3,54.4,30.10,ENE,70,0.0,0.0,93,0.00,,,0.00,0.00,VWS V14.01,2013-08-05 03:47:00,
2013-08-04 23:49:00,55.8,53.9,30.10,ENE,70,0.0,0.0,93,0.00,,,0.00,0.00,VWS V14.01,2013-08-05 03:49:00,
2013-08-04 23:50:00,55.5,53.5,30.09,ENE,70,0.0,0.0,93,0.00,,,0.00,0.00,VWS V14.01,2013-08-05 03:50:00,
2013-08-04 23:53:00,55.4,53.5,30.10,ENE,70,0.0,0.0,93,0.00,,,0.00,0.00,VWS V14.01,2013-08-05 03:53:00,
2013-08-04 23:55:00,55.3,53.2,30.10,ENE,70,0.0,0.0,93,0.00,,,0.00,0.00,VWS V14.01,2013-08-05 03:55:00,
2013-08-04 23:56:00,55.7,53.8,30.10,ENE,70,0.0,0.0,94,0.00,,,0.00,0.00,VWS V14.01,2013-08-05 03:56:00,
2013-08-04 23:57:00,55.5,53.8,30.10,ENE,70,0.0,0.0,94,0.00,,,0.00,0.00,VWS V14.01,2013-08-05 03:57:00,
2013-08-04 23:59:00,56.0,54.6,30.10,ENE,70,0.0,0.0,95,0.00,,,0.00,0.00,VWS V14.01,2013-08-05 03:59:00,